Provisional Data: Little Mehoopany Creek near North Mehoopany, PA


Please select a monitoring station.
Please select start date.
Please select start date.

Toggle Unit: C/F Toggle Unit: C/F
Sample Time Temperature (C) Temperature (F) Specific Conductivity (mS/cm) pH   Turbidity (NTU+) DO (mg/L)
12/11/2021 12:00:00 AM 4.3 39.74 0.099 7.48 5.27 12.58
12/11/2021 12:15:00 AM 4.31 39.758 0.099 7.48 5.19 12.56
12/11/2021 12:30:00 AM 4.27 39.686 0.099 7.49 5.02 12.57
12/11/2021 12:45:00 AM 4.3 39.74 0.099 7.48 5.32 12.55
12/11/2021 1:00:00 AM 4.29 39.722 0.099 7.49 5.04 12.58
12/11/2021 1:15:00 AM 4.32 39.776 0.099 7.49 5.04 12.55
12/11/2021 1:30:00 AM 4.34 39.812 0.099 7.48 5.16 12.56
12/11/2021 1:45:00 AM 4.35 39.83 0.099 7.48 5.04 12.53
12/11/2021 2:00:00 AM 4.37 39.866 0.099 7.47 5.12 12.56
12/11/2021 2:15:00 AM 4.43 39.974 0.099 7.45 5.04 12.49
12/11/2021 2:30:00 AM 4.47 40.046 0.099 7.45 5.09 12.47
12/11/2021 2:45:00 AM 4.49 40.082 0.099 7.47 5.41 12.5
12/11/2021 3:00:00 AM 4.53 40.154 0.099 7.47 5.18 12.49
12/11/2021 3:15:00 AM 4.56 40.208 0.099 7.47 5.17 12.45
12/11/2021 3:30:00 AM 4.64 40.352 0.099 7.42 4.93 12.41
12/11/2021 3:45:00 AM 4.67 40.406 0.099 7.44 5.24 12.39
12/11/2021 4:00:00 AM 4.72 40.496 0.099 7.44 4.99 12.34
12/11/2021 4:15:00 AM 4.75 40.55 0.099 7.46 5.19 12.36
12/11/2021 4:30:00 AM 4.78 40.604 0.099 7.46 5.07 12.34
12/11/2021 4:45:00 AM 4.81 40.658 0.099 7.47 5.08 12.31
12/11/2021 5:00:00 AM 4.87 40.766 0.099 7.43 5.17 12.29
12/11/2021 5:15:00 AM 4.91 40.838 0.099 7.42 5.14 12.26
12/11/2021 5:30:00 AM 4.91 40.838 0.099 7.43 5.43 12.3
12/11/2021 5:45:00 AM 4.98 40.964 0.099 7.41 5.36 12.24
12/11/2021 6:00:00 AM 4.94 40.892 0.099 7.48 5.18 12.29
12/11/2021 6:15:00 AM 5 41 0.099 7.45 5.08 12.22
12/11/2021 6:30:00 AM 5.02 41.036 0.098 7.47 5.15 12.22
12/11/2021 6:45:00 AM 5.04 41.072 0.098 7.48 5.4 12.2
12/11/2021 7:00:00 AM 5.06 41.108 0.099 7.46 5.46 12.23
12/11/2021 7:15:00 AM 5.06 41.108 0.098 7.5 5.34 12.27
12/11/2021 7:30:00 AM 5.13 41.234 0.097 7.46 5.71 12.19
12/11/2021 7:45:00 AM 5.19 41.342 0.097 7.47 5.35 12.22
12/11/2021 8:00:00 AM 5.2 41.36 0.098 7.47 5.24 12.24
12/11/2021 8:15:00 AM 5.23 41.414 0.098 7.49 5.31 12.24
12/11/2021 8:30:00 AM 5.33 41.594 0.099 7.44 5.29 12.23
12/11/2021 8:45:00 AM 5.34 41.612 0.098 7.52 5.29 12.38
12/11/2021 9:00:00 AM 5.36 41.648 0.098 7.53 5.28 12.53
12/11/2021 9:15:00 AM 5.46 41.828 0.098 7.5 5.34 12.58
12/11/2021 9:30:00 AM 5.53 41.954 0.097 7.57 5.22 12.67
12/11/2021 9:45:00 AM 5.6 42.08 0.097 7.59 5.17 12.74
12/11/2021 10:00:00 AM 5.72 42.296 0.097 7.6 5.06 12.82
12/11/2021 10:15:00 AM 5.73 42.314 0.097 7.65 5.11 12.81
12/11/2021 10:30:00 AM 5.8 42.44 0.097 7.64 5.3 12.75
12/11/2021 10:45:00 AM 5.84 42.512 0.097 7.64 5.31 12.73
12/11/2021 11:00:00 AM 5.91 42.638 0.096 7.62 5.46 12.63
12/11/2021 11:15:00 AM 5.99 42.782 0.096 7.61 5.47 12.52
12/11/2021 11:30:00 AM 6 42.8 0.096 7.59 5.57 12.44
12/11/2021 11:45:00 AM 6.02 42.836 0.096 7.59 5.61 12.39
12/11/2021 12:00:00 PM 6.05 42.89 0.096 7.61 5.48 12.4
12/11/2021 12:15:00 PM 6.12 43.016 0.096 7.59 5.79 12.31
12/11/2021 12:30:00 PM 6.14 43.052 0.096 7.61 5.91 12.38
12/11/2021 12:45:00 PM 6.16 43.088 0.095 7.62 5.95 12.35
12/11/2021 1:00:00 PM 6.21 43.178 0.095 7.6 5.81 12.3
12/11/2021 1:15:00 PM 6.28 43.304 0.095 7.56 5.77 12.26
12/11/2021 1:30:00 PM 6.32 43.376 0.095 7.55 5.61 12.24
12/11/2021 1:45:00 PM 6.35 43.43 0.095 7.6 5.57 12.26
12/11/2021 2:00:00 PM 6.4 43.52 0.096 7.57 5.48 12.18
12/11/2021 2:15:00 PM 6.45 43.61 0.097 7.58 5.77 12.21
12/11/2021 2:30:00 PM 6.52 43.736 0.097 7.56 5.67 12.16
12/11/2021 2:45:00 PM 6.65 43.97 0.098 7.52 5.64 12.12
12/11/2021 3:00:00 PM 6.71 44.078 0.099 7.53 5.75 12.18
12/11/2021 3:15:00 PM 6.76 44.168 0.099 7.57 5.83 12.22
12/11/2021 3:30:00 PM 6.85 44.33 0.099 7.57 5.57 12.24
12/11/2021 3:45:00 PM 6.91 44.438 0.098 7.59 5.41 12.21
12/11/2021 4:00:00 PM 7.02 44.636 0.098 7.57 5.48 12.03
12/11/2021 4:15:00 PM 7.05 44.69 0.098 7.54 5.33 11.87
12/11/2021 4:30:00 PM 7.1 44.78 0.098 7.52 5.4 11.79
12/11/2021 4:45:00 PM 7.15 44.87 0.097 7.49 5.31 11.68
12/11/2021 5:00:00 PM 7.21 44.978 0.097 7.44 5.35 11.54
12/11/2021 5:15:00 PM 7.23 45.014 0.097 7.45 5.32 11.51
12/11/2021 5:30:00 PM 7.29 45.122 0.097 7.42 5.26 11.43
12/11/2021 5:45:00 PM 7.34 45.212 0.097 7.44 5.31 11.39
12/11/2021 6:00:00 PM 7.35 45.23 0.097 7.49 5.28 11.44
12/11/2021 6:15:00 PM 7.45 45.41 0.097 7.44 5.41 11.41
12/11/2021 6:30:00 PM 7.52 45.536 0.097 7.43 5.36 11.38
12/11/2021 6:45:00 PM 7.59 45.662 0.097 7.41 5.4 11.31
12/11/2021 7:00:00 PM 7.61 45.698 0.097 7.46 5.37 11.36
12/11/2021 7:15:00 PM 7.68 45.824 0.097 7.44 5.55 11.29
12/11/2021 7:30:00 PM 7.78 46.004 0.097 7.43 5.57 11.24
12/11/2021 7:45:00 PM 7.83 46.094 0.097 7.38 5.43 11.2
12/11/2021 8:00:00 PM 7.78 46.004 0.097 7.42 5.49 11.27
12/11/2021 8:15:00 PM 7.8 46.04 0.097 7.4 5.55 11.19
12/11/2021 8:30:00 PM 7.83 46.094 0.097 7.37 5.74 11.13
12/11/2021 8:45:00 PM 7.77 45.986 0.097 7.45 5.19 11.3
12/11/2021 9:00:00 PM 7.71 45.878 0.097 7.46 5.33 11.28
12/11/2021 9:15:00 PM 7.64 45.752 0.097 7.44 5.66 11.31
12/11/2021 9:30:00 PM 7.55 45.59 0.097 7.43 5.59 11.33
12/11/2021 9:45:00 PM 7.44 45.392 0.097 7.44 5.37 11.43
12/11/2021 10:00:00 PM 7.35 45.23 0.097 7.46 5.47 11.46
12/11/2021 10:15:00 PM 7.25 45.05 0.097 7.46 5.17 11.48
12/11/2021 10:30:00 PM 7.17 44.906 0.097 7.43 5.35 11.51
12/11/2021 10:45:00 PM 7.05 44.69 0.097 7.44 5.43 11.56
12/11/2021 11:00:00 PM 6.96 44.528 0.097 7.43 5.45 11.57
12/11/2021 11:15:00 PM 6.84 44.312 0.097 7.44 5.71 11.63
12/11/2021 11:30:00 PM 6.73 44.114 0.096 7.46 5.49 11.73
12/11/2021 11:45:00 PM 6.7 44.06 0.096 7.46 5.36 11.65
12/12/2021 12:00:00 AM 6.56 43.808 0.096 7.45 5.34 11.77
12/12/2021 12:15:00 AM 6.47 43.646 0.096 7.45 5.41 11.77
12/12/2021 12:30:00 AM 6.37 43.466 0.096 7.46 5.66 11.82
12/12/2021 12:45:00 AM 6.34 43.412 0.096 7.42 5.55 11.77
12/12/2021 1:00:00 AM 6.23 43.214 0.096 7.45 5.35 11.88
12/12/2021 1:15:00 AM 6.17 43.106 0.096 7.44 5.5 11.88
12/12/2021 1:30:00 AM 6.09 42.962 0.096 7.46 5.47 11.92
12/12/2021 1:45:00 AM 6.02 42.836 0.096 7.45 5.3 11.95
12/12/2021 2:00:00 AM 5.98 42.764 0.096 7.44 5.5 11.95
12/12/2021 2:15:00 AM 5.9 42.62 0.096 7.45 5.32 12
12/12/2021 2:30:00 AM 5.82 42.476 0.096 7.45 5.5 12.03
12/12/2021 2:45:00 AM 5.8 42.44 0.096 7.43 5.37 12
12/12/2021 3:00:00 AM 5.69 42.242 0.095 7.46 5.34 12.11
12/12/2021 3:15:00 AM 5.64 42.152 0.095 7.43 5.49 12.07
12/12/2021 3:30:00 AM 5.57 42.026 0.095 7.46 5.41 12.13
12/12/2021 3:45:00 AM 5.51 41.918 0.096 7.45 7.19 12.17
12/12/2021 4:00:00 AM 5.44 41.792 0.096 7.43 5.45 12.16
12/12/2021 4:15:00 AM 5.36 41.648 0.095 7.45 5.46 12.2
12/12/2021 4:30:00 AM 5.34 41.612 0.095 7.42 6.7 12.23
12/12/2021 4:45:00 AM 5.28 41.504 0.095 7.42 5.52 12.27
12/12/2021 5:00:00 AM 5.21 41.378 0.095 7.44 5.81 12.29
12/12/2021 5:15:00 AM 5.12 41.216 0.095 7.44 5.82 12.33
12/12/2021 5:30:00 AM 5.08 41.144 0.096 7.42 5.67 12.29
12/12/2021 5:45:00 AM 5 41 0.095 7.45 5.72 12.36
12/12/2021 6:00:00 AM 4.93 40.874 0.095 7.45 5.68 12.38
12/12/2021 6:15:00 AM 4.88 40.784 0.095 7.44 5.58 12.37
12/12/2021 6:30:00 AM 4.83 40.694 0.095 7.42 5.72 12.36
12/12/2021 6:45:00 AM 4.8 40.64 0.095 7.43 5.49 12.37
12/12/2021 7:00:00 AM 4.73 40.514 0.095 7.43 5.75 12.43
12/12/2021 7:15:00 AM 4.67 40.406 0.095 7.43 5.64 12.46
12/12/2021 7:30:00 AM 4.64 40.352 0.095 7.41 5.53 12.44
12/12/2021 7:45:00 AM 4.6 40.28 0.095 7.41 5.67 12.53
12/12/2021 8:00:00 AM 4.56 40.208 0.095 7.42 5.56 12.59
12/12/2021 8:15:00 AM 4.53 40.154 0.095 7.44 5.39 12.69
12/12/2021 8:30:00 AM 4.5 40.1 0.095 7.46 5.52 12.78
12/12/2021 8:45:00 AM 4.47 40.046 0.095 7.5 5.33 12.85
12/12/2021 9:00:00 AM 4.49 40.082 0.095 7.49 5.32 12.98
12/12/2021 9:15:00 AM 4.5 40.1 0.095 7.49 5.49 13.06
12/12/2021 9:30:00 AM 4.52 40.136 0.095 7.53 5.55 13.13
12/12/2021 9:45:00 AM 4.56 40.208 0.095 7.56 5.36 13.21
12/12/2021 10:00:00 AM 4.57 40.226 0.095 7.58 5.48 13.28
12/12/2021 10:15:00 AM 4.57 40.226 0.095 7.58 5.32 13.3
12/12/2021 10:30:00 AM 4.59 40.262 0.095 7.58 5.65 13.3
12/12/2021 10:45:00 AM 4.61 40.298 0.095 7.61 5.39 13.36
12/12/2021 11:00:00 AM 4.59 40.262 0.094 7.64 5.34 13.34
12/12/2021 11:15:00 AM 4.58 40.244 0.094 7.64 5.42 13.38
12/12/2021 11:30:00 AM 4.67 40.406 0.094 7.59 5.58 13.37
12/12/2021 11:45:00 AM 4.6 40.28 0.094 7.66 5.37 13.38
12/12/2021 12:00:00 PM 4.55 40.19 0.094 7.71 5.49 13.36
12/12/2021 12:15:00 PM 4.56 40.208 0.094 7.69 5.3 13.35
12/12/2021 12:30:00 PM 4.6 40.28 0.094 7.62 5.64 13.26
12/12/2021 12:45:00 PM 4.62 40.316 0.094 7.64 5.35 13.25
12/12/2021 1:00:00 PM 4.73 40.514 0.094 7.61 5.4 13.22
12/12/2021 1:15:00 PM 4.69 40.442 0.094 7.63 5.36 13.22
12/12/2021 1:30:00 PM 4.76 40.568 0.094 7.6 5.5 13.18
12/12/2021 1:45:00 PM 4.74 40.532 0.094 7.62 5.43 13.17
12/12/2021 2:00:00 PM 4.77 40.586 0.094 7.59 5.42 13.09
12/12/2021 2:15:00 PM 4.86 40.748 0.094 7.55 5.49 12.97
12/12/2021 2:30:00 PM 4.8 40.64 0.094 7.61 5.57 13.02
12/12/2021 2:45:00 PM 4.82 40.676 0.094 7.63 5.49 12.97
12/12/2021 3:00:00 PM 4.86 40.748 0.094 7.58 5.45 12.94
12/12/2021 3:15:00 PM 4.95 40.91 0.094 7.53 5.45 12.83
12/12/2021 3:30:00 PM 4.9 40.82 0.094 7.57 5.48 12.89
12/12/2021 3:45:00 PM 4.92 40.856 0.094 7.53 5.49 12.82
12/12/2021 4:00:00 PM 4.91 40.838 0.094 7.52 5.44 12.81
12/12/2021 4:15:00 PM 4.89 40.802 0.094 7.53 5.56 12.75
12/12/2021 4:30:00 PM 4.86 40.748 0.094 7.5 5.46 12.69
12/12/2021 4:45:00 PM 4.81 40.658 0.094 7.5 5.48 12.65
12/12/2021 5:00:00 PM 4.71 40.478 0.095 7.49 5.36 12.65
12/12/2021 5:15:00 PM 4.68 40.424 0.095 7.47 5.43 12.56
12/12/2021 5:30:00 PM 4.61 40.298 0.095 7.45 5.43 12.57
12/12/2021 5:45:00 PM 4.51 40.118 0.095 7.45 5.35 12.59
12/12/2021 6:00:00 PM 4.45 40.01 0.095 7.46 5.41 12.6
12/12/2021 6:15:00 PM 4.4 39.92 0.096 7.44 5.44 12.59
12/12/2021 6:30:00 PM 4.33 39.794 0.096 7.44 5.28 12.59
12/12/2021 6:45:00 PM 4.28 39.704 0.096 7.42 5.38 12.61
12/12/2021 7:00:00 PM 4.22 39.596 0.096 7.42 5.38 12.66
12/12/2021 7:15:00 PM 4.23 39.614 0.096 7.4 5.41 12.6
12/12/2021 7:30:00 PM 4.13 39.434 0.096 7.45 5.44 12.64
12/12/2021 7:45:00 PM 4.05 39.29 0.096 7.46 5.42 12.72
12/12/2021 8:00:00 PM 4.01 39.218 0.096 7.45 5.53 12.74
12/12/2021 8:15:00 PM 4.02 39.236 0.097 7.45 5.94 12.72
12/12/2021 8:30:00 PM 3.98 39.164 0.096 7.44 5.37 12.71
12/12/2021 8:45:00 PM 3.95 39.11 0.097 7.45 5.37 12.73
12/12/2021 9:00:00 PM 3.9 39.02 0.097 7.45 5.42 12.75
12/12/2021 9:15:00 PM 3.86 38.948 0.097 7.46 5.31 12.79
12/12/2021 9:30:00 PM 3.86 38.948 0.097 7.43 5.29 12.74
12/12/2021 9:45:00 PM 3.79 38.822 0.097 7.45 5.41 12.83
12/12/2021 10:00:00 PM 3.77 38.786 0.097 7.45 5.35 12.8
12/12/2021 10:15:00 PM 3.77 38.786 0.097 7.46 5.28 12.82
12/12/2021 10:30:00 PM 3.73 38.714 0.097 7.47 5.31 12.83
12/12/2021 10:45:00 PM 3.68 38.624 0.097 7.48 5.36 12.85
12/12/2021 11:00:00 PM 3.7 38.66 0.097 7.46 5.34 12.8
12/12/2021 11:15:00 PM 3.65 38.57 0.097 7.47 5.32 12.9
12/12/2021 11:30:00 PM 3.63 38.534 0.097 7.47 5.31 12.89
12/12/2021 11:45:00 PM 3.64 38.552 0.098 7.46 5.21 12.84
12/13/2021 12:00:00 AM 3.57 38.426 0.097 7.49 5.43 12.92
12/13/2021 12:15:00 AM 3.59 38.462 0.098 7.46 5.27 12.88
12/13/2021 12:30:00 AM 3.58 38.444 0.098 7.45 5.58 12.83
12/13/2021 12:45:00 AM 3.53 38.354 0.098 7.47 5.47 12.94
12/13/2021 1:00:00 AM 3.52 38.336 0.098 7.46 5.28 12.89
12/13/2021 1:15:00 AM 3.5 38.3 0.098 7.48 5.35 12.93
12/13/2021 1:30:00 AM 3.48 38.264 0.098 7.48 5.54 12.94
12/13/2021 1:45:00 AM 3.49 38.282 0.098 7.47 5.36 12.95
12/13/2021 2:00:00 AM 3.51 38.318 0.098 7.47 5.32 12.94
12/13/2021 2:15:00 AM 3.49 38.282 0.098 7.48 5.39 12.95
12/13/2021 2:30:00 AM 3.52 38.336 0.098 7.47 5.21 12.92
12/13/2021 2:45:00 AM 3.53 38.354 0.098 7.46 5.5 12.95
12/13/2021 3:00:00 AM 3.56 38.408 0.098 7.45 5.3 12.91
12/13/2021 3:15:00 AM 3.57 38.426 0.098 7.44 5.34 12.88
12/13/2021 3:30:00 AM 3.51 38.318 0.098 7.48 5.3 12.99
12/13/2021 3:45:00 AM 3.55 38.39 0.098 7.46 5.34 12.94
12/13/2021 4:00:00 AM 3.55 38.39 0.098 7.47 5.23 12.94
12/13/2021 4:15:00 AM 3.53 38.354 0.098 7.45 5.34 12.97
12/13/2021 4:30:00 AM 3.56 38.408 0.098 7.48 5.32 12.94
12/13/2021 4:45:00 AM 3.58 38.444 0.098 7.45 5.44 12.92
12/13/2021 5:00:00 AM 3.6 38.48 0.098 7.46 5.33 12.91
12/13/2021 5:15:00 AM 3.63 38.534 0.098 7.45 5.28 12.89
12/13/2021 5:30:00 AM 3.62 38.516 0.098 7.47 5.19 12.9
12/13/2021 5:45:00 AM 3.68 38.624 0.098 7.45 5.33 12.85
12/13/2021 6:00:00 AM 3.67 38.606 0.098 7.45 5.2 12.88
12/13/2021 6:15:00 AM 3.65 38.57 0.098 7.47 5.23 12.93
12/13/2021 6:30:00 AM 3.68 38.624 0.098 7.46 5.27 12.89
12/13/2021 6:45:00 AM 3.72 38.696 0.098 7.45 6.24 12.83
12/13/2021 7:00:00 AM 3.71 38.678 0.098 7.47 6.1 12.83
12/13/2021 7:15:00 AM 3.77 38.786 0.098 7.43 5.43 12.82
12/13/2021 7:30:00 AM 3.74 38.732 0.098 7.45 5.28 12.85
12/13/2021 7:45:00 AM 3.78 38.804 0.098 7.44 5.54 12.84
12/13/2021 8:00:00 AM 3.76 38.768 0.098 7.47 5.4 12.97
12/13/2021 8:15:00 AM 3.79 38.822 0.098 7.48 5.22 13.04
12/13/2021 8:30:00 AM 3.81 38.858 0.098 7.53 5.41 13.19
12/13/2021 8:45:00 AM 3.88 38.984 0.098 7.52 5.24 13.3
12/13/2021 9:00:00 AM 3.92 39.056 0.097 7.58 5.33 13.42
12/13/2021 9:15:00 AM 4.03 39.254 0.097 7.6 5.19 13.49
12/13/2021 9:30:00 AM 4.07 39.326 0.097 7.59 5.51 13.5
12/13/2021 9:45:00 AM 4.15 39.47 0.097 7.61 5.29 13.51
12/13/2021 10:00:00 AM 4.16 39.488 0.097 7.68 5.25 13.57
12/13/2021 10:15:00 AM 4.22 39.596 0.097 7.69 5.17 13.56
12/13/2021 10:30:00 AM 4.28 39.704 0.096 7.71 5.41 13.56
12/13/2021 10:45:00 AM 4.31 39.758 0.097 7.73 5.34 13.56
12/13/2021 11:00:00 AM 4.36 39.848 0.103 7.88 2.57 13.42
12/13/2021 11:15:00 AM 4.28 39.704 0.101 7.76 1.37 13.51
12/13/2021 11:30:00 AM 4.29 39.722 0.101 7.75 1.75 13.46
12/13/2021 11:45:00 AM 4.33 39.794 0.102 7.74 1.44 13.51
12/13/2021 12:00:00 PM 4.3 39.74 0.101 7.74 1.58 13.48
12/13/2021 12:15:00 PM 4.33 39.794 0.101 7.73 1.39 13.45
12/13/2021 12:30:00 PM 4.28 39.704 0.101 7.76 1.47 13.43
12/13/2021 12:45:00 PM 4.32 39.776 0.101 7.72 1.47 13.39
12/13/2021 1:00:00 PM 4.35 39.83 0.101 7.74 1.58 13.35
12/13/2021 1:15:00 PM 4.46 40.028 0.101 7.69 1.56 13.32
12/13/2021 1:30:00 PM 4.56 40.208 0.1 7.66 1.46 13.26
12/13/2021 1:45:00 PM 4.5 40.1 0.1 7.71 1.43 13.25
12/13/2021 2:00:00 PM 4.58 40.244 0.1 7.68 1.4 13.18
12/13/2021 2:15:00 PM 4.61 40.298 0.101 7.7 1.37 13.12
12/13/2021 2:30:00 PM 4.63 40.334 0.1 7.7 1.47 13.08
12/13/2021 2:45:00 PM 4.71 40.478 0.1 7.66 1.49 13.01
12/13/2021 3:00:00 PM 4.76 40.568 0.1 7.66 1.43 12.94
12/13/2021 3:15:00 PM 4.81 40.658 0.101 7.65 1.59 12.91
12/13/2021 3:30:00 PM 4.84 40.712 0.101 7.65 1.38 12.87
12/13/2021 3:45:00 PM 4.88 40.784 0.1 7.63 1.42 12.82
12/13/2021 4:00:00 PM 4.85 40.73 0.1 7.66 1.41 12.83
12/13/2021 4:15:00 PM 4.9 40.82 0.101 7.61 1.26 12.73
12/13/2021 4:30:00 PM 4.86 40.748 0.101 7.6 1.34 12.71
12/13/2021 4:45:00 PM 4.82 40.676 0.101 7.58 1.52 12.63
12/13/2021 5:00:00 PM 4.79 40.622 0.101 7.59 1.29 12.6
12/13/2021 5:15:00 PM 4.72 40.496 0.101 7.56 1.37 12.59
12/13/2021 5:30:00 PM 4.67 40.406 0.101 7.54 1.53 12.56
12/13/2021 5:45:00 PM 4.57 40.226 0.102 7.56 1.39 12.63
12/13/2021 6:00:00 PM 4.51 40.118 0.102 7.56 1.6 12.63
12/13/2021 6:15:00 PM 4.47 40.046 0.102 7.53 1.49 12.61
12/13/2021 6:30:00 PM 4.4 39.92 0.102 7.51 1.35 12.55
12/13/2021 6:45:00 PM 4.33 39.794 0.102 7.53 1.62 12.64
12/13/2021 7:00:00 PM 4.23 39.614 0.103 7.54 1.28 12.7
12/13/2021 7:15:00 PM 4.2 39.56 0.103 7.53 1.57 12.67
12/13/2021 7:30:00 PM 4.16 39.488 0.103 7.5 1.46 12.66
12/13/2021 7:45:00 PM 4.09 39.362 0.103 7.51 1.45 12.71
12/13/2021 8:00:00 PM 4.05 39.29 0.103 7.52 1.71 12.73
12/13/2021 8:15:00 PM 4.01 39.218 0.103 7.49 1.59 12.73
12/13/2021 8:30:00 PM 3.95 39.11 0.103 7.5 1.45 12.75
12/13/2021 8:45:00 PM 3.91 39.038 0.103 7.51 1.16 12.8
12/13/2021 9:00:00 PM 3.91 39.038 0.103 7.49 1.42 12.75
12/13/2021 9:15:00 PM 3.85 38.93 0.103 7.5 1.4 12.79
12/13/2021 9:30:00 PM 3.83 38.894 0.103 7.49 1.41 12.79
12/13/2021 9:45:00 PM 3.77 38.786 0.104 7.5 1.21 12.85
12/13/2021 10:00:00 PM 3.77 38.786 0.103 7.49 1.51 12.82
12/13/2021 10:15:00 PM 3.72 38.696 0.103 7.49 1.34 12.83
12/13/2021 10:30:00 PM 3.72 38.696 0.103 7.5 1.55 12.84
12/13/2021 10:45:00 PM 3.66 38.588 0.103 7.5 1.24 12.87
12/13/2021 11:00:00 PM 3.64 38.552 0.103 7.49 1.29 12.84
12/13/2021 11:15:00 PM 3.6 38.48 0.104 7.49 1.46 12.88
12/13/2021 11:30:00 PM 3.55 38.39 0.104 7.51 1.24 12.92
12/13/2021 11:45:00 PM 3.51 38.318 0.103 7.51 1.34 12.96
12/14/2021 12:00:00 AM 3.5 38.3 0.104 7.5 1.61 12.93
12/14/2021 12:15:00 AM 3.51 38.318 0.104 7.49 1.52 12.9
12/14/2021 12:30:00 AM 3.41 38.138 0.104 7.51 1.34 12.97
12/14/2021 12:45:00 AM 3.46 38.228 0.104 7.47 1.43 12.88
12/14/2021 1:00:00 AM 3.38 38.084 0.104 7.5 1.3 12.99
12/14/2021 1:15:00 AM 3.31 37.958 0.104 7.52 1.27 13.02
12/14/2021 1:30:00 AM 3.32 37.976 0.104 7.51 1.41 13.02
12/14/2021 1:45:00 AM 3.28 37.904 0.104 7.5 1.32 13.02
12/14/2021 2:00:00 AM 3.29 37.922 0.104 7.49 1.52 13.03
12/14/2021 2:15:00 AM 3.28 37.904 0.104 7.48 1.51 13.01
12/14/2021 2:30:00 AM 3.18 37.724 0.104 7.51 1.43 13.1
12/14/2021 2:45:00 AM 3.25 37.85 0.104 7.5 1.23 13
12/14/2021 3:00:00 AM 3.15 37.67 0.104 7.5 1.26 13.09
12/14/2021 3:15:00 AM 3.13 37.634 0.104 7.51 1.29 13.13
12/14/2021 3:30:00 AM 3.12 37.616 0.104 7.51 1.38 13.12
12/14/2021 3:45:00 AM 3.03 37.454 0.104 7.52 1.27 13.17
12/14/2021 4:00:00 AM 3.05 37.49 0.104 7.5 1.22 13.14
12/14/2021 4:15:00 AM 3.06 37.508 0.105 7.51 1.28 13.14
12/14/2021 4:30:00 AM 2.96 37.328 0.105 7.52 1.38 13.19
12/14/2021 4:45:00 AM 3.05 37.49 0.104 7.48 1.29 13.1
12/14/2021 5:00:00 AM 2.92 37.256 0.104 7.51 1.35 13.19
12/14/2021 5:15:00 AM 2.94 37.292 0.104 7.51 1.32 13.2
12/14/2021 5:30:00 AM 2.93 37.274 0.104 7.51 1.36 13.2
12/14/2021 5:45:00 AM 2.9 37.22 0.104 7.5 1.42 13.2
12/14/2021 6:00:00 AM 2.86 37.148 0.104 7.52 1.34 13.25
12/14/2021 6:15:00 AM 2.85 37.13 0.104 7.51 1.51 13.22
12/14/2021 6:30:00 AM 2.85 37.13 0.104 7.5 1.26 13.22
12/14/2021 6:45:00 AM 2.86 37.148 0.104 7.49 1.53 13.17
12/14/2021 7:00:00 AM 2.81 37.058 0.104 7.49 1.27 13.23
12/14/2021 7:15:00 AM 2.76 36.968 0.104 7.51 1.46 13.29
12/14/2021 7:30:00 AM 2.75 36.95 0.104 7.52 1.32 13.34
12/14/2021 7:45:00 AM 2.74 36.932 0.105 7.51 1.29 13.37
12/14/2021 8:00:00 AM 2.76 36.968 0.104 7.52 1.45 13.42
12/14/2021 8:15:00 AM 2.82 37.076 0.104 7.54 1.28 13.47
12/14/2021 8:30:00 AM 2.9 37.22 0.104 7.55 1.37 13.55
12/14/2021 8:45:00 AM 2.96 37.328 0.104 7.55 1.29 13.61
12/14/2021 9:00:00 AM 2.93 37.274 0.104 7.62 1.52 13.81
12/14/2021 9:15:00 AM 3.04 37.472 0.103 7.62 1.4 13.77
12/14/2021 9:30:00 AM 3.06 37.508 0.103 7.68 1.29 13.96
12/14/2021 9:45:00 AM 3.19 37.742 0.103 7.72 1.41 14.02
12/14/2021 10:00:00 AM 3.32 37.976 0.102 7.72 1.29 14.02
12/14/2021 10:15:00 AM 3.4 38.12 0.102 7.73 1.35 13.97
12/14/2021 10:30:00 AM 3.45 38.21 0.102 7.79 1.15 14.02
12/14/2021 10:45:00 AM 3.57 38.426 0.102 7.8 1.35 14
12/14/2021 11:00:00 AM 3.67 38.606 0.102 7.84 1.33 13.98
12/14/2021 11:15:00 AM 3.74 38.732 0.102 7.84 1.51 13.98
12/14/2021 11:30:00 AM 3.79 38.822 0.102 7.88 1.4 13.95
12/14/2021 11:45:00 AM 3.82 38.876 0.101 7.87 1.39 13.94
12/14/2021 12:00:00 PM 3.87 38.966 0.101 7.83 1.25 13.84
12/14/2021 12:15:00 PM 3.93 39.074 0.101 7.87 1.49 13.85
12/14/2021 12:30:00 PM 3.91 39.038 0.101 7.84 1.3 13.79
12/14/2021 12:45:00 PM 3.95 39.11 0.101 7.82 1.3 13.72
12/14/2021 1:00:00 PM 4 39.2 0.101 7.81 1.44 13.69
12/14/2021 1:15:00 PM 4.04 39.272 0.101 7.8 1.39 13.61
12/14/2021 1:30:00 PM 4.1 39.38 0.101 7.78 1.12 13.56
12/14/2021 1:45:00 PM 4.13 39.434 0.101 7.79 1.55 13.54
12/14/2021 2:00:00 PM 4.13 39.434 0.101 7.8 1.21 13.52
12/14/2021 2:15:00 PM 4.19 39.542 0.101 7.77 1.3 13.45
12/14/2021 2:30:00 PM 4.21 39.578 0.102 7.75 1.42 13.39
12/14/2021 2:45:00 PM 4.25 39.65 0.101 7.74 1.24 13.38
12/14/2021 3:00:00 PM 4.3 39.74 0.101 7.75 1.54 13.34
12/14/2021 3:15:00 PM 4.34 39.812 0.101 7.72 1.4 13.25
12/14/2021 3:30:00 PM 4.4 39.92 0.101 7.7 1.32 13.2
12/14/2021 3:45:00 PM 4.4 39.92 0.101 7.71 1.46 13.18
12/14/2021 4:00:00 PM 4.43 39.974 0.101 7.68 1.24 13.14
12/14/2021 4:15:00 PM 4.45 40.01 0.101 7.68 1.24 13.07
12/14/2021 4:30:00 PM 4.44 39.992 0.102 7.66 1.41 13.02
12/14/2021 4:45:00 PM 4.44 39.992 0.102 7.63 1.36 12.94
12/14/2021 5:00:00 PM 4.42 39.956 0.103 7.62 1.22 12.9
12/14/2021 5:15:00 PM 4.34 39.812 0.102 7.61 1.36 12.89
12/14/2021 5:30:00 PM 4.27 39.686 0.102 7.6 1.43 12.86
12/14/2021 5:45:00 PM 4.24 39.632 0.103 7.58 1.41 12.83
12/14/2021 6:00:00 PM 4.14 39.452 0.103 7.58 1.47 12.88
12/14/2021 6:15:00 PM 4.05 39.29 0.103 7.58 1.32 12.91
12/14/2021 6:30:00 PM 4.02 39.236 0.103 7.56 1.53 12.9
12/14/2021 6:45:00 PM 3.9 39.02 0.103 7.57 1.42 12.94
12/14/2021 7:00:00 PM 3.88 38.984 0.104 7.55 1.36 12.92
12/14/2021 7:15:00 PM 3.8 38.84 0.103 7.55 1.28 12.95
12/14/2021 7:30:00 PM 3.77 38.786 0.104 7.53 1.55 12.95
12/14/2021 7:45:00 PM 3.7 38.66 0.104 7.54 1.18 12.99
12/14/2021 8:00:00 PM 3.65 38.57 0.104 7.53 1.27 12.99
12/14/2021 8:15:00 PM 3.63 38.534 0.104 7.52 1.38 13.01
12/14/2021 8:30:00 PM 3.58 38.444 0.104 7.54 1.34 13.06
12/14/2021 8:45:00 PM 3.55 38.39 0.104 7.52 1.4 12.99
12/14/2021 9:00:00 PM 3.54 38.372 0.104 7.53 1.36 13.06
12/14/2021 9:15:00 PM 3.52 38.336 0.105 7.52 1.32 13.05
12/14/2021 9:30:00 PM 3.48 38.264 0.104 7.52 1.17 13.07
12/14/2021 9:45:00 PM 3.42 38.156 0.104 7.51 1.35 13.1
12/14/2021 10:00:00 PM 3.41 38.138 0.104 7.52 1.52 13.11
12/14/2021 10:15:00 PM 3.35 38.03 0.104 7.53 1.54 13.15
12/14/2021 10:30:00 PM 3.34 38.012 0.104 7.51 1.27 13.08
12/14/2021 10:45:00 PM 3.3 37.94 0.104 7.53 1.25 13.14
12/14/2021 11:00:00 PM 3.28 37.904 0.104 7.51 1.36 13.14
12/14/2021 11:15:00 PM 3.23 37.814 0.104 7.51 1.35 13.17
12/14/2021 11:30:00 PM 3.23 37.814 0.104 7.52 1.35 13.17
12/14/2021 11:45:00 PM 3.16 37.688 0.104 7.52 1.49 13.19
12/15/2021 12:00:00 AM 3.13 37.634 0.105 7.51 1.42 13.2
12/15/2021 12:15:00 AM 3.11 37.598 0.104 7.52 1.26 13.21
12/15/2021 12:30:00 AM 3.06 37.508 0.104 7.52 1.34 13.2
12/15/2021 12:45:00 AM 3.08 37.544 0.105 7.51 1.25 13.19
12/15/2021 1:00:00 AM 3.01 37.418 0.105 7.51 1.4 13.19
12/15/2021 1:15:00 AM 3.02 37.436 0.105 7.5 1.38 13.17
12/15/2021 1:30:00 AM 2.96 37.328 0.105 7.53 1.29 13.25
12/15/2021 1:45:00 AM 2.94 37.292 0.105 7.53 1.44 13.28
12/15/2021 2:00:00 AM 2.88 37.184 0.105 7.52 1.45 13.3
12/15/2021 2:15:00 AM 2.88 37.184 0.105 7.51 1.26 13.27
12/15/2021 2:30:00 AM 2.82 37.076 0.105 7.5 1.21 13.28
12/15/2021 2:45:00 AM 2.81 37.058 0.105 7.5 1.34 13.29
12/15/2021 3:00:00 AM 2.71 36.878 0.105 7.52 1.38 13.35
12/15/2021 3:15:00 AM 2.77 36.986 0.105 7.49 1.49 13.32
12/15/2021 3:30:00 AM 2.71 36.878 0.105 7.49 1.14 13.31
12/15/2021 3:45:00 AM 2.67 36.806 0.105 7.5 1.26 13.33
12/15/2021 4:00:00 AM 2.63 36.734 0.105 7.51 1.49 13.37
12/15/2021 4:15:00 AM 2.59 36.662 0.105 7.52 1.46 13.42
12/15/2021 4:30:00 AM 2.58 36.644 0.105 7.5 1.34 13.4
12/15/2021 4:45:00 AM 2.55 36.59 0.105 7.5 1.32 13.38
12/15/2021 5:00:00 AM 2.61 36.698 0.106 7.49 1.15 13.35
12/15/2021 5:15:00 AM 2.58 36.644 0.105 7.49 1.22 13.39
12/15/2021 5:30:00 AM 2.48 36.464 0.105 7.51 1.36 13.43
12/15/2021 5:45:00 AM 2.52 36.536 0.106 7.49 1.33 13.39
12/15/2021 6:00:00 AM 2.5 36.5 0.105 7.5 1.4 13.43
12/15/2021 6:15:00 AM 2.43 36.374 0.105 7.51 1.36 13.47
12/15/2021 6:30:00 AM 2.44 36.392 0.105 7.5 1.3 13.45
12/15/2021 6:45:00 AM 2.46 36.428 0.105 7.49 1.31 13.45
12/15/2021 7:00:00 AM 2.47 36.446 0.105 7.49 1.37 13.41
12/15/2021 7:15:00 AM 2.42 36.356 0.105 7.5 1.32 13.45
12/15/2021 7:30:00 AM 2.45 36.41 0.105 7.49 1.36 13.42
12/15/2021 7:45:00 AM 2.45 36.41 0.106 7.5 1.17 13.48
12/15/2021 8:00:00 AM 2.47 36.446 0.105 7.51 1.34 13.56
12/15/2021 8:15:00 AM 2.52 36.536 0.105 7.53 1.22 13.65
12/15/2021 8:30:00 AM 2.53 36.554 0.105 7.55 1.17 13.78
12/15/2021 8:45:00 AM 2.51 36.518 0.104 7.6 1.28 13.93
12/15/2021 9:00:00 AM 2.54 36.572 0.104 7.66 1.16 14.08
12/15/2021 9:15:00 AM 2.61 36.698 0.104 7.69 1.29 14.14
12/15/2021 9:30:00 AM 2.79 37.022 0.104 7.65 1.38 14.12
12/15/2021 9:45:00 AM 2.83 37.094 0.104 7.73 1.21 14.21
12/15/2021 10:00:00 AM 2.9 37.22 0.103 7.76 1.34 14.23
12/15/2021 10:15:00 AM 3.03 37.454 0.103 7.82 1.23 14.27
12/15/2021 10:30:00 AM 3.23 37.814 0.103 7.77 1.21 14.25
12/15/2021 10:45:00 AM 3.39 38.102 0.103 7.73 1.45 14.21
12/15/2021 11:00:00 AM 3.44 38.192 0.103 7.82 1.1 14.2
12/15/2021 11:15:00 AM 3.52 38.336 0.102 7.92 1.15 14.21
12/15/2021 11:30:00 AM 3.66 38.588 0.102 7.9 1.29 14.13
12/15/2021 11:45:00 AM 3.76 38.768 0.102 7.92 1.05 14.09
12/15/2021 12:00:00 PM 3.88 38.984 0.102 7.93 1.14 14.02
12/15/2021 12:15:00 PM 3.97 39.146 0.101 7.96 1.38 13.94
12/15/2021 12:30:00 PM 4.04 39.272 0.101 7.9 1.17 13.85
12/15/2021 12:45:00 PM 4.07 39.326 0.101 7.96 1.27 13.79
12/15/2021 1:00:00 PM 4.17 39.506 0.101 7.93 1.38 13.75
12/15/2021 1:15:00 PM 4.26 39.668 0.101 7.89 1.39 13.67
12/15/2021 1:30:00 PM 4.32 39.776 0.101 7.87 1.35 13.58
12/15/2021 1:45:00 PM 4.35 39.83 0.101 7.84 1.23 13.47
12/15/2021 2:00:00 PM 4.41 39.938 0.101 7.83 1.22 13.39
12/15/2021 2:15:00 PM 4.46 40.028 0.101 7.78 1.27 13.26
12/15/2021 2:30:00 PM 4.5 40.1 0.101 7.76 1.1 13.23
12/15/2021 2:45:00 PM 4.56 40.208 0.102 7.76 1.32 13.21
12/15/2021 3:00:00 PM 4.57 40.226 0.102 7.74 1.15 13.13
12/15/2021 3:15:00 PM 4.61 40.298 0.102 7.71 1.32 13.08
12/15/2021 3:30:00 PM 4.63 40.334 0.102 7.71 1.25 13
12/15/2021 3:45:00 PM 4.64 40.352 0.102 7.66 1.26 12.94
12/15/2021 4:00:00 PM 4.68 40.424 0.102 7.65 1.32 12.84
12/15/2021 4:15:00 PM 4.7 40.46 0.102 7.63 1.09 12.79
12/15/2021 4:30:00 PM 4.71 40.478 0.103 7.63 0.99 12.74
12/15/2021 4:45:00 PM 4.77 40.586 0.103 7.58 1.21 12.64
12/15/2021 5:00:00 PM 4.75 40.55 0.103 7.6 1.2 12.63
12/15/2021 5:15:00 PM 4.76 40.568 0.103 7.6 1.16 12.6
12/15/2021 5:30:00 PM 4.77 40.586 0.103 7.59 1.13 12.59
12/15/2021 5:45:00 PM 4.77 40.586 0.103 7.61 1.26 12.6
12/15/2021 6:00:00 PM 4.82 40.676 0.103 7.58 1.28 12.56
12/15/2021 6:15:00 PM 4.82 40.676 0.104 7.58 1.24 12.53
12/15/2021 6:30:00 PM 4.86 40.748 0.104 7.58 1.28 12.52
12/15/2021 6:45:00 PM 4.86 40.748 0.104 7.59 1.37 12.53
12/15/2021 7:00:00 PM 4.86 40.748 0.104 7.57 1.31 12.51
12/15/2021 7:15:00 PM 4.91 40.838 0.104 7.56 1.35 12.48
12/15/2021 7:30:00 PM 4.93 40.874 0.104 7.54 1.22 12.47
12/15/2021 7:45:00 PM 5 41 0.104 7.51 1.28 12.4
12/15/2021 8:00:00 PM 4.95 40.91 0.104 7.57 1.26 12.46
12/15/2021 8:15:00 PM 5 41 0.104 7.56 1.33 12.42
12/15/2021 8:30:00 PM 5.02 41.036 0.104 7.57 1.37 12.45
12/15/2021 8:45:00 PM 5.05 41.09 0.104 7.51 1.22 12.43
12/15/2021 9:00:00 PM 5.07 41.126 0.104 7.56 1.33 12.41
12/15/2021 9:15:00 PM 5.08 41.144 0.104 7.55 1.27 12.4
12/15/2021 9:30:00 PM 5.12 41.216 0.105 7.52 1.22 12.36
12/15/2021 9:45:00 PM 5.2 41.36 0.104 7.5 1.53 12.29
12/15/2021 10:00:00 PM 5.2 41.36 0.105 7.53 1.25 12.34
12/15/2021 10:15:00 PM 5.23 41.414 0.104 7.56 1.27 12.35
12/15/2021 10:30:00 PM 5.25 41.45 0.104 7.52 1.32 12.36
12/15/2021 10:45:00 PM 5.32 41.576 0.104 7.57 1.26 12.31
12/15/2021 11:00:00 PM 5.34 41.612 0.106 7.57 1.07 12.3
12/15/2021 11:15:00 PM 5.37 41.666 0.104 7.57 1.12 12.27
12/15/2021 11:30:00 PM 5.4 41.72 0.104 7.56 1.21 12.27
12/15/2021 11:45:00 PM 5.41 41.738 0.104 7.57 1.18 12.25
12/16/2021 12:00:00 AM 5.45 41.81 0.105 7.58 1.07 12.28
12/16/2021 12:15:00 AM 5.47 41.846 0.105 7.57 1.36 12.22
12/16/2021 12:30:00 AM 5.52 41.936 0.105 7.57 1.43 12.19
12/16/2021 12:45:00 AM 5.61 42.098 0.112 7.47 1.25 12.13
12/16/2021 1:00:00 AM 5.6 42.08 0.112 7.56 1.34 12.11
12/16/2021 1:15:00 AM 5.66 42.188 0.105 7.51 1.28 12.06
12/16/2021 1:30:00 AM 5.66 42.188 0.105 7.55 1.22 12.18
12/16/2021 1:45:00 AM 5.76 42.368 0.112 7.47 1.25 12.03
12/16/2021 2:00:00 AM 5.73 42.314 0.105 7.54 1.24 12.13
12/16/2021 2:15:00 AM 5.69 42.242 0.105 7.6 1.26 12.19
12/16/2021 2:30:00 AM 5.76 42.368 0.112 7.55 1.22 12.1
12/16/2021 2:45:00 AM 5.75 42.35 0.105 7.56 1.54 12.13
12/16/2021 3:00:00 AM 5.84 42.512 0.112 7.51 1.27 12.03
12/16/2021 3:15:00 AM 5.83 42.494 0.112 7.54 1.3 12.06
12/16/2021 3:30:00 AM 5.88 42.584 0.105 7.54 1.24 12.02
12/16/2021 3:45:00 AM 5.87 42.566 0.112 7.54 1.27 12.08
12/16/2021 4:00:00 AM 5.89 42.602 0.112 7.57 1.28 12.06
12/16/2021 4:15:00 AM 5.94 42.692 0.105 7.49 1.21 12.06
12/16/2021 4:30:00 AM 5.96 42.728 0.112 7.56 1.32 12.04
12/16/2021 4:45:00 AM 6.01 42.818 0.105 7.54 1.14 12.02
12/16/2021 5:00:00 AM 5.98 42.764 0.105 7.57 1.14 12.05
12/16/2021 5:15:00 AM 5.99 42.782 0.112 7.59 1.32 12.08
12/16/2021 5:30:00 AM 6.02 42.836 0.112 7.56 1.29 12
12/16/2021 5:45:00 AM 6.02 42.836 0.112 7.56 1.32 12.02
12/16/2021 6:00:00 AM 6.02 42.836 0.112 7.56 1.26 12.01
12/16/2021 6:15:00 AM 6.02 42.836 0.105 7.54 1.11 12
12/16/2021 6:30:00 AM 6.04 42.872 0.112 7.54 1.12 11.97
12/16/2021 6:45:00 AM 6 42.8 0.112 7.57 1.19 12.04
12/16/2021 7:00:00 AM 6 42.8 0.104 7.58 1.26 12.04
12/16/2021 7:15:00 AM 6 42.8 0.112 7.56 1.32 12.01
12/16/2021 7:30:00 AM 6.02 42.836 0.112 7.54 1.27 11.99
12/16/2021 7:45:00 AM 6.01 42.818 0.111 7.56 1.33 12.03
12/16/2021 8:00:00 AM 6 42.8 0.111 7.59 1.18 12.13
12/16/2021 8:15:00 AM 6 42.8 0.104 7.6 1.33 12.21
12/16/2021 8:30:00 AM 6.02 42.836 0.111 7.62 1.34 12.29
12/16/2021 8:45:00 AM 6.01 42.818 0.104 7.66 1.25 12.45
12/16/2021 9:00:00 AM 6.05 42.89 0.104 7.56 1.28 12.52
12/16/2021 9:15:00 AM 6.08 42.944 0.104 7.71 1.24 12.62
12/16/2021 9:30:00 AM 6.11 42.998 0.104 7.79 1.09 12.74
12/16/2021 9:45:00 AM 6.13 43.034 0.103 7.78 1.26 12.78
12/16/2021 10:00:00 AM 6.2 43.16 0.103 7.85 1.21 12.89
12/16/2021 10:15:00 AM 6.23 43.214 0.11 7.87 1.35 12.84
12/16/2021 10:30:00 AM 6.39 43.502 0.103 7.68 1.33 12.79
12/16/2021 10:45:00 AM 6.35 43.43 0.103 7.89 1.27 12.92
12/16/2021 11:00:00 AM 6.44 43.592 0.109 7.84 1.38 12.87
12/16/2021 11:15:00 AM 6.48 43.664 0.103 7.9 1.3 12.91
12/16/2021 11:30:00 AM 6.55 43.79 0.109 7.9 1.14 12.85
12/16/2021 11:45:00 AM 6.6 43.88 0.109 7.89 1.29 12.79
12/16/2021 12:00:00 PM 6.63 43.934 0.102 7.84 1.27 12.76
12/16/2021 12:15:00 PM 6.61 43.898 0.109 7.93 1.27 12.78
12/16/2021 12:30:00 PM 6.65 43.97 0.109 7.86 1.22 12.69
12/16/2021 12:45:00 PM 6.66 43.988 0.109 7.92 1.12 12.72
12/16/2021 1:00:00 PM 6.92 44.456 0.109 7.47 1.27 12.39
12/16/2021 1:15:00 PM 6.84 44.312 0.109 7.7 1.32 12.54
12/16/2021 1:30:00 PM 6.92 44.456 0.109 7.7 1.09 12.49
12/16/2021 1:45:00 PM 7.02 44.636 0.109 7.62 1.36 12.5
12/16/2021 2:00:00 PM 7.01 44.618 0.103 7.86 1.27 12.55
12/16/2021 2:15:00 PM 7.06 44.708 0.108 7.65 1.26 12.47
12/16/2021 2:30:00 PM 7.46 45.428 0.109 7.27 1.23 11.58
12/16/2021 2:45:00 PM 7.13 44.834 0.108 7.77 1.18 12.4
12/16/2021 3:00:00 PM 7.19 44.942 0.101 7.88 1.09 12.36
12/16/2021 3:15:00 PM 7.23 45.014 0.101 7.87 1.22 12.31
12/16/2021 3:30:00 PM 7.25 45.05 0.101 7.83 1.21 12.23
12/16/2021 3:45:00 PM 7.29 45.122 0.108 7.83 1.29 12.2
12/16/2021 4:00:00 PM 7.36 45.248 0.108 7.76 1.39 12.07
12/16/2021 4:15:00 PM 7.36 45.248 0.108 7.76 1.24 11.99
12/16/2021 4:30:00 PM 7.4 45.32 0.108 7.71 1.23 11.83
12/16/2021 4:45:00 PM 7.39 45.302 0.109 7.66 1.3 11.75
12/16/2021 5:00:00 PM 7.36 45.248 0.109 7.66 1.21 11.7
12/16/2021 5:15:00 PM 7.33 45.194 0.109 7.65 1.19 11.64
12/16/2021 5:30:00 PM 7.32 45.176 0.109 7.63 1.28 11.62
12/16/2021 5:45:00 PM 7.3 45.14 0.11 7.59 1.17 11.56
12/16/2021 6:00:00 PM 7.3 45.14 0.11 7.55 1.19 11.52
12/16/2021 6:15:00 PM 7.26 45.068 0.11 7.59 1.23 11.55
12/16/2021 6:30:00 PM 7.25 45.05 0.111 7.57 1.2 11.56
12/16/2021 6:45:00 PM 7.25 45.05 0.111 7.57 1.36 11.55
12/16/2021 7:00:00 PM 7.23 45.014 0.111 7.58 1.18 11.57
12/16/2021 7:15:00 PM 7.23 45.014 0.111 7.58 1.32 11.56
12/16/2021 7:30:00 PM 7.23 45.014 0.111 7.58 1.36 11.54
12/16/2021 7:45:00 PM 7.25 45.05 0.111 7.57 1.31 11.53
12/16/2021 8:00:00 PM 7.22 44.996 0.111 7.6 1.41 11.58
12/16/2021 8:15:00 PM 7.25 45.05 0.112 7.59 1.13 11.56
12/16/2021 8:30:00 PM 7.3 45.14 0.111 7.5 1.24 11.48
12/16/2021 8:45:00 PM 7.3 45.14 0.112 7.56 1.28 11.5
12/16/2021 9:00:00 PM 7.29 45.122 0.112 7.58 1.17 11.53
12/16/2021 9:15:00 PM 7.28 45.104 0.112 7.59 1.34 11.52
12/16/2021 9:30:00 PM 7.29 45.122 0.112 7.57 1.19 11.5
12/16/2021 9:45:00 PM 7.31 45.158 0.112 7.5 1.22 11.35
12/16/2021 10:00:00 PM 7.31 45.158 0.112 7.59 1.21 11.53
12/16/2021 10:15:00 PM 7.35 45.23 0.112 7.55 1.22 11.45
12/16/2021 10:30:00 PM 7.37 45.266 0.112 7.55 1.1 11.46
12/16/2021 10:45:00 PM 7.36 45.248 0.112 7.56 1.45 11.47
12/16/2021 11:00:00 PM 7.38 45.284 0.112 7.55 1.23 11.45
12/16/2021 11:15:00 PM 7.37 45.266 0.112 7.56 1.31 11.48
12/16/2021 11:30:00 PM 7.39 45.302 0.112 7.55 1.32 11.44
12/16/2021 11:45:00 PM 7.42 45.356 0.112 7.56 1.29 11.43
12/17/2021 12:00:00 AM 7.41 45.338 0.112 7.53 1.12 11.41
12/17/2021 12:15:00 AM 7.42 45.356 0.112 7.56 1.26 11.47
12/17/2021 12:30:00 AM 7.45 45.41 0.113 7.55 1.13 11.43
12/17/2021 12:45:00 AM 7.51 45.518 0.112 7.5 1.2 11.32
12/17/2021 1:00:00 AM 7.51 45.518 0.112 7.55 1.22 11.38
12/17/2021 1:15:00 AM 7.55 45.59 0.112 7.57 1.12 11.42
12/17/2021 1:30:00 AM 7.57 45.626 0.112 7.56 1.31 11.41
12/17/2021 1:45:00 AM 7.56 45.608 0.112 7.57 1.13 11.43
12/17/2021 2:00:00 AM 7.58 45.644 0.113 7.55 1.13 11.4
12/17/2021 2:15:00 AM 7.55 45.59 0.113 7.56 1.29 11.43
12/17/2021 2:30:00 AM 7.53 45.554 0.112 7.56 1.13 11.41
12/17/2021 2:45:00 AM 7.47 45.446 0.112 7.58 1.26 11.46
12/17/2021 3:00:00 AM 7.46 45.428 0.113 7.47 1.25 11.34
12/17/2021 3:15:00 AM 7.41 45.338 0.112 7.58 1.26 11.48
12/17/2021 3:30:00 AM 7.37 45.266 0.112 7.6 1.11 11.51
12/17/2021 3:45:00 AM 7.35 45.23 0.112 7.58 1.17 11.53
12/17/2021 4:00:00 AM 7.28 45.104 0.112 7.58 1.16 11.55
12/17/2021 4:15:00 AM 7.25 45.05 0.113 7.57 1.09 11.54
12/17/2021 4:30:00 AM 7.19 44.942 0.113 7.56 1.06 11.57
12/17/2021 4:45:00 AM 7.11 44.798 0.113 7.58 1.19 11.59
12/17/2021 5:00:00 AM 7.05 44.69 0.112 7.56 1.26 11.58
12/17/2021 5:15:00 AM 6.97 44.546 0.112 7.57 1.21 11.64
12/17/2021 5:30:00 AM 6.89 44.402 0.113 7.54 1.38 11.66
12/17/2021 5:45:00 AM 6.82 44.276 0.113 7.53 1.34 11.63
12/17/2021 6:00:00 AM 6.71 44.078 0.112 7.57 1.15 11.74
12/17/2021 6:15:00 AM 6.63 43.934 0.112 7.58 1.26 11.76
12/17/2021 6:30:00 AM 6.54 43.772 0.112 7.58 1.31 11.79
12/17/2021 6:45:00 AM 6.47 43.646 0.112 7.58 1.32 11.84
12/17/2021 7:00:00 AM 6.39 43.502 0.112 7.57 1.19 11.85
12/17/2021 7:15:00 AM 6.33 43.394 0.112 7.57 1.26 11.88
12/17/2021 7:30:00 AM 6.22 43.196 0.112 7.58 1.26 11.92
12/17/2021 7:45:00 AM 6.15 43.07 0.105 7.56 1.34 11.96
12/17/2021 8:00:00 AM 6.07 42.926 0.112 7.58 1.17 12.04
12/17/2021 8:15:00 AM 5.96 42.728 0.112 7.6 1.17 12.15
12/17/2021 8:30:00 AM 5.95 42.71 0.112 7.6 1.15 12.2
12/17/2021 8:45:00 AM 5.9 42.62 0.112 7.62 1.11 12.34
12/17/2021 9:00:00 AM 5.86 42.548 0.105 7.66 1.19 12.46
12/17/2021 9:15:00 AM 5.87 42.566 0.104 7.68 1.12 12.56
12/17/2021 9:30:00 AM 5.9 42.62 0.112 7.66 1.07 12.61
12/17/2021 9:45:00 AM 5.9 42.62 0.104 7.75 1.26 12.76
12/17/2021 10:00:00 AM 5.88 42.584 0.104 7.8 1.29 12.87
12/17/2021 10:15:00 AM 5.92 42.656 0.104 7.78 1.39 12.87
12/17/2021 10:30:00 AM 5.96 42.728 0.104 7.77 1.61 12.87
12/17/2021 10:45:00 AM 5.91 42.638 0.104 7.83 1.26 12.91
12/17/2021 11:00:00 AM 5.95 42.71 0.104 7.8 1.24 12.9
12/17/2021 11:15:00 AM 5.9 42.62 0.105 7.86 1.12 12.96
12/17/2021 11:30:00 AM 5.92 42.656 0.104 7.85 1.36 12.95
12/17/2021 11:45:00 AM 5.89 42.602 0.104 7.86 1.14 12.96
12/17/2021 12:00:00 PM 5.87 42.566 0.104 7.86 1.15 12.95
12/17/2021 12:15:00 PM 5.83 42.494 0.104 7.88 1.23 12.96
12/17/2021 12:30:00 PM 5.81 42.458 0.104 7.85 1.24 12.91
12/17/2021 12:45:00 PM 5.76 42.368 0.103 7.84 1.23 12.96
12/17/2021 1:00:00 PM 5.78 42.404 0.103 7.86 1.25 12.92
12/17/2021 1:15:00 PM 5.82 42.476 0.103 7.84 1.21 12.91
12/17/2021 1:30:00 PM 5.82 42.476 0.103 7.91 1.37 12.95
12/17/2021 1:45:00 PM 5.89 42.602 0.103 7.88 1.25 12.92
12/17/2021 2:00:00 PM 5.92 42.656 0.102 7.9 1.26 12.91
12/17/2021 2:15:00 PM 5.99 42.782 0.103 7.89 1.13 12.94
12/17/2021 2:30:00 PM 6.04 42.872 0.102 7.92 1.3 12.94
12/17/2021 2:45:00 PM 6.09 42.962 0.102 7.98 1.25 12.96
12/17/2021 3:00:00 PM 6.13 43.034 0.102 7.97 1.18 12.92
12/17/2021 3:15:00 PM 6.19 43.142 0.103 7.91 1.28 12.83
12/17/2021 3:30:00 PM 6.21 43.178 0.109 7.86 1.3 12.73
12/17/2021 3:45:00 PM 6.18 43.124 0.102 7.85 1.24 12.7
12/17/2021 4:00:00 PM 6.18 43.124 0.102 7.82 1.18 12.57
12/17/2021 4:15:00 PM 6.16 43.088 0.109 7.77 1.11 12.47
12/17/2021 4:30:00 PM 6.12 43.016 0.109 7.75 1.12 12.4
12/17/2021 4:45:00 PM 6.07 42.926 0.103 7.71 1.19 12.28
12/17/2021 5:00:00 PM 6.02 42.836 0.104 7.69 1.1 12.24
12/17/2021 5:15:00 PM 5.99 42.782 0.11 7.66 1.21 12.19
12/17/2021 5:30:00 PM 5.91 42.638 0.103 7.63 1.36 12.18
12/17/2021 5:45:00 PM 5.87 42.566 0.104 7.61 1.19 12.15
12/17/2021 6:00:00 PM 5.81 42.458 0.104 7.59 1.25 12.13
12/17/2021 6:15:00 PM 5.73 42.314 0.104 7.61 1.21 12.19
12/17/2021 6:30:00 PM 5.69 42.242 0.104 7.59 1.4 12.16
12/17/2021 6:45:00 PM 5.62 42.116 0.105 7.59 1.16 12.18
12/17/2021 7:00:00 PM 5.57 42.026 0.105 7.58 1.19 12.2
12/17/2021 7:15:00 PM 5.49 41.882 0.106 7.59 1.12 12.21
12/17/2021 7:30:00 PM 5.43 41.774 0.105 7.58 1.31 12.22
12/17/2021 7:45:00 PM 5.35 41.63 0.112 7.59 1.02 12.26
12/17/2021 8:00:00 PM 5.27 41.486 0.105 7.58 1.14 12.29
12/17/2021 8:15:00 PM 5.26 41.468 0.112 7.57 1.05 12.25
12/17/2021 8:30:00 PM 5.17 41.306 0.105 7.58 1.24 12.32
12/17/2021 8:45:00 PM 5.14 41.252 0.106 7.56 1.2 12.3
12/17/2021 9:00:00 PM 5.08 41.144 0.105 7.57 1.23 12.33
12/17/2021 9:15:00 PM 5.09 41.162 0.106 7.54 1.22 12.3
12/17/2021 9:30:00 PM 4.98 40.964 0.106 7.58 1.22 12.38
12/17/2021 9:45:00 PM 4.96 40.928 0.106 7.56 1.07 12.36
12/17/2021 10:00:00 PM 4.94 40.892 0.107 7.56 1.06 12.37
12/17/2021 10:15:00 PM 4.87 40.766 0.106 7.57 1.02 12.4
12/17/2021 10:30:00 PM 4.85 40.73 0.106 7.55 1.14 12.41
12/17/2021 10:45:00 PM 4.82 40.676 0.106 7.55 1.24 12.42
12/17/2021 11:00:00 PM 4.82 40.676 0.106 7.55 1.11 12.43
12/17/2021 11:15:00 PM 4.8 40.64 0.108 7.54 1.28 12.41
12/17/2021 11:30:00 PM 4.78 40.604 0.106 7.55 1.24 12.44
12/17/2021 11:45:00 PM 4.74 40.532 0.107 7.56 1.03 12.48
12/18/2021 12:00:00 AM 4.77 40.586 0.106 7.55 1.18 12.43
12/18/2021 12:15:00 AM 4.74 40.532 0.106 7.57 1.05 12.5
12/18/2021 12:30:00 AM 4.75 40.55 0.106 7.55 1.34 12.47
12/18/2021 12:45:00 AM 4.76 40.568 0.106 7.55 1.16 12.46
12/18/2021 1:00:00 AM 4.78 40.604 0.106 7.55 1.19 12.47
12/18/2021 1:15:00 AM 4.76 40.568 0.106 7.56 1.22 12.47
12/18/2021 1:30:00 AM 4.77 40.586 0.107 7.55 1.2 12.42
12/18/2021 1:45:00 AM 4.81 40.658 0.107 7.53 1.29 12.39
12/18/2021 2:00:00 AM 4.82 40.676 0.107 7.56 1.22 12.42
12/18/2021 2:15:00 AM 4.79 40.622 0.107 7.56 1.14 12.45
12/18/2021 2:30:00 AM 4.82 40.676 0.114 7.55 1.09 12.43
12/18/2021 2:45:00 AM 4.83 40.694 0.106 7.54 1.14 12.43
12/18/2021 3:00:00 AM 4.84 40.712 0.107 7.54 1.29 12.4
12/18/2021 3:15:00 AM 4.86 40.748 0.106 7.55 1.3 12.38
12/18/2021 3:30:00 AM 4.85 40.73 0.107 7.55 1.12 12.42
12/18/2021 3:45:00 AM 4.87 40.766 0.107 7.55 1.01 12.4
12/18/2021 4:00:00 AM 4.88 40.784 0.114 7.56 1.26 12.42
12/18/2021 4:15:00 AM 4.88 40.784 0.107 7.57 1.12 12.41
12/18/2021 4:30:00 AM 4.9 40.82 0.114 7.55 1.12 12.4
12/18/2021 4:45:00 AM 4.9 40.82 0.114 7.55 1.03 12.4
12/18/2021 5:00:00 AM 4.91 40.838 0.114 7.58 1.03 12.43
12/18/2021 5:15:00 AM 4.95 40.91 0.114 7.54 1.16 12.37
12/18/2021 5:30:00 AM 4.93 40.874 0.114 7.56 1.17 12.38
12/18/2021 5:45:00 AM 4.93 40.874 0.107 7.55 1.29 12.36
12/18/2021 6:00:00 AM 4.95 40.91 0.107 7.55 1.25 12.36
12/18/2021 6:15:00 AM 4.91 40.838 0.107 7.56 1.14 12.4
12/18/2021 6:30:00 AM 4.94 40.892 0.107 7.56 1.19 12.39
12/18/2021 6:45:00 AM 4.96 40.928 0.114 7.55 1.22 12.36
12/18/2021 7:00:00 AM 4.94 40.892 0.114 7.56 1.04 12.38
12/18/2021 7:15:00 AM 4.98 40.964 0.107 7.54 1.15 12.34
12/18/2021 7:30:00 AM 4.97 40.946 0.107 7.55 1.1 12.35
12/18/2021 7:45:00 AM 4.97 40.946 0.114 7.52 1.12 12.38
12/18/2021 8:00:00 AM 4.96 40.928 0.114 7.59 1.2 12.44
12/18/2021 8:15:00 AM 4.99 40.982 0.114 7.56 1.13 12.45
12/18/2021 8:30:00 AM 4.98 40.964 0.107 7.59 1.18 12.51
12/18/2021 8:45:00 AM 4.97 40.946 0.107 7.6 1.17 12.59
12/18/2021 9:00:00 AM 4.97 40.946 0.106 7.63 1.26 12.62
12/18/2021 9:15:00 AM 5 41 0.106 7.62 1.15 12.65
12/18/2021 9:30:00 AM 5.01 41.018 0.106 7.64 1.12 12.69
12/18/2021 9:45:00 AM 5.02 41.036 0.113 7.63 1.03 12.74
12/18/2021 10:00:00 AM 5.04 41.072 0.113 7.66 1.23 12.77
12/18/2021 10:15:00 AM 5.03 41.054 0.106 7.66 1.16 12.79
12/18/2021 10:30:00 AM 5.04 41.072 0.106 7.67 1.16 12.76
12/18/2021 10:45:00 AM 5.04 41.072 0.106 7.67 1.15 12.77
12/18/2021 11:00:00 AM 5.01 41.018 0.105 7.67 1.17 12.74
12/18/2021 11:15:00 AM 5.05 41.09 0.105 7.66 1.18 12.74
12/18/2021 11:30:00 AM 5.05 41.09 0.112 7.66 1.15 12.74
12/18/2021 11:45:00 AM 5.07 41.126 0.105 7.67 1.12 12.73
12/18/2021 12:00:00 PM 5.08 41.144 0.105 7.69 1.23 12.74
12/18/2021 12:15:00 PM 5.08 41.144 0.105 7.68 1.18 12.73
12/18/2021 12:30:00 PM 5.08 41.144 0.105 7.68 1.22 12.7
12/18/2021 12:45:00 PM 5.1 41.18 0.105 7.68 1.06 12.67
12/18/2021 1:00:00 PM 5.12 41.216 0.105 7.66 1.25 12.68
12/18/2021 1:15:00 PM 5.12 41.216 0.105 7.66 1.3 12.65
12/18/2021 1:30:00 PM 5.12 41.216 0.112 7.69 1.44 12.72
12/18/2021 1:45:00 PM 5.14 41.252 0.104 7.67 1.31 12.66
12/18/2021 2:00:00 PM 5.18 41.324 0.104 7.67 1.26 12.66
12/18/2021 2:15:00 PM 5.13 41.234 0.104 7.7 1.2 12.63
12/18/2021 2:30:00 PM 5.17 41.306 0.104 7.59 1.32 12.27
12/18/2021 2:45:00 PM 5.18 41.324 0.105 7.63 1.26 12.46
12/18/2021 3:00:00 PM 5.19 41.342 0.112 7.64 1.13 12.44
12/18/2021 3:15:00 PM 5.18 41.324 0.105 7.64 1.27 12.44
12/18/2021 3:30:00 PM 5.18 41.324 0.105 7.64 1.38 12.43
12/18/2021 3:45:00 PM 5.2 41.36 0.105 7.61 1.26 12.37
12/18/2021 4:00:00 PM 5.22 41.396 0.105 7.59 1.21 12.31
12/18/2021 4:15:00 PM 5.22 41.396 0.105 7.59 1.3 12.32
12/18/2021 4:30:00 PM 5.23 41.414 0.105 7.59 1.19 12.28
12/18/2021 4:45:00 PM 5.21 41.378 0.105 7.58 1.18 12.26
12/18/2021 5:00:00 PM 5.23 41.414 0.105 7.57 1.36 12.24
12/18/2021 5:15:00 PM 5.23 41.414 0.105 7.57 1.27 12.22
12/18/2021 5:30:00 PM 5.25 41.45 0.105 7.56 1.28 12.2
12/18/2021 5:45:00 PM 5.23 41.414 0.105 7.58 1.22 12.24
12/18/2021 6:00:00 PM 5.26 41.468 0.113 7.57 1.21 12.2
12/18/2021 6:15:00 PM 5.25 41.45 0.112 7.56 1.25 12.18
12/18/2021 6:30:00 PM 5.27 41.486 0.106 7.56 1.34 12.19
12/18/2021 6:45:00 PM 5.29 41.522 0.106 7.56 1.27 12.18
12/18/2021 7:00:00 PM 5.28 41.504 0.112 7.58 1.26 12.19
12/18/2021 7:15:00 PM 5.31 41.558 0.105 7.54 1.33 12.18
12/18/2021 7:30:00 PM 5.33 41.594 0.113 7.55 1.17 12.14
12/18/2021 7:45:00 PM 5.35 41.63 0.105 7.55 1.27 12.13
12/18/2021 8:00:00 PM 5.36 41.648 0.113 7.55 1.09 12.13
12/18/2021 8:15:00 PM 5.38 41.684 0.106 7.54 1.19 12.12
12/18/2021 8:30:00 PM 5.4 41.72 0.113 7.55 1.07 12.11
12/18/2021 8:45:00 PM 5.41 41.738 0.106 7.54 1.33 12.09
12/18/2021 9:00:00 PM 5.42 41.756 0.113 7.53 1.24 12.08
12/18/2021 9:15:00 PM 5.43 41.774 0.113 7.54 1.33 12.06
12/18/2021 9:30:00 PM 5.42 41.756 0.113 7.56 1.24 12.14
12/18/2021 9:45:00 PM 5.43 41.774 0.113 7.57 1.23 12.14
12/18/2021 10:00:00 PM 5.45 41.81 0.113 7.55 1.22 12.09
12/18/2021 10:15:00 PM 5.47 41.846 0.113 7.54 1.44 12.1
12/18/2021 10:30:00 PM 5.45 41.81 0.113 7.56 1.33 12.12
12/18/2021 10:45:00 PM 5.48 41.864 0.113 7.56 1.3 12.1
12/18/2021 11:00:00 PM 5.5 41.9 0.107 7.55 1.25 12.1
12/18/2021 11:15:00 PM 5.49 41.882 0.106 7.56 1.32 12.1
12/18/2021 11:30:00 PM 5.5 41.9 0.106 7.55 1.34 12.09
12/18/2021 11:45:00 PM 5.56 42.008 0.113 7.52 1.15 12.02
12/19/2021 12:00:00 AM 5.55 41.99 0.113 7.53 1.22 12.06
12/19/2021 12:15:00 AM 5.52 41.936 0.105 7.56 1.32 12.12
12/19/2021 12:30:00 AM 5.56 42.008 0.105 7.55 1.27 12.08
12/19/2021 12:45:00 AM 5.56 42.008 0.106 7.55 1.29 12.08
12/19/2021 1:00:00 AM 5.56 42.008 0.112 7.55 1.24 12.06
12/19/2021 1:15:00 AM 5.53 41.954 0.112 7.56 1.28 12.1
12/19/2021 1:30:00 AM 5.52 41.936 0.106 7.55 1.36 12.09
12/19/2021 1:45:00 AM 5.47 41.846 0.113 7.55 1.15 12.13
12/19/2021 2:00:00 AM 5.45 41.81 0.105 7.56 1.42 12.13
12/19/2021 2:15:00 AM 5.42 41.756 0.106 7.53 1.32 12.11
12/19/2021 2:30:00 AM 5.43 41.774 0.113 7.52 1.24 12.12
12/19/2021 2:45:00 AM 5.33 41.594 0.105 7.54 1.35 12.15
12/19/2021 3:00:00 AM 5.29 41.522 0.105 7.54 1.33 12.16
12/19/2021 3:15:00 AM 5.25 41.45 0.112 7.54 1.15 12.22
12/19/2021 3:30:00 AM 5.17 41.306 0.105 7.56 1.14 12.25
12/19/2021 3:45:00 AM 5.12 41.216 0.105 7.56 1.31 12.28
12/19/2021 4:00:00 AM 5.07 41.126 0.105 7.56 1.11 12.3
12/19/2021 4:15:00 AM 5.06 41.108 0.105 7.54 1.14 12.26
12/19/2021 4:30:00 AM 4.95 40.91 0.105 7.57 1.24 12.34
12/19/2021 4:45:00 AM 4.88 40.784 0.105 7.57 1.3 12.37
12/19/2021 5:00:00 AM 4.8 40.64 0.105 7.58 1.24 12.42
12/19/2021 5:15:00 AM 4.75 40.55 0.105 7.59 1.37 12.44
12/19/2021 5:30:00 AM 4.67 40.406 0.104 7.57 1.28 12.46
12/19/2021 5:45:00 AM 4.67 40.406 0.104 7.54 1.35 12.41
12/19/2021 6:00:00 AM 4.61 40.298 0.104 7.56 1.3 12.48
12/19/2021 6:15:00 AM 4.56 40.208 0.104 7.57 1.22 12.53
12/19/2021 6:30:00 AM 4.54 40.172 0.104 7.56 1.23 12.49
12/19/2021 6:45:00 AM 4.47 40.046 0.104 7.55 1.28 12.51
12/19/2021 7:00:00 AM 4.44 39.992 0.104 7.54 1.33 12.53
12/19/2021 7:15:00 AM 4.37 39.866 0.104 7.57 1.38 12.6
12/19/2021 7:30:00 AM 4.3 39.74 0.104 7.58 1.42 12.63
12/19/2021 7:45:00 AM 4.3 39.74 0.104 7.56 1.26 12.61
12/19/2021 8:00:00 AM 4.21 39.578 0.104 7.57 1.17 12.69
12/19/2021 8:15:00 AM 4.19 39.542 0.105 7.56 1.23 12.69
12/19/2021 8:30:00 AM 4.15 39.47 0.104 7.56 1.38 12.7
12/19/2021 8:45:00 AM 4.11 39.398 0.104 7.58 1.33 12.8
12/19/2021 9:00:00 AM 4.08 39.344 0.104 7.59 1.38 12.86
12/19/2021 9:15:00 AM 4.02 39.236 0.104 7.62 1.33 12.93
12/19/2021 9:30:00 AM 4.01 39.218 0.104 7.61 1.33 12.95
12/19/2021 9:45:00 AM 4.03 39.254 0.104 7.61 1.29 12.99
12/19/2021 10:00:00 AM 4 39.2 0.104 7.66 1.41 13.15
12/19/2021 10:15:00 AM 3.95 39.11 0.103 7.69 1.26 13.23
12/19/2021 10:30:00 AM 3.98 39.164 0.103 7.69 1.35 13.27
12/19/2021 10:45:00 AM 3.92 39.056 0.103 7.73 1.22 13.42
12/19/2021 11:00:00 AM 3.98 39.164 0.103 7.73 1.17 13.42
12/19/2021 11:15:00 AM 3.92 39.056 0.103 7.78 1.27 13.51
12/19/2021 11:30:00 AM 3.92 39.056 0.102 7.78 1.13 13.57
12/19/2021 11:45:00 AM 3.95 39.11 0.103 7.82 1.12 13.6
12/19/2021 12:00:00 PM 3.94 39.092 0.102 7.82 1.16 13.62
12/19/2021 12:15:00 PM 3.99 39.182 0.102 7.82 1.32 13.6
12/19/2021 12:30:00 PM 4.03 39.254 0.102 7.81 1.22 13.62
12/19/2021 12:45:00 PM 4 39.2 0.101 7.84 1.25 13.59
12/19/2021 1:00:00 PM 4 39.2 0.102 7.82 1.23 13.61
12/19/2021 1:15:00 PM 3.99 39.182 0.101 7.9 1.3 13.65
12/19/2021 1:30:00 PM 4.07 39.326 0.102 7.88 1.23 13.62
12/19/2021 1:45:00 PM 4.06 39.308 0.101 7.9 1.15 13.65
12/19/2021 2:00:00 PM 4.05 39.29 0.101 7.93 1.23 13.65
12/19/2021 2:15:00 PM 4.03 39.254 0.1 7.9 1.35 13.62
12/19/2021 2:30:00 PM 4.07 39.326 0.101 7.88 1.37 13.58
12/19/2021 2:45:00 PM 4.04 39.272 0.1 7.86 1.48 13.53
12/19/2021 3:00:00 PM 4 39.2 0.101 7.88 1.38 13.54
12/19/2021 3:15:00 PM 4.03 39.254 0.101 7.81 1.29 13.4
12/19/2021 3:30:00 PM 4 39.2 0.101 7.77 1.51 13.36
12/19/2021 3:45:00 PM 3.95 39.11 0.101 7.75 1.39 13.31
12/19/2021 4:00:00 PM 3.9 39.02 0.101 7.73 1.21 13.29
12/19/2021 4:15:00 PM 3.91 39.038 0.101 7.68 1.21 13.12
12/19/2021 4:30:00 PM 3.85 38.93 0.101 7.66 1.37 13.1
12/19/2021 4:45:00 PM 3.76 38.768 0.101 7.67 1.21 13.09
12/19/2021 5:00:00 PM 3.72 38.696 0.101 7.63 1.38 13.03
12/19/2021 5:15:00 PM 3.66 38.588 0.102 7.6 1.28 13.01
12/19/2021 5:30:00 PM 3.56 38.408 0.102 7.62 1.27 13.03
12/19/2021 5:45:00 PM 3.55 38.39 0.102 7.58 1.54 12.97
12/19/2021 6:00:00 PM 3.46 38.228 0.103 7.59 1.39 13.01
12/19/2021 6:15:00 PM 3.41 38.138 0.102 7.59 1.34 13.05
12/19/2021 6:30:00 PM 3.39 38.102 0.102 7.56 1.52 13.01
12/19/2021 6:45:00 PM 3.41 38.138 0.103 7.5 1.24 12.98
12/19/2021 7:00:00 PM 3.34 38.012 0.103 7.55 1.39 13.03
12/19/2021 7:15:00 PM 3.3 37.94 0.103 7.54 1.28 13.01
12/19/2021 7:30:00 PM 3.22 37.796 0.103 7.54 1.18 13.06
12/19/2021 7:45:00 PM 3.15 37.67 0.103 7.56 1.33 13.1
12/19/2021 8:00:00 PM 3.14 37.652 0.103 7.56 1.35 13.12
12/19/2021 8:15:00 PM 3.08 37.544 0.103 7.55 1.31 13.12
12/19/2021 8:30:00 PM 3.03 37.454 0.104 7.56 1.2 13.16
12/19/2021 8:45:00 PM 3.08 37.544 0.104 7.52 1.26 13.1
12/19/2021 9:00:00 PM 3.01 37.418 0.104 7.53 1.26 13.12
12/19/2021 9:15:00 PM 3.03 37.454 0.104 7.5 1.41 13.08
12/19/2021 9:30:00 PM 2.9 37.22 0.104 7.53 1.29 13.19
12/19/2021 9:45:00 PM 2.89 37.202 0.104 7.54 1.29 13.2
12/19/2021 10:00:00 PM 2.87 37.166 0.104 7.52 1.31 13.15
12/19/2021 10:15:00 PM 2.78 37.004 0.104 7.55 1.22 13.24
12/19/2021 10:30:00 PM 2.78 37.004 0.104 7.54 1.23 13.22
12/19/2021 10:45:00 PM 2.74 36.932 0.104 7.51 1.35 13.2
12/19/2021 11:00:00 PM 2.7 36.86 0.104 7.51 1.35 13.23
12/19/2021 11:15:00 PM 2.6 36.68 0.104 7.52 1.36 13.27
12/19/2021 11:30:00 PM 2.71 36.878 0.104 7.5 1.28 13.2
12/19/2021 11:45:00 PM 2.62 36.716 0.104 7.49 1.35 13.21
12/20/2021 12:00:00 AM 2.6 36.68 0.104 7.49 1.37 13.23
12/20/2021 12:15:00 AM 2.61 36.698 0.104 7.49 1.25 13.24
12/20/2021 12:30:00 AM 2.62 36.716 0.104 7.46 1.32 13.23
12/20/2021 12:45:00 AM 2.66 36.788 0.104 7.46 1.34 13.16
12/20/2021 1:00:00 AM 2.56 36.608 0.104 7.52 1.11 13.3
12/20/2021 1:15:00 AM 2.53 36.554 0.104 7.53 1.29 13.33
12/20/2021 1:30:00 AM 2.6 36.68 0.105 7.48 1.3 13.25
12/20/2021 1:45:00 AM 2.59 36.662 0.104 7.51 1.16 13.32
12/20/2021 2:00:00 AM 2.57 36.626 0.104 7.48 1.28 13.27
12/20/2021 2:15:00 AM 2.58 36.644 0.105 7.47 1.2 13.23
12/20/2021 2:30:00 AM 2.49 36.482 0.105 7.52 1.26 13.33
12/20/2021 2:45:00 AM 2.53 36.554 0.104 7.47 1.21 13.2
12/20/2021 3:00:00 AM 2.49 36.482 0.105 7.5 1.23 13.31
12/20/2021 3:15:00 AM 2.46 36.428 0.105 7.5 1.37 13.31
12/20/2021 3:30:00 AM 2.53 36.554 0.105 7.46 1.28 13.24
12/20/2021 3:45:00 AM 2.43 36.374 0.105 7.5 1.3 13.33
12/20/2021 4:00:00 AM 2.43 36.374 0.105 7.45 1.25 13.29
12/20/2021 4:15:00 AM 2.4 36.32 0.105 7.49 1.19 13.31
12/20/2021 4:30:00 AM 2.31 36.158 0.105 7.49 1.23 13.35
12/20/2021 4:45:00 AM 2.25 36.05 0.105 7.51 1.18 13.39
12/20/2021 5:00:00 AM 2.23 36.014 0.105 7.5 1.32 13.4
12/20/2021 5:15:00 AM 2.19 35.942 0.105 7.45 1.2 13.37
12/20/2021 5:30:00 AM 2.12 35.816 0.105 7.49 1.25 13.41
12/20/2021 5:45:00 AM 2.01 35.618 0.105 7.51 1.28 13.49
12/20/2021 6:00:00 AM 2.07 35.726 0.105 7.49 1.27 13.48
12/20/2021 6:15:00 AM 1.99 35.582 0.105 7.48 1.26 13.49
12/20/2021 6:30:00 AM 1.87 35.366 0.105 7.48 1.17 13.53
12/20/2021 6:45:00 AM 1.88 35.384 0.105 7.47 1.37 13.55
12/20/2021 7:00:00 AM 1.81 35.258 0.105 7.49 1.15 13.55
12/20/2021 7:15:00 AM 1.75 35.15 0.105 7.49 1.24 13.58
12/20/2021 7:30:00 AM 1.79 35.222 0.105 7.46 1.17 13.53
12/20/2021 7:45:00 AM 1.68 35.024 0.105 7.47 1.22 13.58
12/20/2021 8:00:00 AM 1.6 34.88 0.105 7.52 1.27 13.78
12/20/2021 8:15:00 AM 1.69 35.042 0.105 7.51 1.33 13.75
12/20/2021 8:30:00 AM 1.58 34.844 0.106 7.54 1.22 13.89
12/20/2021 8:45:00 AM 1.6 34.88 0.105 7.53 1.28 13.93
12/20/2021 9:00:00 AM 1.66 34.988 0.105 7.54 1.25 14.04
12/20/2021 9:15:00 AM 1.61 34.898 0.105 7.61 1.23 14.18
12/20/2021 9:30:00 AM 1.73 35.114 0.104 7.57 1.2 14.08
12/20/2021 9:45:00 AM 1.88 35.384 0.104 7.58 1.41 14.28
12/20/2021 10:00:00 AM 1.9 35.42 0.104 7.63 1.35 14.32
12/20/2021 10:15:00 AM 1.94 35.492 0.104 7.68 1.29 14.43
12/20/2021 10:30:00 AM 2 35.6 0.104 7.66 1.24 14.44
12/20/2021 10:45:00 AM 2.08 35.744 0.103 7.69 1.39 14.41
12/20/2021 11:00:00 AM 2.19 35.942 0.104 7.63 1.13 14.37
12/20/2021 11:15:00 AM 2.22 35.996 0.103 7.67 1.2 14.36
12/20/2021 11:30:00 AM 2.34 36.212 0.103 7.73 1.16 14.38
12/20/2021 11:45:00 AM 2.46 36.428 0.103 7.71 1.28 14.23
12/20/2021 12:00:00 PM 2.43 36.374 0.103 7.74 1.1 14.27
12/20/2021 12:15:00 PM 2.5 36.5 0.103 7.76 1.14 14.22
12/20/2021 12:30:00 PM 2.45 36.41 0.102 7.75 1.09 14.16
12/20/2021 12:45:00 PM 2.44 36.392 0.103 7.77 1.23 14.09
12/20/2021 1:00:00 PM 2.52 36.536 0.103 7.7 1.17 14.03
12/20/2021 1:15:00 PM 2.52 36.536 0.103 7.7 1.15 13.98
12/20/2021 1:30:00 PM 2.61 36.698 0.103 7.7 1.14 13.91
12/20/2021 1:45:00 PM 2.61 36.698 0.103 7.65 1.13 13.85
12/20/2021 2:00:00 PM 2.59 36.662 0.102 7.66 1.17 13.82
12/20/2021 2:15:00 PM 2.62 36.716 0.103 7.67 1.28 13.77
12/20/2021 2:30:00 PM 2.64 36.752 0.103 7.66 1.21 13.75
12/20/2021 2:45:00 PM 2.64 36.752 0.103 7.7 1.23 13.75
12/20/2021 3:00:00 PM 2.71 36.878 0.102 7.66 1.2 13.68
12/20/2021 3:15:00 PM 2.7 36.86 0.102 7.66 1.27 13.66
12/20/2021 3:30:00 PM 2.75 36.95 0.102 7.65 1.31 13.61
12/20/2021 3:45:00 PM 2.79 37.022 0.103 7.65 1.18 13.56
12/20/2021 4:00:00 PM 2.83 37.094 0.103 7.64 1.31 13.51
12/20/2021 4:15:00 PM 2.85 37.13 0.103 7.63 1.15 13.46
12/20/2021 4:30:00 PM 2.83 37.094 0.103 7.62 1.04 13.41
12/20/2021 4:45:00 PM 2.79 37.022 0.103 7.62 1.18 13.37
12/20/2021 5:00:00 PM 2.85 37.13 0.103 7.55 1.17 13.24
12/20/2021 5:15:00 PM 2.74 36.932 0.104 7.58 1.3 13.29
12/20/2021 5:30:00 PM 2.79 37.022 0.104 7.55 1.1 13.19
12/20/2021 5:45:00 PM 2.7 36.86 0.104 7.56 1.22 13.23
12/20/2021 6:00:00 PM 2.67 36.806 0.105 7.54 1.11 13.25
12/20/2021 6:15:00 PM 2.59 36.662 0.105 7.54 1.16 13.25
12/20/2021 6:30:00 PM 2.58 36.644 0.105 7.55 1.08 13.24
12/20/2021 6:45:00 PM 2.51 36.518 0.105 7.51 1.11 13.25
12/20/2021 7:00:00 PM 2.38 36.284 0.105 7.55 1.14 13.32
12/20/2021 7:15:00 PM 2.44 36.392 0.105 7.53 1.12 13.24
12/20/2021 7:30:00 PM 2.32 36.176 0.105 7.55 1.34 13.32
12/20/2021 7:45:00 PM 2.27 36.086 0.105 7.52 1.25 13.3
12/20/2021 8:00:00 PM 2.28 36.104 0.105 7.51 1.2 13.27
12/20/2021 8:15:00 PM 2.19 35.942 0.105 7.54 1.2 13.37
12/20/2021 8:30:00 PM 2.2 35.96 0.105 7.51 1.26 13.32
12/20/2021 8:45:00 PM 2.17 35.906 0.106 7.52 1.13 13.37
12/20/2021 9:00:00 PM 2.09 35.762 0.105 7.54 1.33 13.42
12/20/2021 9:15:00 PM 2.03 35.654 0.105 7.54 1.06 13.43
12/20/2021 9:30:00 PM 2.02 35.636 0.105 7.5 1.39 13.39
12/20/2021 9:45:00 PM 2.04 35.672 0.105 7.52 1.21 13.41
12/20/2021 10:00:00 PM 2.02 35.636 0.106 7.51 1.15 13.42
12/20/2021 10:15:00 PM 2.03 35.654 0.106 7.51 1.18 13.41
12/20/2021 10:30:00 PM 1.98 35.564 0.106 7.51 1.11 13.43
12/20/2021 10:45:00 PM 1.98 35.564 0.106 7.5 1.2 13.39
12/20/2021 11:00:00 PM 1.96 35.528 0.106 7.5 1.12 13.39
12/20/2021 11:15:00 PM 1.93 35.474 0.106 7.52 1.27 13.46
12/20/2021 11:30:00 PM 1.91 35.438 0.106 7.51 1.34 13.45
12/20/2021 11:45:00 PM 1.94 35.492 0.106 7.5 1.21 13.43
12/21/2021 12:00:00 AM 1.86 35.348 0.106 7.49 1.02 13.44
12/21/2021 12:15:00 AM 1.8 35.24 0.106 7.52 1.26 13.44
12/21/2021 12:30:00 AM 1.82 35.276 0.106 7.5 1.15 13.47
12/21/2021 12:45:00 AM 1.77 35.186 0.107 7.53 1.02 13.53
12/21/2021 1:00:00 AM 1.74 35.132 0.106 7.53 1.17 13.5
12/21/2021 1:15:00 AM 1.76 35.168 0.106 7.51 1.17 13.5
12/21/2021 1:30:00 AM 1.78 35.204 0.106 7.48 1.3 13.43
12/21/2021 1:45:00 AM 1.66 34.988 0.106 7.52 1.3 13.57
12/21/2021 2:00:00 AM 1.69 35.042 0.106 7.51 1.19 13.53
12/21/2021 2:15:00 AM 1.63 34.934 0.106 7.5 1.18 13.52
12/21/2021 2:30:00 AM 1.6 34.88 0.107 7.51 1.06 13.54
12/21/2021 2:45:00 AM 1.62 34.916 0.107 7.52 1.14 13.54
12/21/2021 3:00:00 AM 1.55 34.79 0.107 7.5 1.17 13.5
12/21/2021 3:15:00 AM 1.53 34.754 0.106 7.51 1.29 13.57
12/21/2021 3:30:00 AM 1.48 34.664 0.106 7.52 1.18 13.6
12/21/2021 3:45:00 AM 1.46 34.628 0.107 7.51 1.19 13.62
12/21/2021 4:00:00 AM 1.43 34.574 0.107 7.52 1.17 13.65
12/21/2021 4:15:00 AM 1.44 34.592 0.106 7.47 1.15 13.56
12/21/2021 4:30:00 AM 1.42 34.556 0.106 7.47 1.15 13.51
12/21/2021 4:45:00 AM 1.38 34.484 0.107 7.51 1.18 13.67
12/21/2021 5:00:00 AM 1.42 34.556 0.107 7.48 1.22 13.55
12/21/2021 5:15:00 AM 1.31 34.358 0.107 7.48 1.19 13.65
12/21/2021 5:30:00 AM 1.4 34.52 0.107 7.45 1.2 13.46
12/21/2021 5:45:00 AM 1.33 34.394 0.107 7.46 1.29 13.6
12/21/2021 6:00:00 AM 1.33 34.394 0.107 7.49 1.5 13.64
12/21/2021 6:15:00 AM 1.26 34.268 0.107 7.5 1.1 13.68
12/21/2021 6:30:00 AM 1.27 34.286 0.106 7.5 1.21 13.67
12/21/2021 6:45:00 AM 1.35 34.43 0.107 7.46 1.27 13.59
12/21/2021 7:00:00 AM 1.32 34.376 0.107 7.48 1.17 13.65
12/21/2021 7:15:00 AM 1.34 34.412 0.107 7.51 1.24 13.71
12/21/2021 7:30:00 AM 1.41 34.538 0.107 7.5 1.18 13.64
12/21/2021 7:45:00 AM 1.36 34.448 0.107 7.49 1.2 13.69
12/21/2021 8:00:00 AM 1.33 34.394 0.106 7.54 1.21 13.79
12/21/2021 8:15:00 AM 1.38 34.484 0.106 7.54 1.09 13.84
12/21/2021 8:30:00 AM 1.47 34.646 0.106 7.52 1.2 13.83
12/21/2021 8:45:00 AM 1.46 34.628 0.106 7.57 1.23 14.01
12/21/2021 9:00:00 AM 1.55 34.79 0.106 7.58 1.21 14
12/21/2021 9:15:00 AM 1.65 34.97 0.106 7.56 1.23 14.01
12/21/2021 9:30:00 AM 1.6 34.88 0.106 7.65 1.1 14.22
12/21/2021 9:45:00 AM 1.71 35.078 0.105 7.66 1.13 14.26
12/21/2021 10:00:00 AM 1.86 35.348 0.105 7.67 1.15 14.23
12/21/2021 10:15:00 AM 1.92 35.456 0.105 7.65 1.28 14.34
12/21/2021 10:30:00 AM 2.13 35.834 0.105 7.59 1.08 14.03
12/21/2021 10:45:00 AM 2.14 35.852 0.104 7.7 1.27 14.32
12/21/2021 11:00:00 AM 2.21 35.978 0.104 7.74 1.12 14.24
12/21/2021 11:15:00 AM 2.25 36.05 0.105 7.75 1.13 14.23
12/21/2021 11:30:00 AM 2.36 36.248 0.104 7.73 1.27 14.18
12/21/2021 11:45:00 AM 2.38 36.284 0.105 7.72 1.15 14.15
12/21/2021 12:00:00 PM 2.45 36.41 0.104 7.65 1.26 14.08
12/21/2021 12:15:00 PM 2.46 36.428 0.104 7.72 1.27 14.12
12/21/2021 12:30:00 PM 2.43 36.374 0.104 7.79 1.22 14.13
12/21/2021 12:45:00 PM 2.5 36.5 0.104 7.74 1.1 14.03
12/21/2021 1:00:00 PM 2.5 36.5 0.104 7.77 1.19 14.04
12/21/2021 1:15:00 PM 2.57 36.626 0.104 7.77 1.04 13.98
12/21/2021 1:30:00 PM 2.59 36.662 0.104 7.77 1.15 13.97
12/21/2021 1:45:00 PM 2.66 36.788 0.103 7.76 1.14 13.92
12/21/2021 2:00:00 PM 2.75 36.95 0.103 7.74 1.33 13.87
12/21/2021 2:15:00 PM 2.83 37.094 0.103 7.68 1.18 13.8
12/21/2021 2:30:00 PM 2.78 37.004 0.103 7.77 1.24 13.81
12/21/2021 2:45:00 PM 2.85 37.13 0.103 7.74 1.11 13.71
12/21/2021 3:00:00 PM 2.91 37.238 0.103 7.73 1.12 13.69
12/21/2021 3:15:00 PM 2.93 37.274 0.103 7.74 1.25 13.62
12/21/2021 3:30:00 PM 2.99 37.382 0.104 7.71 1.22 13.59
12/21/2021 3:45:00 PM 3.01 37.418 0.103 7.73 1.08 13.55
12/21/2021 4:00:00 PM 3.02 37.436 0.103 7.73 1.21 13.47
12/21/2021 4:15:00 PM 3.08 37.544 0.103 7.69 1.29 13.38
12/21/2021 4:30:00 PM 3.07 37.526 0.104 7.68 1.19 13.28
12/21/2021 4:45:00 PM 3.02 37.436 0.103 7.68 1.16 13.27
12/21/2021 5:00:00 PM 3.08 37.544 0.104 7.63 1.25 13.14
12/21/2021 5:15:00 PM 3.06 37.508 0.104 7.62 1.2 13.1
12/21/2021 5:30:00 PM 3.01 37.418 0.104 7.6 1.3 13.04
12/21/2021 5:45:00 PM 2.98 37.364 0.104 7.57 1.08 13.01
12/21/2021 6:00:00 PM 2.91 37.238 0.105 7.59 1.15 13.06
12/21/2021 6:15:00 PM 2.86 37.148 0.105 7.57 1.08 13.05
12/21/2021 6:30:00 PM 2.78 37.004 0.105 7.57 1.09 13.07
12/21/2021 6:45:00 PM 2.68 36.824 0.105 7.59 1.29 13.14
12/21/2021 7:00:00 PM 2.71 36.878 0.105 7.48 1.3 13.01
12/21/2021 7:15:00 PM 2.59 36.662 0.105 7.6 1.13 13.16
12/21/2021 7:30:00 PM 2.56 36.608 0.105 7.56 1.1 13.16
12/21/2021 7:45:00 PM 2.52 36.536 0.106 7.48 1.32 13.16
12/21/2021 8:00:00 PM 2.51 36.518 0.106 7.54 1.3 13.11
12/21/2021 8:15:00 PM 2.42 36.356 0.106 7.58 1.19 13.22
12/21/2021 8:30:00 PM 2.47 36.446 0.106 7.54 1.28 13.16
12/21/2021 8:45:00 PM 2.45 36.41 0.106 7.53 1.17 13.16
12/21/2021 9:00:00 PM 2.38 36.284 0.106 7.55 1.18 13.19
12/21/2021 9:15:00 PM 2.37 36.266 0.107 7.54 1.15 13.18
12/21/2021 9:30:00 PM 2.36 36.248 0.106 7.54 1.17 13.15
12/21/2021 9:45:00 PM 2.4 36.32 0.106 7.46 1.3 13.07
12/21/2021 10:00:00 PM 2.35 36.23 0.106 7.53 1.03 13.17
12/21/2021 10:15:00 PM 2.41 36.338 0.106 7.43 1.45 12.97
12/21/2021 10:30:00 PM 2.36 36.248 0.106 7.54 1.33 13.14
12/21/2021 10:45:00 PM 2.36 36.248 0.106 7.5 1.25 13.1
12/21/2021 11:00:00 PM 2.31 36.158 0.106 7.53 1.22 13.13
12/21/2021 11:15:00 PM 2.27 36.086 0.106 7.55 1.3 13.22
12/21/2021 11:30:00 PM 2.3 36.14 0.106 7.53 1.27 13.16
12/21/2021 11:45:00 PM 2.28 36.104 0.107 7.54 1.29 13.19
12/22/2021 12:00:00 AM 2.19 35.942 0.106 7.54 1.08 13.22
12/22/2021 12:15:00 AM 2.21 35.978 0.106 7.52 1.25 13.18
12/22/2021 12:30:00 AM 2.21 35.978 0.106 7.52 1.32 13.15
12/22/2021 12:45:00 AM 2.15 35.87 0.107 7.55 1.21 13.22
12/22/2021 1:00:00 AM 2.08 35.744 0.106 7.54 1.06 13.26
12/22/2021 1:15:00 AM 2.09 35.762 0.107 7.52 1.27 13.21
12/22/2021 1:30:00 AM 1.99 35.582 0.106 7.55 1.24 13.31
12/22/2021 1:45:00 AM 2.08 35.744 0.107 7.52 0.99 13.18
12/22/2021 2:00:00 AM 2.07 35.726 0.107 7.51 1.16 13.19
12/22/2021 2:15:00 AM 2.01 35.618 0.107 7.49 1.38 13.2
12/22/2021 2:30:00 AM 1.96 35.528 0.107 7.52 1.11 13.25
12/22/2021 2:45:00 AM 1.92 35.456 0.107 7.53 1.2 13.29
12/22/2021 3:00:00 AM 1.94 35.492 0.107 7.52 1.13 13.22
12/22/2021 3:15:00 AM 1.88 35.384 0.107 7.5 1.26 13.27
12/22/2021 3:30:00 AM 1.88 35.384 0.107 7.48 1.14 13.26
12/22/2021 3:45:00 AM 1.8 35.24 0.107 7.53 1.14 13.31
12/22/2021 4:00:00 AM 1.82 35.276 0.107 7.52 1.26 13.31
12/22/2021 4:15:00 AM 1.78 35.204 0.107 7.54 1.26 13.33
12/22/2021 4:30:00 AM 1.74 35.132 0.107 7.52 1.23 13.31
12/22/2021 4:45:00 AM 1.78 35.204 0.107 7.51 1.2 13.23
12/22/2021 5:00:00 AM 1.73 35.114 0.107 7.52 1.24 13.32
12/22/2021 5:15:00 AM 1.68 35.024 0.107 7.53 1.07 13.34
12/22/2021 5:30:00 AM 1.7 35.06 0.107 7.52 1.13 13.32
12/22/2021 5:45:00 AM 1.64 34.952 0.107 7.52 1.22 13.36
12/22/2021 6:00:00 AM 1.62 34.916 0.107 7.53 1.11 13.35
12/22/2021 6:15:00 AM 1.7 35.06 0.107 7.47 1.24 13.24
12/22/2021 6:30:00 AM 1.68 35.024 0.107 7.51 1.17 13.35
12/22/2021 6:45:00 AM 1.69 35.042 0.107 7.51 1.21 13.33
12/22/2021 7:00:00 AM 1.69 35.042 0.107 7.54 1.29 13.35
12/22/2021 7:15:00 AM 1.65 34.97 0.107 7.51 1.16 13.31
12/22/2021 7:30:00 AM 1.67 35.006 0.106 7.52 1.28 13.38
12/22/2021 7:45:00 AM 1.76 35.168 0.106 7.49 1.25 13.3
12/22/2021 8:00:00 AM 1.72 35.096 0.107 7.54 1.22 13.43
12/22/2021 8:15:00 AM 1.73 35.114 0.106 7.57 1.28 13.53
12/22/2021 8:30:00 AM 1.84 35.312 0.107 7.55 1.12 13.48
12/22/2021 8:45:00 AM 1.88 35.384 0.107 7.53 1.13 13.54
12/22/2021 9:00:00 AM 1.89 35.402 0.106 7.6 1.22 13.7
12/22/2021 9:15:00 AM 1.97 35.546 0.106 7.61 1.08 13.74
12/22/2021 9:30:00 AM 2.07 35.726 0.105 7.57 1.15 13.79
12/22/2021 9:45:00 AM 2.15 35.87 0.105 7.68 1.19 13.9
12/22/2021 10:00:00 AM 2.22 35.996 0.105 7.73 1.07 13.99
12/22/2021 10:15:00 AM 2.36 36.248 0.105 7.71 1.31 13.92
12/22/2021 10:30:00 AM 2.4 36.32 0.104 7.73 1.27 13.95
12/22/2021 10:45:00 AM 2.54 36.572 0.104 7.72 1.03 13.94
12/22/2021 11:00:00 AM 2.55 36.59 0.104 7.83 1.29 14.01
12/22/2021 11:15:00 AM 2.67 36.806 0.104 7.78 1.09 13.9
12/22/2021 11:30:00 AM 2.75 36.95 0.103 7.78 1.05 13.9
12/22/2021 11:45:00 AM 2.98 37.364 0.104 7.66 1.18 13.77
12/22/2021 12:00:00 PM 2.92 37.256 0.103 7.82 1.16 13.82
12/22/2021 12:15:00 PM 2.9 37.22 0.103 7.84 1.22 13.74
12/22/2021 12:30:00 PM 2.9 37.22 0.103 7.92 1.22 13.81
12/22/2021 12:45:00 PM 2.98 37.364 0.103 7.89 1.2 13.75
12/22/2021 1:00:00 PM 3.01 37.418 0.102 7.85 1.24 13.75
12/22/2021 1:15:00 PM 3.04 37.472 0.102 7.85 1.18 13.65
12/22/2021 1:30:00 PM 3.05 37.49 0.102 7.83 1.09 13.64
12/22/2021 1:45:00 PM 3.13 37.634 0.102 7.82 1.22 13.58
12/22/2021 2:00:00 PM 3.08 37.544 0.102 7.82 1.14 13.59
12/22/2021 2:15:00 PM 3.2 37.76 0.103 7.66 1.16 13.56
12/22/2021 2:30:00 PM 3.09 37.562 0.102 7.83 1.21 13.63
12/22/2021 2:45:00 PM 3.08 37.544 0.102 7.86 1.22 13.62
12/22/2021 3:00:00 PM 3.1 37.58 0.102 7.83 1.23 13.61
12/22/2021 3:15:00 PM 3.06 37.508 0.102 7.83 1.25 13.58
12/22/2021 3:30:00 PM 2.99 37.382 0.102 7.82 1.14 13.55
12/22/2021 3:45:00 PM 2.99 37.382 0.102 7.77 1.14 13.47
12/22/2021 4:00:00 PM 2.93 37.274 0.103 7.76 1.32 13.46
12/22/2021 4:15:00 PM 2.85 37.13 0.102 7.72 1.3 13.42
12/22/2021 4:30:00 PM 2.79 37.022 0.102 7.73 1.12 13.33
12/22/2021 4:45:00 PM 2.76 36.968 0.102 7.68 1.22 13.28
12/22/2021 5:00:00 PM 2.78 37.004 0.102 7.64 1.27 13.19
12/22/2021 5:15:00 PM 2.74 36.932 0.102 7.6 1.17 13.12
12/22/2021 5:30:00 PM 2.67 36.806 0.103 7.61 1.31 13.17
12/22/2021 5:45:00 PM 2.64 36.752 0.103 7.6 1.34 13.14
12/22/2021 6:00:00 PM 2.61 36.698 0.103 7.53 1.25 13.08
12/22/2021 6:15:00 PM 2.52 36.536 0.103 7.59 1.14 13.18
12/22/2021 6:30:00 PM 2.51 36.518 0.103 7.56 1.25 13.13
12/22/2021 6:45:00 PM 2.52 36.536 0.104 7.45 1.3 13.19
12/22/2021 7:00:00 PM 2.41 36.338 0.104 7.52 1.3 13.14
12/22/2021 7:15:00 PM 2.35 36.23 0.104 7.58 1.11 13.22
12/22/2021 7:30:00 PM 2.4 36.32 0.104 7.54 1.24 13.11
12/22/2021 7:45:00 PM 2.46 36.428 0.105 7.48 1.14 13.16
12/22/2021 8:00:00 PM 2.25 36.05 0.104 7.58 1.24 13.29
12/22/2021 8:15:00 PM 2.24 36.032 0.104 7.56 1.24 13.22
12/22/2021 8:30:00 PM 2.28 36.104 0.105 7.52 1.2 13.24
12/22/2021 8:45:00 PM 2.19 35.942 0.104 7.54 1.34 13.3
12/22/2021 9:00:00 PM 2.19 35.942 0.104 7.56 1.22 13.25
12/22/2021 9:15:00 PM 2.22 35.996 0.104 7.54 1.28 13.25
12/22/2021 9:30:00 PM 2.24 36.032 0.105 7.52 1.12 13.18
12/22/2021 9:45:00 PM 2.19 35.942 0.104 7.54 1.3 13.28
12/22/2021 10:00:00 PM 2.23 36.014 0.104 7.57 1.27 13.29
12/22/2021 10:15:00 PM 2.19 35.942 0.104 7.56 1.27 13.28
12/22/2021 10:30:00 PM 2.15 35.87 0.104 7.56 1.24 13.32
12/22/2021 10:45:00 PM 2.13 35.834 0.104 7.57 1.29 13.32
12/22/2021 11:00:00 PM 2.15 35.87 0.104 7.55 1.24 13.35
12/22/2021 11:15:00 PM 2.2 35.96 0.104 7.48 1.15 13.14
12/22/2021 11:30:00 PM 2.06 35.708 0.105 7.56 1.28 13.34
12/22/2021 11:45:00 PM 2.04 35.672 0.105 7.56 1.3 13.36
12/23/2021 12:00:00 AM 1.97 35.546 0.104 7.57 1.47 13.39
12/23/2021 12:15:00 AM 1.94 35.492 0.104 7.56 1.33 13.4
12/23/2021 12:30:00 AM 2.01 35.618 0.105 7.51 1.21 13.36
12/23/2021 12:45:00 AM 1.86 35.348 0.105 7.56 1.24 13.43
12/23/2021 1:00:00 AM 1.84 35.312 0.105 7.56 1.32 13.46
12/23/2021 1:15:00 AM 1.82 35.276 0.104 7.54 1.36 13.38
12/23/2021 1:30:00 AM 1.81 35.258 0.105 7.47 1.26 13.45
12/23/2021 1:45:00 AM 1.73 35.114 0.105 7.56 1.26 13.48
12/23/2021 2:00:00 AM 1.73 35.114 0.105 7.55 1.24 13.49
12/23/2021 2:15:00 AM 1.7 35.06 0.105 7.53 1.31 13.46
12/23/2021 2:30:00 AM 1.73 35.114 0.105 7.51 1.29 13.47
12/23/2021 2:45:00 AM 1.71 35.078 0.105 7.5 1.27 13.46
12/23/2021 3:00:00 AM 1.6 34.88 0.105 7.52 1.26 13.58
12/23/2021 3:15:00 AM 1.57 34.826 0.105 7.56 1.28 13.57
12/23/2021 3:30:00 AM 1.54 34.772 0.105 7.53 1.28 13.57
12/23/2021 3:45:00 AM 1.52 34.736 0.105 7.57 1.2 13.63
12/23/2021 4:00:00 AM 1.55 34.79 0.105 7.52 1.09 13.53
12/23/2021 4:15:00 AM 1.52 34.736 0.105 7.53 1.24 13.6
12/23/2021 4:30:00 AM 1.41 34.538 0.105 7.55 1.32 13.69
12/23/2021 4:45:00 AM 1.41 34.538 0.105 7.54 1.16 13.63
12/23/2021 5:00:00 AM 1.38 34.484 0.104 7.56 1.19 13.7
12/23/2021 5:15:00 AM 1.39 34.502 0.104 7.52 1.27 13.65
12/23/2021 5:30:00 AM 1.33 34.394 0.104 7.54 1.25 13.69
12/23/2021 5:45:00 AM 1.34 34.412 0.105 7.52 1.28 13.7
12/23/2021 6:00:00 AM 1.3 34.34 0.105 7.48 1.28 13.7
12/23/2021 6:15:00 AM 1.31 34.358 0.105 7.5 1.22 13.69
12/23/2021 6:30:00 AM 1.31 34.358 0.105 7.48 1.27 13.51
12/23/2021 6:45:00 AM 1.27 34.286 0.105 7.5 1.32 13.64
12/23/2021 7:00:00 AM 1.28 34.304 0.105 7.52 1.22 13.72
12/23/2021 7:15:00 AM 1.2 34.16 0.104 7.53 1.31 13.76
12/23/2021 7:30:00 AM 1.21 34.178 0.104 7.48 1.34 13.75
12/23/2021 7:45:00 AM 1.21 34.178 0.105 7.52 1.3 13.77
12/23/2021 8:00:00 AM 1.2 34.16 0.105 7.51 1.19 13.85
12/23/2021 8:15:00 AM 1.09 33.962 0.104 7.58 1.33 13.94
12/23/2021 8:30:00 AM 1.18 34.124 0.104 7.54 1.27 13.95
12/23/2021 8:45:00 AM 1.19 34.142 0.105 7.59 1.19 14.07
12/23/2021 9:00:00 AM 1.17 34.106 0.104 7.63 1.29 14.16
12/23/2021 9:15:00 AM 1.28 34.304 0.104 7.6 1.23 14.16
12/23/2021 9:30:00 AM 1.25 34.25 0.104 7.66 1.22 14.27
12/23/2021 9:45:00 AM 1.32 34.376 0.103 7.67 1.38 14.3
12/23/2021 10:00:00 AM 1.38 34.484 0.104 7.68 1.27 14.36
12/23/2021 10:15:00 AM 1.38 34.484 0.103 7.71 1.11 14.42
12/23/2021 10:30:00 AM 1.35 34.43 0.103 7.74 1.28 14.47
12/23/2021 10:45:00 AM 1.45 34.61 0.103 7.74 1.39 14.48
12/23/2021 11:00:00 AM 1.53 34.754 0.103 7.74 1.34 14.46
12/23/2021 11:15:00 AM 1.46 34.628 0.103 7.8 1.19 14.52
12/23/2021 11:30:00 AM 1.49 34.682 0.103 7.79 1.37 14.53
12/23/2021 11:45:00 AM 1.51 34.718 0.103 7.81 1.25 14.54
12/23/2021 12:00:00 PM 1.67 35.006 0.102 7.74 1.18 14.42
12/23/2021 12:15:00 PM 1.57 34.826 0.102 7.82 1.17 14.52
12/23/2021 12:30:00 PM 1.62 34.916 0.102 7.8 1.24 14.42
12/23/2021 12:45:00 PM 1.64 34.952 0.102 7.81 1.29 14.43
12/23/2021 1:00:00 PM 1.68 35.024 0.102 7.85 1.34 14.44
12/23/2021 1:15:00 PM 1.73 35.114 0.102 7.82 1.23 14.34
12/23/2021 1:30:00 PM 1.84 35.312 0.102 7.77 1.22 14.32
12/23/2021 1:45:00 PM 1.87 35.366 0.102 7.82 1.28 14.33
12/23/2021 2:00:00 PM 1.93 35.474 0.102 7.71 1.21 14.31
12/23/2021 2:15:00 PM 1.89 35.402 0.101 7.8 1.42 14.25
12/23/2021 2:30:00 PM 1.99 35.582 0.101 7.8 1.3 14.2
12/23/2021 2:45:00 PM 2.06 35.708 0.101 7.72 1.38 14.12
12/23/2021 3:00:00 PM 2.08 35.744 0.101 7.78 1.37 14.08
12/23/2021 3:15:00 PM 2.16 35.888 0.101 7.76 1.12 14.05
12/23/2021 3:30:00 PM 2.23 36.014 0.101 7.73 1.31 13.97
12/23/2021 3:45:00 PM 2.27 36.086 0.101 7.67 1.31 13.89
12/23/2021 4:00:00 PM 2.28 36.104 0.101 7.74 1.33 13.91
12/23/2021 4:15:00 PM 2.33 36.194 0.101 7.69 1.29 13.78
12/23/2021 4:30:00 PM 2.32 36.176 0.101 7.69 1.36 13.68
12/23/2021 4:45:00 PM 2.34 36.212 0.102 7.65 1.33 13.59
12/23/2021 5:00:00 PM 2.31 36.158 0.102 7.61 1.34 13.47
12/23/2021 5:15:00 PM 2.23 36.014 0.102 7.63 1.24 13.5
12/23/2021 5:30:00 PM 2.2 35.96 0.103 7.6 1.23 13.45
12/23/2021 5:45:00 PM 2.21 35.978 0.103 7.55 1.27 13.43
12/23/2021 6:00:00 PM 2.16 35.888 0.103 7.57 1.3 13.4
12/23/2021 6:15:00 PM 2.11 35.798 0.103 7.59 1.29 13.47
12/23/2021 6:30:00 PM 2.09 35.762 0.103 7.56 1.43 13.46
12/23/2021 6:45:00 PM 2.06 35.708 0.103 7.55 1.28 13.45
12/23/2021 7:00:00 PM 2.09 35.762 0.104 7.52 1.4 13.4
12/23/2021 7:15:00 PM 2.07 35.726 0.104 7.56 1.3 13.41
12/23/2021 7:30:00 PM 2.2 35.96 0.104 7.51 1.21 13.09
12/23/2021 7:45:00 PM 2.07 35.726 0.104 7.57 1.32 13.43
12/23/2021 8:00:00 PM 2.19 35.942 0.104 7.56 1.32 13.4
12/23/2021 8:15:00 PM 2.07 35.726 0.104 7.55 1.31 13.41
12/23/2021 8:30:00 PM 2.03 35.654 0.104 7.57 1.25 13.48
12/23/2021 8:45:00 PM 2.06 35.708 0.104 7.57 1.22 13.47
12/23/2021 9:00:00 PM 2.08 35.744 0.104 7.59 1.35 13.45
12/23/2021 9:15:00 PM 2.12 35.816 0.104 7.58 1.23 13.4
12/23/2021 9:30:00 PM 2.19 35.942 0.104 7.51 1.26 13.31
12/23/2021 9:45:00 PM 2.15 35.87 0.104 7.54 1.28 13.34
12/23/2021 10:00:00 PM 2.25 36.05 0.105 7.53 1.21 13.28
12/23/2021 10:15:00 PM 2.18 35.924 0.104 7.55 1.35 13.37
12/23/2021 10:30:00 PM 2.26 36.068 0.104 7.53 1.24 13.23
12/23/2021 10:45:00 PM 2.19 35.942 0.105 7.57 1.23 13.37
12/23/2021 11:00:00 PM 2.19 35.942 0.104 7.56 1.22 13.33
12/23/2021 11:15:00 PM 2.23 36.014 0.105 7.56 1.33 13.3
12/23/2021 11:30:00 PM 2.24 36.032 0.105 7.55 1.26 13.31
12/23/2021 11:45:00 PM 2.27 36.086 0.105 7.57 1.2 13.3
12/24/2021 12:00:00 AM 2.29 36.122 0.105 7.55 1.2 13.26
12/24/2021 12:15:00 AM 2.34 36.212 0.105 7.54 1.31 13.25
12/24/2021 12:30:00 AM 2.32 36.176 0.105 7.54 1.18 13.23
12/24/2021 12:45:00 AM 2.31 36.158 0.105 7.56 1.35 13.28
12/24/2021 1:00:00 AM 2.28 36.104 0.105 7.57 1.3 13.3
12/24/2021 1:15:00 AM 2.31 36.158 0.105 7.57 1.27 13.27
12/24/2021 1:30:00 AM 2.31 36.158 0.105 7.54 1.25 13.21
12/24/2021 1:45:00 AM 2.26 36.068 0.105 7.56 1.15 13.3
12/24/2021 2:00:00 AM 2.28 36.104 0.105 7.55 1.23 13.25
12/24/2021 2:15:00 AM 2.28 36.104 0.105 7.54 1.19 13.25
12/24/2021 2:30:00 AM 2.33 36.194 0.105 7.53 1.26 13.17
12/24/2021 2:45:00 AM 2.3 36.14 0.105 7.54 1.15 13.21
12/24/2021 3:00:00 AM 2.28 36.104 0.105 7.58 1.25 13.3
12/24/2021 3:15:00 AM 2.32 36.176 0.105 7.54 1.18 13.19
12/24/2021 3:30:00 AM 2.26 36.068 0.105 7.58 1.11 13.33
12/24/2021 3:45:00 AM 2.36 36.248 0.105 7.52 1.27 13.16
12/24/2021 4:00:00 AM 2.29 36.122 0.105 7.57 1.12 13.29
12/24/2021 4:15:00 AM 2.35 36.23 0.105 7.54 1.26 13.26
12/24/2021 4:30:00 AM 2.44 36.392 0.105 7.52 1.22 13.14
12/24/2021 4:45:00 AM 2.38 36.284 0.105 7.52 1.09 13.23
12/24/2021 5:00:00 AM 2.39 36.302 0.105 7.52 1.25 13.18
12/24/2021 5:15:00 AM 2.41 36.338 0.105 7.55 1.2 13.22
12/24/2021 5:30:00 AM 2.4 36.32 0.105 7.57 1.25 13.27
12/24/2021 5:45:00 AM 2.39 36.302 0.105 7.57 1.14 13.29
12/24/2021 6:00:00 AM 2.41 36.338 0.105 7.58 1.35 13.25
12/24/2021 6:15:00 AM 2.49 36.482 0.105 7.54 1.26 13.2
12/24/2021 6:30:00 AM 2.46 36.428 0.105 7.55 1.17 13.23
12/24/2021 6:45:00 AM 2.46 36.428 0.105 7.57 1.11 13.22
12/24/2021 7:00:00 AM 2.5 36.5 0.105 7.55 1.24 13.19
12/24/2021 7:15:00 AM 2.57 36.626 0.105 7.52 1.21 13.13
12/24/2021 7:30:00 AM 2.52 36.536 0.105 7.56 1.28 13.22
12/24/2021 7:45:00 AM 2.51 36.518 0.105 7.57 1.23 13.24
12/24/2021 8:00:00 AM 2.57 36.626 0.105 7.57 1.28 13.19
12/24/2021 8:15:00 AM 2.57 36.626 0.105 7.56 1.12 13.24
12/24/2021 8:30:00 AM 2.65 36.77 0.104 7.54 1.19 13.19
12/24/2021 8:45:00 AM 2.65 36.77 0.104 7.57 1.26 13.32
12/24/2021 9:00:00 AM 2.66 36.788 0.104 7.57 1.21 13.34
12/24/2021 9:15:00 AM 2.71 36.878 0.105 7.58 1.14 13.39
12/24/2021 9:30:00 AM 2.71 36.878 0.105 7.63 1.21 13.52
12/24/2021 9:45:00 AM 2.73 36.914 0.104 7.64 1.18 13.57
12/24/2021 10:00:00 AM 2.75 36.95 0.104 7.68 1.26 13.64
12/24/2021 10:15:00 AM 2.78 37.004 0.104 7.71 1.05 13.69
12/24/2021 10:30:00 AM 2.86 37.148 0.104 7.71 1.15 13.71
12/24/2021 10:45:00 AM 2.92 37.256 0.104 7.7 1.16 13.66
12/24/2021 11:00:00 AM 2.94 37.292 0.103 7.76 1.25 13.75
12/24/2021 11:15:00 AM 3.01 37.418 0.103 7.71 1.29 13.74
12/24/2021 11:30:00 AM 3.04 37.472 0.103 7.77 1.24 13.82
12/24/2021 11:45:00 AM 3.13 37.634 0.103 7.8 1.19 13.83
12/24/2021 12:00:00 PM 3.19 37.742 0.102 7.81 1.23 13.87
12/24/2021 12:15:00 PM 3.25 37.85 0.103 7.83 1.3 13.86
12/24/2021 12:30:00 PM 3.32 37.976 0.102 7.79 1.25 13.81
12/24/2021 12:45:00 PM 3.34 38.012 0.102 7.87 1.33 13.85
12/24/2021 1:00:00 PM 3.45 38.21 0.102 7.87 1.11 13.82
12/24/2021 1:15:00 PM 3.56 38.408 0.102 7.85 1.27 13.82
12/24/2021 1:30:00 PM 3.52 38.336 0.102 7.88 1.18 13.78
12/24/2021 1:45:00 PM 3.54 38.372 0.101 7.89 1.26 13.72
12/24/2021 2:00:00 PM 3.55 38.39 0.101 7.86 1.24 13.71
12/24/2021 2:15:00 PM 3.58 38.444 0.101 7.86 1.26 13.62
12/24/2021 2:30:00 PM 3.58 38.444 0.101 7.88 1.27 13.62
12/24/2021 2:45:00 PM 3.59 38.462 0.102 7.86 1.12 13.52
12/24/2021 3:00:00 PM 3.61 38.498 0.101 7.83 1.24 13.51
12/24/2021 3:15:00 PM 3.6 38.48 0.102 7.85 1.11 13.46
12/24/2021 3:30:00 PM 3.67 38.606 0.101 7.77 1.45 13.37
12/24/2021 3:45:00 PM 3.64 38.552 0.102 7.83 1.18 13.41
12/24/2021 4:00:00 PM 3.69 38.642 0.101 7.79 1.23 13.32
12/24/2021 4:15:00 PM 3.69 38.642 0.101 7.75 1.32 13.2
12/24/2021 4:30:00 PM 3.66 38.588 0.102 7.74 1.44 13.12
12/24/2021 4:45:00 PM 3.75 38.75 0.103 7.65 1.84 13.07
12/24/2021 5:00:00 PM 3.62 38.516 0.102 7.68 1.68 12.97
12/24/2021 5:15:00 PM 3.59 38.462 0.102 7.65 1.7 12.93
12/24/2021 5:30:00 PM 3.56 38.408 0.103 7.63 1.58 12.88
12/24/2021 5:45:00 PM 3.51 38.318 0.103 7.63 1.48 12.88
12/24/2021 6:00:00 PM 3.46 38.228 0.103 7.63 1.49 12.88
12/24/2021 6:15:00 PM 3.45 38.21 0.104 7.58 1.61 12.76
12/24/2021 6:30:00 PM 3.39 38.102 0.104 7.6 1.78 12.86
12/24/2021 6:45:00 PM 3.33 37.994 0.104 7.61 2.04 12.91
12/24/2021 7:00:00 PM 3.32 37.976 0.104 7.61 2.08 12.9
12/24/2021 7:15:00 PM 3.34 38.012 0.104 7.59 1.88 12.84
12/24/2021 7:30:00 PM 3.3 37.94 0.105 7.59 1.83 12.89
12/24/2021 7:45:00 PM 3.29 37.922 0.104 7.59 1.6 12.88
12/24/2021 8:00:00 PM 3.27 37.886 0.105 7.61 1.51 12.93
12/24/2021 8:15:00 PM 3.3 37.94 0.105 7.59 1.45 12.91
12/24/2021 8:30:00 PM 3.24 37.832 0.104 7.61 1.48 12.94
12/24/2021 8:45:00 PM 3.32 37.976 0.105 7.57 1.36 12.82
12/24/2021 9:00:00 PM 3.36 38.048 0.105 7.57 1.32 12.76
12/24/2021 9:15:00 PM 3.32 37.976 0.105 7.59 1.3 12.88
12/24/2021 9:30:00 PM 3.34 38.012 0.105 7.57 1.26 12.79
12/24/2021 9:45:00 PM 3.33 37.994 0.105 7.56 1.19 12.78
12/24/2021 10:00:00 PM 3.32 37.976 0.105 7.61 1.28 12.89
12/24/2021 10:15:00 PM 3.33 37.994 0.105 7.57 1.35 12.84
12/24/2021 10:30:00 PM 3.31 37.958 0.105 7.6 1.36 12.88
12/24/2021 10:45:00 PM 3.33 37.994 0.105 7.61 1.28 12.9
12/24/2021 11:00:00 PM 3.35 38.03 0.105 7.59 1.44 12.86
12/24/2021 11:15:00 PM 3.42 38.156 0.105 7.59 1.38 12.81
12/24/2021 11:30:00 PM 3.4 38.12 0.105 7.59 1.28 12.8
12/24/2021 11:45:00 PM 3.41 38.138 0.105 7.58 1.26 12.81
12/25/2021 12:00:00 AM 3.43 38.174 0.105 7.6 1.16 12.81
12/25/2021 12:15:00 AM 3.48 38.264 0.105 7.58 1.29 12.75
12/25/2021 12:30:00 AM 3.49 38.282 0.106 7.58 1.13 12.73
12/25/2021 12:45:00 AM 3.52 38.336 0.105 7.58 1.48 12.79
12/25/2021 1:00:00 AM 3.53 38.354 0.105 7.59 1.38 12.76
12/25/2021 1:15:00 AM 3.55 38.39 0.105 7.59 1.35 12.76
12/25/2021 1:30:00 AM 3.61 38.498 0.105 7.57 1.51 12.65
12/25/2021 1:45:00 AM 3.68 38.624 0.105 7.54 1.44 12.65
12/25/2021 2:00:00 AM 3.66 38.588 0.105 7.6 1.41 12.7
12/25/2021 2:15:00 AM 3.66 38.588 0.105 7.6 1.45 12.7
12/25/2021 2:30:00 AM 3.69 38.642 0.105 7.59 1.27 12.66
12/25/2021 2:45:00 AM 3.72 38.696 0.105 7.58 1.34 12.64
12/25/2021 3:00:00 AM 3.74 38.732 0.105 7.6 1.33 12.65
12/25/2021 3:15:00 AM 3.75 38.75 0.106 7.6 1.85 12.66
12/25/2021 3:30:00 AM 3.78 38.804 0.106 7.61 1.47 12.66
12/25/2021 3:45:00 AM 3.76 38.768 0.106 7.63 1.25 12.69
12/25/2021 4:00:00 AM 3.79 38.822 0.105 7.6 1.53 12.63
12/25/2021 4:15:00 AM 3.87 38.966 0.105 7.55 1.39 12.49
12/25/2021 4:30:00 AM 3.84 38.912 0.104 7.53 1.45 12.56
12/25/2021 4:45:00 AM 3.84 38.912 0.105 7.61 1.24 12.64
12/25/2021 5:00:00 AM 3.88 38.984 0.104 7.59 1.31 12.59
12/25/2021 5:15:00 AM 3.86 38.948 0.104 7.6 1.25 12.61
12/25/2021 5:30:00 AM 3.93 39.074 0.104 7.58 1.31 12.52
12/25/2021 5:45:00 AM 3.93 39.074 0.104 7.58 1.35 12.55
12/25/2021 6:00:00 AM 3.91 39.038 0.104 7.59 1.26 12.58
12/25/2021 6:15:00 AM 3.95 39.11 0.104 7.57 1.38 12.53
12/25/2021 6:30:00 AM 3.95 39.11 0.103 7.58 1.45 12.53
12/25/2021 6:45:00 AM 3.96 39.128 0.103 7.58 1.44 12.54
12/25/2021 7:00:00 AM 3.98 39.164 0.103 7.57 1.54 12.51
12/25/2021 7:15:00 AM 3.98 39.164 0.104 7.59 1.63 12.56
12/25/2021 7:30:00 AM 4.03 39.254 0.104 7.56 1.66 12.5
12/25/2021 7:45:00 AM 4.02 39.236 0.104 7.56 1.59 12.51
12/25/2021 8:00:00 AM 4.05 39.29 0.103 7.56 1.69 12.44
12/25/2021 8:15:00 AM 4.07 39.326 0.103 7.54 1.5 12.51
12/25/2021 8:30:00 AM 4.07 39.326 0.103 7.57 1.44 12.57
12/25/2021 8:45:00 AM 4.06 39.308 0.103 7.61 1.41 12.62
12/25/2021 9:00:00 AM 4.12 39.416 0.103 7.54 1.42 12.55
12/25/2021 9:15:00 AM 4.13 39.434 0.103 7.55 1.47 12.59
12/25/2021 9:30:00 AM 4.12 39.416 0.103 7.61 1.6 12.73
12/25/2021 9:45:00 AM 4.19 39.542 0.103 7.58 1.52 12.65
12/25/2021 10:00:00 AM 4.22 39.596 0.103 7.6 1.76 12.7
12/25/2021 10:15:00 AM 4.27 39.686 0.103 7.53 1.69 12.57
12/25/2021 10:30:00 AM 4.31 39.758 0.102 7.58 1.94 12.66
12/25/2021 10:45:00 AM 4.34 39.812 0.102 7.61 2.07 12.75
12/25/2021 11:00:00 AM 4.41 39.938 0.102 7.64 2.32 12.83
12/25/2021 11:15:00 AM 4.51 40.118 0.102 7.53 2.42 12.85
12/25/2021 11:30:00 AM 4.55 40.19 0.101 7.65 2.29 12.91
12/25/2021 11:45:00 AM 4.63 40.334 0.102 7.62 2.07 12.81
12/25/2021 12:00:00 PM 4.61 40.298 0.101 7.72 2.36 12.89
12/25/2021 12:15:00 PM 4.65 40.37 0.101 7.69 2.1 12.75
12/25/2021 12:30:00 PM 4.68 40.424 0.103 7.64 1.98 12.65
12/25/2021 12:45:00 PM 4.73 40.514 0.102 7.57 2.24 12.69
12/25/2021 1:00:00 PM 4.79 40.622 0.103 7.68 2.64 12.7
12/25/2021 1:15:00 PM 4.88 40.784 0.104 7.58 2.44 12.47
12/25/2021 1:30:00 PM 4.84 40.712 0.104 7.66 2.73 12.74
12/25/2021 1:45:00 PM 4.92 40.856 0.104 7.66 2.75 12.65
12/25/2021 2:00:00 PM 4.95 40.91 0.104 7.72 2.68 12.86
12/25/2021 2:15:00 PM 5.12 41.216 0.104 7.71 2.89 12.74
12/25/2021 2:30:00 PM 5.06 41.108 0.104 7.76 2.71 12.81
12/25/2021 2:45:00 PM 5.11 41.198 0.104 7.65 2.66 12.48
12/25/2021 3:00:00 PM 5.16 41.288 0.104 7.6 2.73 12.52
12/25/2021 3:15:00 PM 5.18 41.324 0.103 7.62 2.6 12.51
12/25/2021 3:30:00 PM 5.2 41.36 0.103 7.64 2.62 12.39
12/25/2021 3:45:00 PM 5.17 41.306 0.103 7.66 2.5 12.38
12/25/2021 4:00:00 PM 5.24 41.432 0.103 7.58 2.55 12.23
12/25/2021 4:15:00 PM 5.21 41.378 0.103 7.57 2.6 12.13
12/25/2021 4:30:00 PM 5.21 41.378 0.103 7.54 2.44 12.12
12/25/2021 4:45:00 PM 5.22 41.396 0.103 7.53 2.34 12.11
12/25/2021 5:00:00 PM 5.18 41.324 0.103 7.57 2.5 12.11
12/25/2021 5:15:00 PM 5.18 41.324 0.103 7.57 2.48 12.08
12/25/2021 5:30:00 PM 5.19 41.342 0.103 7.55 2.28 12.09
12/25/2021 5:45:00 PM 5.18 41.324 0.104 7.55 2.29 12.05
12/25/2021 6:00:00 PM 5.23 41.414 0.103 7.52 2.05 11.9
12/25/2021 6:15:00 PM 5.2 41.36 0.104 7.52 2.11 12
12/25/2021 6:30:00 PM 5.22 41.396 0.103 7.52 2.08 12
12/25/2021 6:45:00 PM 5.19 41.342 0.103 7.51 2.12 11.92
12/25/2021 7:00:00 PM 5.2 41.36 0.104 7.5 2.07 11.85
12/25/2021 7:15:00 PM 5.19 41.342 0.103 7.54 2.16 12.04
12/25/2021 7:30:00 PM 5.18 41.324 0.103 7.52 2.18 12.05
12/25/2021 7:45:00 PM 5.2 41.36 0.103 7.5 1.84 12.01
12/25/2021 8:00:00 PM 5.2 41.36 0.103 7.5 1.98 11.94
12/25/2021 8:15:00 PM 5.17 41.306 0.103 7.51 1.91 12.04
12/25/2021 8:30:00 PM 5.22 41.396 0.103 7.48 2.08 12
12/25/2021 8:45:00 PM 5.29 41.522 0.103 7.47 1.99 11.81
12/25/2021 9:00:00 PM 5.21 41.378 0.103 7.5 1.95 12.02
12/25/2021 9:15:00 PM 5.19 41.342 0.103 7.49 1.82 11.97
12/25/2021 9:30:00 PM 5.18 41.324 0.103 7.52 1.97 12.02
12/25/2021 9:45:00 PM 5.22 41.396 0.103 7.5 1.89 12.03
12/25/2021 10:00:00 PM 5.2 41.36 0.103 7.51 1.77 12.08
12/25/2021 10:15:00 PM 5.28 41.504 0.103 7.48 1.79 11.89
12/25/2021 10:30:00 PM 5.24 41.432 0.103 7.52 1.78 12.1
12/25/2021 10:45:00 PM 5.27 41.486 0.103 7.53 1.93 12.03
12/25/2021 11:00:00 PM 5.28 41.504 0.103 7.52 1.76 12.06
12/25/2021 11:15:00 PM 5.29 41.522 0.103 7.53 1.67 12.06
12/25/2021 11:30:00 PM 5.32 41.576 0.103 7.53 1.63 12.05
12/25/2021 11:45:00 PM 5.32 41.576 0.102 7.54 1.84 12.1
12/26/2021 12:00:00 AM 5.35 41.63 0.102 7.53 1.84 12.03
12/26/2021 12:15:00 AM 5.35 41.63 0.103 7.51 1.77 11.99
12/26/2021 12:30:00 AM 5.35 41.63 0.102 7.52 1.8 12.04
12/26/2021 12:45:00 AM 5.35 41.63 0.102 7.52 1.72 12.03
12/26/2021 1:00:00 AM 5.33 41.594 0.102 7.53 1.76 12.03
12/26/2021 1:15:00 AM 5.35 41.63 0.102 7.51 1.75 12.04
12/26/2021 1:30:00 AM 5.36 41.648 0.102 7.5 1.78 12
12/26/2021 1:45:00 AM 5.33 41.594 0.102 7.51 1.63 11.99
12/26/2021 2:00:00 AM 5.33 41.594 0.102 7.51 1.57 12.08
12/26/2021 2:15:00 AM 5.3 41.54 0.102 7.52 1.82 12.04
12/26/2021 2:30:00 AM 5.26 41.468 0.102 7.55 2.01 12.14
12/26/2021 2:45:00 AM 5.24 41.432 0.102 7.52 1.75 12.1
12/26/2021 3:00:00 AM 5.26 41.468 0.102 7.49 1.67 12.06
12/26/2021 3:15:00 AM 5.21 41.378 0.102 7.51 1.86 12.06
12/26/2021 3:30:00 AM 5.19 41.342 0.102 7.46 2.07 12.02
12/26/2021 3:45:00 AM 5.19 41.342 0.102 7.47 1.75 12.09
12/26/2021 4:00:00 AM 5.16 41.288 0.102 7.45 1.8 12.13
12/26/2021 4:15:00 AM 5.14 41.252 0.103 7.48 1.53 12.12
12/26/2021 4:30:00 AM 5.12 41.216 0.102 7.43 1.65 12.04
12/26/2021 4:45:00 AM 5.06 41.108 0.102 7.51 1.6 12.23
12/26/2021 5:00:00 AM 5.02 41.036 0.102 7.53 1.61 12.22
12/26/2021 5:15:00 AM 5.04 41.072 0.102 7.5 1.56 12.19
12/26/2021 5:30:00 AM 4.97 40.946 0.102 7.53 1.58 12.32
12/26/2021 5:45:00 AM 5.01 41.018 0.102 7.46 1.62 12.18
12/26/2021 6:00:00 AM 4.99 40.982 0.102 7.52 1.65 12.15
12/26/2021 6:15:00 AM 5.06 41.108 0.102 7.41 1.81 11.97
12/26/2021 6:30:00 AM 4.93 40.874 0.102 7.48 1.73 12.25
12/26/2021 6:45:00 AM 5.08 41.144 0.102 7.45 1.61 12.08
12/26/2021 7:00:00 AM 4.89 40.802 0.101 7.49 1.57 12.2
12/26/2021 7:15:00 AM 4.88 40.784 0.101 7.45 1.59 12.15
12/26/2021 7:30:00 AM 4.82 40.676 0.102 7.51 1.63 12.32
12/26/2021 7:45:00 AM 4.84 40.712 0.102 7.51 1.51 12.34
12/26/2021 8:00:00 AM 4.81 40.658 0.102 7.52 1.65 12.37
12/26/2021 8:15:00 AM 4.81 40.658 0.102 7.53 1.81 12.48
12/26/2021 8:30:00 AM 4.83 40.694 0.101 7.41 1.58 12.46
12/26/2021 8:45:00 AM 4.75 40.55 0.101 7.58 1.52 12.65
12/26/2021 9:00:00 AM 4.84 40.712 0.101 7.55 1.69 12.62
12/26/2021 9:15:00 AM 4.78 40.604 0.101 7.6 1.65 12.84
12/26/2021 9:30:00 AM 4.88 40.784 0.101 7.59 1.6 12.77
12/26/2021 9:45:00 AM 4.87 40.766 0.1 7.63 1.63 12.89
12/26/2021 10:00:00 AM 4.88 40.784 0.1 7.65 1.57 12.84
12/26/2021 10:15:00 AM 4.92 40.856 0.1 7.67 1.69 13.03
12/26/2021 10:30:00 AM 4.99 40.982 0.1 7.63 1.51 13
12/26/2021 10:45:00 AM 5.08 41.144 0.101 7.6 1.51 12.97
12/26/2021 11:00:00 AM 4.99 40.982 0.1 7.68 1.51 13.01
12/26/2021 11:15:00 AM 4.98 40.964 0.1 7.68 1.68 12.97
12/26/2021 11:30:00 AM 5.04 41.072 0.099 7.71 1.69 13.05
12/26/2021 11:45:00 AM 5.1 41.18 0.1 7.75 1.5 13.09
12/26/2021 12:00:00 PM 5.15 41.27 0.099 7.7 1.46 13.01
12/26/2021 12:15:00 PM 5.16 41.288 0.099 7.81 1.69 13.08
12/26/2021 12:30:00 PM 5.22 41.396 0.099 7.69 1.52 12.99
12/26/2021 12:45:00 PM 5.24 41.432 0.099 7.69 1.62 12.98
12/26/2021 1:00:00 PM 5.28 41.504 0.098 7.66 1.56 13.01
12/26/2021 1:15:00 PM 5.33 41.594 0.098 7.66 1.5 12.88
12/26/2021 1:30:00 PM 5.4 41.72 0.098 7.75 1.59 12.98
12/26/2021 1:45:00 PM 5.33 41.594 0.098 7.81 1.55 13
12/26/2021 2:00:00 PM 5.37 41.666 0.099 7.74 1.57 12.79
12/26/2021 2:15:00 PM 5.3 41.54 0.099 7.76 1.62 12.85
12/26/2021 2:30:00 PM 5.3 41.54 0.099 7.72 1.58 12.83
12/26/2021 2:45:00 PM 5.33 41.594 0.099 7.65 1.54 12.67
12/26/2021 3:00:00 PM 5.33 41.594 0.099 7.73 1.5 12.62
12/26/2021 3:15:00 PM 5.29 41.522 0.099 7.71 1.56 12.75
12/26/2021 3:30:00 PM 5.31 41.558 0.099 7.62 1.66 12.61
12/26/2021 3:45:00 PM 5.27 41.486 0.099 7.69 1.59 12.65
12/26/2021 4:00:00 PM 5.31 41.558 0.1 7.6 1.45 12.4
12/26/2021 4:15:00 PM 5.28 41.504 0.1 7.62 1.67 12.48
12/26/2021 4:30:00 PM 5.21 41.378 0.101 7.6 1.56 12.46
12/26/2021 4:45:00 PM 5.2 41.36 0.1 7.56 1.63 12.34
12/26/2021 5:00:00 PM 5.13 41.234 0.1 7.56 1.55 12.36
12/26/2021 5:15:00 PM 5.08 41.144 0.101 7.56 1.59 12.4
12/26/2021 5:30:00 PM 5.09 41.162 0.101 7.51 1.62 12.25
12/26/2021 5:45:00 PM 5.01 41.018 0.101 7.54 1.61 12.31
12/26/2021 6:00:00 PM 4.98 40.964 0.101 7.52 1.62 12.26
12/26/2021 6:15:00 PM 4.94 40.892 0.101 7.53 1.83 12.3
12/26/2021 6:30:00 PM 4.94 40.892 0.101 7.49 1.47 12.3
12/26/2021 6:45:00 PM 4.86 40.748 0.102 7.54 1.47 12.37
12/26/2021 7:00:00 PM 4.8 40.64 0.102 7.54 1.54 12.41
12/26/2021 7:15:00 PM 4.73 40.514 0.102 7.56 1.53 12.45
12/26/2021 7:30:00 PM 4.8 40.64 0.102 7.5 1.61 12.29
12/26/2021 7:45:00 PM 4.75 40.55 0.103 7.52 1.45 12.36
12/26/2021 8:00:00 PM 4.73 40.514 0.102 7.5 1.44 12.36
12/26/2021 8:15:00 PM 4.64 40.352 0.102 7.53 1.49 12.44
12/26/2021 8:30:00 PM 4.65 40.37 0.102 7.52 1.51 12.43
12/26/2021 8:45:00 PM 4.61 40.298 0.102 7.52 1.48 12.46
12/26/2021 9:00:00 PM 4.59 40.262 0.102 7.5 1.49 12.42
12/26/2021 9:15:00 PM 4.6 40.28 0.103 7.51 1.34 12.42
12/26/2021 9:30:00 PM 4.59 40.262 0.103 7.51 1.52 12.41
12/26/2021 9:45:00 PM 4.51 40.118 0.102 7.54 1.7 12.53
12/26/2021 10:00:00 PM 4.47 40.046 0.103 7.54 1.62 12.56
12/26/2021 10:15:00 PM 4.41 39.938 0.102 7.55 1.44 12.55
12/26/2021 10:30:00 PM 4.4 39.92 0.102 7.54 1.44 12.57
12/26/2021 10:45:00 PM 4.46 40.028 0.103 7.47 1.61 12.46
12/26/2021 11:00:00 PM 4.35 39.83 0.103 7.51 1.54 12.58
12/26/2021 11:15:00 PM 4.31 39.758 0.102 7.53 1.49 12.58
12/26/2021 11:30:00 PM 4.34 39.812 0.102 7.53 1.35 12.54
12/26/2021 11:45:00 PM 4.31 39.758 0.103 7.52 1.46 12.55
12/27/2021 12:00:00 AM 4.23 39.614 0.103 7.53 1.33 12.61
12/27/2021 12:15:00 AM 4.19 39.542 0.102 7.53 1.34 12.61
12/27/2021 12:30:00 AM 4.21 39.578 0.103 7.5 1.28 12.59
12/27/2021 12:45:00 AM 4.18 39.524 0.102 7.52 1.6 12.61
12/27/2021 1:00:00 AM 4.17 39.506 0.103 7.51 1.38 12.6
12/27/2021 1:15:00 AM 4.1 39.38 0.102 7.54 1.58 12.67
12/27/2021 1:30:00 AM 4.08 39.344 0.103 7.5 1.52 12.62
12/27/2021 1:45:00 AM 4.1 39.38 0.103 7.5 1.33 12.64
12/27/2021 2:00:00 AM 4.03 39.254 0.103 7.53 1.38 12.67
12/27/2021 2:15:00 AM 4.01 39.218 0.102 7.49 1.45 12.67
12/27/2021 2:30:00 AM 3.95 39.11 0.102 7.51 1.53 12.68
12/27/2021 2:45:00 AM 3.87 38.966 0.102 7.53 1.43 12.75
12/27/2021 3:00:00 AM 3.86 38.948 0.103 7.48 1.37 12.68
12/27/2021 3:15:00 AM 3.81 38.858 0.102 7.51 1.43 12.73
12/27/2021 3:30:00 AM 3.76 38.768 0.102 7.49 1.38 12.71
12/27/2021 3:45:00 AM 3.69 38.642 0.102 7.51 1.4 12.78
12/27/2021 4:00:00 AM 3.63 38.534 0.102 7.5 1.54 12.77
12/27/2021 4:15:00 AM 3.63 38.534 0.102 7.51 1.36 12.75
12/27/2021 4:30:00 AM 3.58 38.444 0.102 7.48 1.44 12.81
12/27/2021 4:45:00 AM 3.55 38.39 0.102 7.51 1.34 12.83
12/27/2021 5:00:00 AM 3.52 38.336 0.102 7.52 1.38 12.84
12/27/2021 5:15:00 AM 3.52 38.336 0.102 7.5 1.61 12.87
12/27/2021 5:30:00 AM 3.52 38.336 0.102 7.48 1.47 12.82
12/27/2021 5:45:00 AM 3.45 38.21 0.102 7.48 1.37 12.84
12/27/2021 6:00:00 AM 3.47 38.246 0.102 7.48 1.38 12.82
12/27/2021 6:15:00 AM 3.41 38.138 0.102 7.51 1.41 12.92
12/27/2021 6:30:00 AM 3.44 38.192 0.102 7.5 1.35 12.84
12/27/2021 6:45:00 AM 3.43 38.174 0.102 7.47 1.36 12.78
12/27/2021 7:00:00 AM 3.4 38.12 0.102 7.48 1.45 12.84
12/27/2021 7:15:00 AM 3.39 38.102 0.102 7.5 1.41 12.84
12/27/2021 7:30:00 AM 3.4 38.12 0.102 7.5 1.44 12.88
12/27/2021 7:45:00 AM 3.39 38.102 0.102 7.49 1.64 12.91
12/27/2021 8:00:00 AM 3.33 37.994 0.102 7.52 1.44 12.99
12/27/2021 8:15:00 AM 3.4 38.12 0.102 7.5 1.38 12.91
12/27/2021 8:30:00 AM 3.36 38.048 0.102 7.49 1.33 12.95
12/27/2021 8:45:00 AM 3.37 38.066 0.102 7.51 1.35 12.98
12/27/2021 9:00:00 AM 3.29 37.922 0.102 7.56 1.34 13.09
12/27/2021 9:15:00 AM 3.37 38.066 0.102 7.5 1.28 13.01
12/27/2021 9:30:00 AM 3.35 38.03 0.103 7.55 1.42 13.09
12/27/2021 9:45:00 AM 3.41 38.138 0.102 7.49 1.53 13.02
12/27/2021 10:00:00 AM 3.35 38.03 0.102 7.52 1.42 13.07
12/27/2021 10:15:00 AM 3.39 38.102 0.103 7.56 1.36 13.26
12/27/2021 10:30:00 AM 3.39 38.102 0.102 7.59 1.38 13.34
12/27/2021 10:45:00 AM 3.4 38.12 0.102 7.64 1.4 13.41
12/27/2021 11:00:00 AM 3.56 38.408 0.102 7.56 1.42 13.42
12/27/2021 11:15:00 AM 3.49 38.282 0.102 7.64 1.19 13.46
12/27/2021 11:30:00 AM 3.55 38.39 0.101 7.61 1.31 13.47
12/27/2021 11:45:00 AM 3.59 38.462 0.102 7.69 1.28 13.56
12/27/2021 12:00:00 PM 3.59 38.462 0.101 7.72 1.44 13.58
12/27/2021 12:15:00 PM 3.6 38.48 0.101 7.66 1.45 13.43
12/27/2021 12:30:00 PM 3.62 38.516 0.101 7.66 1.32 13.26
12/27/2021 12:45:00 PM 3.66 38.588 0.101 7.7 1.39 13.39
12/27/2021 1:00:00 PM 3.62 38.516 0.101 7.72 1.33 13.37
12/27/2021 1:15:00 PM 3.67 38.606 0.101 7.65 1.23 13.26
12/27/2021 1:30:00 PM 3.66 38.588 0.101 7.63 1.47 13.19
12/27/2021 1:45:00 PM 3.68 38.624 0.101 7.62 1.29 13.22
12/27/2021 2:00:00 PM 3.71 38.678 0.101 7.66 1.3 13.27
12/27/2021 2:15:00 PM 3.71 38.678 0.101 7.63 1.31 13.25
12/27/2021 2:30:00 PM 3.72 38.696 0.101 7.63 1.37 13.19
12/27/2021 2:45:00 PM 3.69 38.642 0.101 7.66 1.35 13.2
12/27/2021 3:00:00 PM 3.71 38.678 0.102 7.59 1.32 13.13
12/27/2021 3:15:00 PM 3.73 38.714 0.102 7.6 1.41 13.05
12/27/2021 3:30:00 PM 3.71 38.678 0.102 7.62 1.36 13.1
12/27/2021 3:45:00 PM 3.64 38.552 0.102 7.65 1.41 13.08
12/27/2021 4:00:00 PM 3.72 38.696 0.102 7.57 1.39 12.8
12/27/2021 4:15:00 PM 3.73 38.714 0.102 7.55 1.46 12.84
12/27/2021 4:30:00 PM 3.68 38.624 0.102 7.56 1.43 12.84
12/27/2021 4:45:00 PM 3.69 38.642 0.102 7.54 1.38 12.77
12/27/2021 5:00:00 PM 3.7 38.66 0.103 7.54 1.31 12.75
12/27/2021 5:15:00 PM 3.66 38.588 0.102 7.55 1.4 12.73
12/27/2021 5:30:00 PM 3.65 38.57 0.103 7.53 1.42 12.72
12/27/2021 5:45:00 PM 3.63 38.534 0.103 7.54 1.44 12.77
12/27/2021 6:00:00 PM 3.66 38.588 0.103 7.52 1.33 12.69
12/27/2021 6:15:00 PM 3.64 38.552 0.103 7.52 1.41 12.68
12/27/2021 6:30:00 PM 3.63 38.534 0.103 7.5 1.51 12.7
12/27/2021 6:45:00 PM 3.61 38.498 0.103 7.54 1.41 12.71
12/27/2021 7:00:00 PM 3.62 38.516 0.103 7.49 1.49 12.63
12/27/2021 7:15:00 PM 3.64 38.552 0.103 7.49 1.4 12.65
12/27/2021 7:30:00 PM 3.64 38.552 0.104 7.52 1.42 12.69
12/27/2021 7:45:00 PM 3.57 38.426 0.104 7.53 1.55 12.72
12/27/2021 8:00:00 PM 3.61 38.498 0.103 7.52 1.46 12.67
12/27/2021 8:15:00 PM 3.61 38.498 0.103 7.51 1.43 12.7
12/27/2021 8:30:00 PM 3.63 38.534 0.103 7.49 1.49 12.67
12/27/2021 8:45:00 PM 3.63 38.534 0.104 7.48 1.34 12.67
12/27/2021 9:00:00 PM 3.61 38.498 0.103 7.49 1.53 12.7
12/27/2021 9:15:00 PM 3.59 38.462 0.103 7.53 1.44 12.73
12/27/2021 9:30:00 PM 3.63 38.534 0.104 7.51 1.39 12.64
12/27/2021 9:45:00 PM 3.65 38.57 0.104 7.46 1.31 12.62
12/27/2021 10:00:00 PM 3.64 38.552 0.104 7.52 1.34 12.73
12/27/2021 10:15:00 PM 3.6 38.48 0.103 7.53 1.45 12.75
12/27/2021 10:30:00 PM 3.62 38.516 0.103 7.54 1.38 12.72
12/27/2021 10:45:00 PM 3.63 38.534 0.103 7.53 1.53 12.71
12/27/2021 11:00:00 PM 3.64 38.552 0.103 7.52 1.43 12.68
12/27/2021 11:15:00 PM 3.71 38.678 0.104 7.49 1.4 12.63
12/27/2021 11:30:00 PM 3.7 38.66 0.104 7.51 1.25 12.65
12/27/2021 11:45:00 PM 3.65 38.57 0.104 7.52 1.3 12.65
12/28/2021 12:00:00 AM 3.71 38.678 0.104 7.51 1.41 12.64
12/28/2021 12:15:00 AM 3.66 38.588 0.103 7.53 1.39 12.69
12/28/2021 12:30:00 AM 3.66 38.588 0.103 7.53 1.3 12.69
12/28/2021 12:45:00 AM 3.68 38.624 0.103 7.51 1.41 12.67
12/28/2021 1:00:00 AM 3.72 38.696 0.103 7.54 1.31 12.69
12/28/2021 1:15:00 AM 3.79 38.822 0.104 7.49 1.38 12.57
12/28/2021 1:30:00 AM 3.77 38.786 0.103 7.51 1.41 12.64
12/28/2021 1:45:00 AM 3.77 38.786 0.103 7.51 1.37 12.62
12/28/2021 2:00:00 AM 3.8 38.84 0.104 7.52 1.19 12.66
12/28/2021 2:15:00 AM 3.8 38.84 0.104 7.53 1.39 12.63
12/28/2021 2:30:00 AM 3.85 38.93 0.104 7.49 1.34 12.58
12/28/2021 2:45:00 AM 3.85 38.93 0.104 7.51 1.44 12.61
12/28/2021 3:00:00 AM 3.88 38.984 0.104 7.51 1.37 12.59
12/28/2021 3:15:00 AM 3.88 38.984 0.104 7.52 1.37 12.63
12/28/2021 3:30:00 AM 3.96 39.128 0.104 7.49 1.25 12.55
12/28/2021 3:45:00 AM 3.93 39.074 0.105 7.5 1.26 12.55
12/28/2021 4:00:00 AM 3.89 39.002 0.104 7.52 1.51 12.62
12/28/2021 4:15:00 AM 3.91 39.038 0.104 7.51 1.3 12.59
12/28/2021 4:30:00 AM 3.88 38.984 0.104 7.53 1.31 12.65
12/28/2021 4:45:00 AM 3.92 39.056 0.104 7.5 1.41 12.55
12/28/2021 5:00:00 AM 3.91 39.038 0.104 7.49 1.43 12.58
12/28/2021 5:15:00 AM 3.88 38.984 0.104 7.51 1.3 12.61
12/28/2021 5:30:00 AM 3.85 38.93 0.104 7.49 1.42 12.53
12/28/2021 5:45:00 AM 3.77 38.786 0.104 7.5 1.39 12.63
12/28/2021 6:00:00 AM 3.78 38.804 0.104 7.5 1.31 12.59
12/28/2021 6:15:00 AM 3.76 38.768 0.104 7.43 1.17 12.46
12/28/2021 6:30:00 AM 3.67 38.606 0.104 7.52 1.36 12.63
12/28/2021 6:45:00 AM 3.71 38.678 0.104 7.47 1.47 12.61
12/28/2021 7:00:00 AM 3.57 38.426 0.104 7.49 1.23 12.68
12/28/2021 7:15:00 AM 3.57 38.426 0.105 7.49 1.35 12.69
12/28/2021 7:30:00 AM 3.51 38.318 0.105 7.51 1.39 12.69
12/28/2021 7:45:00 AM 3.49 38.282 0.104 7.48 1.17 12.76
12/28/2021 8:00:00 AM 3.44 38.192 0.104 7.5 1.29 12.77
12/28/2021 8:15:00 AM 3.42 38.156 0.104 7.52 1.35 12.86
12/28/2021 8:30:00 AM 3.45 38.21 0.104 7.51 1.24 13
12/28/2021 8:45:00 AM 3.41 38.138 0.104 7.57 1.36 13.16
12/28/2021 9:00:00 AM 3.4 38.12 0.104 7.61 1.28 13.27
12/28/2021 9:15:00 AM 3.47 38.246 0.104 7.59 1.28 13.28
12/28/2021 9:30:00 AM 3.47 38.246 0.103 7.62 1.32 13.37
12/28/2021 9:45:00 AM 3.47 38.246 0.103 7.66 1.22 13.39
12/28/2021 10:00:00 AM 3.54 38.372 0.103 7.64 1.35 13.44
12/28/2021 10:15:00 AM 3.6 38.48 0.103 7.65 1.32 13.43
12/28/2021 10:30:00 AM 3.6 38.48 0.103 7.65 1.39 13.48
12/28/2021 10:45:00 AM 3.59 38.462 0.103 7.69 1.36 13.46
12/28/2021 11:00:00 AM 3.61 38.498 0.103 7.69 1.36 13.49
12/28/2021 11:15:00 AM 3.68 38.624 0.103 7.66 1.35 13.48
12/28/2021 11:30:00 AM 3.69 38.642 0.103 7.7 1.35 13.46
12/28/2021 11:45:00 AM 3.72 38.696 0.103 7.67 1.32 13.47
12/28/2021 12:00:00 PM 3.74 38.732 0.102 7.77 1.3 13.58
12/28/2021 12:15:00 PM 3.93 39.074 0.102 7.68 1.79 13.3
12/28/2021 12:30:00 PM 3.93 39.074 0.102 7.76 5.13 13.55
12/28/2021 12:45:00 PM 4.04 39.272 0.102 7.76 1.22 13.47
12/28/2021 1:00:00 PM 4.08 39.344 0.102 7.82 1.3 13.44
12/28/2021 1:15:00 PM 4.19 39.542 0.102 7.76 1.2 13.29
12/28/2021 1:30:00 PM 4.25 39.65 0.102 7.75 1.28 13.21
12/28/2021 1:45:00 PM 4.27 39.686 0.102 7.72 1.21 13.14
12/28/2021 2:00:00 PM 4.31 39.758 0.102 7.72 1.26 13.02
12/28/2021 2:15:00 PM 4.44 39.992 0.102 7.62 1.34 12.87
12/28/2021 2:30:00 PM 4.42 39.956 0.102 7.61 1.32 12.82
12/28/2021 2:45:00 PM 4.4 39.92 0.102 7.72 1.24 12.98
12/28/2021 3:00:00 PM 4.46 40.028 0.102 7.64 1.3 12.95
12/28/2021 3:15:00 PM 4.48 40.064 0.102 7.62 1.29 12.89
12/28/2021 3:30:00 PM 4.57 40.226 0.102 7.6 1.22 12.8
12/28/2021 3:45:00 PM 4.49 40.082 0.102 7.6 1.29 12.75
12/28/2021 4:00:00 PM 4.55 40.19 0.102 7.58 1.21 12.65
12/28/2021 4:15:00 PM 4.47 40.046 0.102 7.62 1.24 12.68
12/28/2021 4:30:00 PM 4.5 40.1 0.102 7.56 1.29 12.57
12/28/2021 4:45:00 PM 4.47 40.046 0.103 7.5 1.27 12.51
12/28/2021 5:00:00 PM 4.48 40.064 0.103 7.53 1.27 12.43
12/28/2021 5:15:00 PM 4.43 39.974 0.103 7.52 1.31 12.5
12/28/2021 5:30:00 PM 4.46 40.028 0.103 7.51 1.1 12.42
12/28/2021 5:45:00 PM 4.47 40.046 0.103 7.5 1.11 12.39
12/28/2021 6:00:00 PM 4.44 39.992 0.103 7.51 1.07 12.42
12/28/2021 6:15:00 PM 4.45 40.01 0.102 7.53 2.7 12.46
12/28/2021 6:30:00 PM 4.41 39.938 0.111 7.54 0.42 12.46
12/28/2021 6:45:00 PM 4.42 39.956 0.111 7.55 0.46 12.5
12/28/2021 7:00:00 PM 4.41 39.938 0.111 7.54 0.46 12.46
12/28/2021 7:15:00 PM 4.46 40.028 0.111 7.49 0.46 12.39
12/28/2021 7:30:00 PM 4.43 39.974 0.111 7.51 0.43 12.39
12/28/2021 7:45:00 PM 4.44 39.992 0.111 7.5 0.51 12.52
12/28/2021 8:00:00 PM 4.41 39.938 0.111 7.47 0.48 12.44
12/28/2021 8:15:00 PM 4.38 39.884 0.111 7.54 0.58 12.49
12/28/2021 8:30:00 PM 4.38 39.884 0.111 7.49 0.52 12.43
12/28/2021 8:45:00 PM 4.38 39.884 0.111 7.51 0.49 12.46
12/28/2021 9:00:00 PM 4.32 39.776 0.111 7.54 0.45 12.5
12/28/2021 9:15:00 PM 4.21 39.578 0.11 7.53 0.51 12.44
12/28/2021 9:30:00 PM 4.17 39.506 0.111 7.5 0.6 12.49
12/28/2021 9:45:00 PM 4.11 39.398 0.114 7.51 0.6 12.49
12/28/2021 10:00:00 PM 4.06 39.308 0.118 7.54 0.62 12.58
12/28/2021 10:15:00 PM 4.11 39.398 0.119 7.48 0.53 12.49
12/28/2021 10:30:00 PM 4.08 39.344 0.119 7.52 0.48 12.52
12/28/2021 10:45:00 PM 4.08 39.344 0.118 7.5 0.56 12.54
12/28/2021 11:00:00 PM 4.08 39.344 0.116 7.48 0.55 12.52
12/28/2021 11:15:00 PM 4.04 39.272 0.116 7.53 0.47 12.57
12/28/2021 11:30:00 PM 4.15 39.47 0.116 7.44 0.48 12.41
12/28/2021 11:45:00 PM 4.08 39.344 0.115 7.48 0.54 12.45
12/29/2021 12:00:00 AM 4.1 39.38 0.116 7.5 0.52 12.55
12/29/2021 12:15:00 AM 4.03 39.254 0.115 7.49 0.57 12.53
12/29/2021 12:30:00 AM 4.02 39.236 0.115 7.5 0.52 12.55
12/29/2021 12:45:00 AM 4.07 39.326 0.114 7.45 0.55 12.45
12/29/2021 1:00:00 AM 4.03 39.254 0.114 7.51 0.61 12.55
12/29/2021 1:15:00 AM 4.02 39.236 0.114 7.49 0.67 12.53
12/29/2021 1:30:00 AM 4.04 39.272 0.113 7.49 0.65 12.48
12/29/2021 1:45:00 AM 4.04 39.272 0.113 7.52 0.72 12.57
12/29/2021 2:00:00 AM 4.05 39.29 0.113 7.49 0.63 12.52
12/29/2021 2:15:00 AM 4.04 39.272 0.113 7.49 0.87 12.55
12/29/2021 2:30:00 AM 4.06 39.308 0.113 7.46 0.57 12.48
12/29/2021 2:45:00 AM 4.07 39.326 0.113 7.46 0.57 12.47
12/29/2021 3:00:00 AM 4.02 39.236 0.113 7.51 0.52 12.54
12/29/2021 3:15:00 AM 4.04 39.272 0.113 7.49 0.68 12.5
12/29/2021 3:30:00 AM 4.08 39.344 0.114 7.47 0.91 12.43
12/29/2021 3:45:00 AM 4.02 39.236 0.114 7.5 0.61 12.59
12/29/2021 4:00:00 AM 4.04 39.272 0.115 7.49 0.54 12.53
12/29/2021 4:15:00 AM 4.13 39.434 0.116 7.47 0.57 12.5
12/29/2021 4:30:00 AM 4.07 39.326 0.116 7.49 0.54 12.52
12/29/2021 4:45:00 AM 4.04 39.272 0.117 7.5 0.53 12.53
12/29/2021 5:00:00 AM 4.12 39.416 0.117 7.43 0.56 12.4
12/29/2021 5:15:00 AM 4.08 39.344 0.117 7.49 0.56 12.52
12/29/2021 5:30:00 AM 4.12 39.416 0.117 7.47 0.5 12.42
12/29/2021 5:45:00 AM 4.07 39.326 0.116 7.5 0.52 12.59
12/29/2021 6:00:00 AM 4.17 39.506 0.116 7.48 0.54 12.42
12/29/2021 6:15:00 AM 4.14 39.452 0.116 7.48 0.51 12.47
12/29/2021 6:30:00 AM 4.11 39.398 0.115 7.45 0.54 12.47
12/29/2021 6:45:00 AM 4.12 39.416 0.115 7.49 0.49 12.55
12/29/2021 7:00:00 AM 4.13 39.434 0.115 7.5 0.49 12.5
12/29/2021 7:15:00 AM 4.18 39.524 0.115 7.47 0.51 12.47
12/29/2021 7:30:00 AM 4.14 39.452 0.114 7.48 0.49 12.55
12/29/2021 7:45:00 AM 4.18 39.524 0.114 7.47 0.65 12.48
12/29/2021 8:00:00 AM 4.16 39.488 0.114 7.49 0.44 12.52
12/29/2021 8:15:00 AM 4.24 39.632 0.114 7.45 0.5 12.5
12/29/2021 8:30:00 AM 4.28 39.704 0.114 7.45 0.5 12.4
12/29/2021 8:45:00 AM 4.24 39.632 0.113 7.5 0.49 12.59
12/29/2021 9:00:00 AM 4.25 39.65 0.113 7.51 0.49 12.65
12/29/2021 9:15:00 AM 4.34 39.812 0.113 7.53 0.53 12.03
12/29/2021 9:30:00 AM 4.3 39.74 0.113 7.54 0.51 12.82
12/29/2021 9:45:00 AM 4.34 39.812 0.113 7.54 0.46 12.91
12/29/2021 10:00:00 AM 4.4 39.92 0.112 7.54 0.5 12.92
12/29/2021 10:15:00 AM 4.44 39.992 0.112 7.6 0.55 12.98
12/29/2021 10:30:00 AM 4.47 40.046 0.112 7.67 0.55 13.12
12/29/2021 10:45:00 AM 4.53 40.154 0.112 7.68 0.44 13.16
12/29/2021 11:00:00 AM 4.59 40.262 0.111 7.7 0.56 13.21
12/29/2021 11:15:00 AM 4.69 40.442 0.111 7.67 0.54 13.2
12/29/2021 11:30:00 AM 4.78 40.604 0.111 7.78 0.51 13.21
12/29/2021 11:45:00 AM 4.86 40.748 0.111 7.77 0.48 13.22
12/29/2021 12:00:00 PM 4.95 40.91 0.11 7.75 0.54 13.22
12/29/2021 12:15:00 PM 5.02 41.036 0.11 7.75 0.45 13.01
12/29/2021 12:30:00 PM 5.05 41.09 0.11 7.79 0.43 13.11
12/29/2021 12:45:00 PM 5.11 41.198 0.11 7.71 0.52 13.04
12/29/2021 1:00:00 PM 5.11 41.198 0.11 7.84 0.52 13.03
12/29/2021 1:15:00 PM 5.16 41.288 0.11 7.79 0.44 12.99
12/29/2021 1:30:00 PM 5.24 41.432 0.11 7.74 0.49 12.96
12/29/2021 1:45:00 PM 5.34 41.612 0.11 7.72 0.56 12.81
12/29/2021 2:00:00 PM 5.36 41.648 0.11 7.71 0.52 12.86
12/29/2021 2:15:00 PM 5.42 41.756 0.109 7.71 0.51 12.62
12/29/2021 2:30:00 PM 5.47 41.846 0.109 7.77 0.47 12.92
12/29/2021 2:45:00 PM 5.5 41.9 0.11 7.78 0.51 12.81
12/29/2021 3:00:00 PM 5.53 41.954 0.109 7.74 0.59 12.82
12/29/2021 3:15:00 PM 5.54 41.972 0.109 7.75 0.51 12.76
12/29/2021 3:30:00 PM 5.6 42.08 0.11 7.68 0.53 12.67
12/29/2021 3:45:00 PM 5.6 42.08 0.11 7.68 0.48 12.6
12/29/2021 4:00:00 PM 5.6 42.08 0.11 7.66 0.51 12.53
12/29/2021 4:15:00 PM 5.59 42.062 0.11 7.67 0.57 12.52
12/29/2021 4:30:00 PM 5.62 42.116 0.111 7.58 0.5 12.31
12/29/2021 4:45:00 PM 5.55 41.99 0.11 7.58 0.45 12.26
12/29/2021 5:00:00 PM 5.56 42.008 0.111 7.57 0.55 12.21
12/29/2021 5:15:00 PM 5.56 42.008 0.111 7.5 0.43 12.08
12/29/2021 5:30:00 PM 5.51 41.918 0.111 7.56 0.46 12.13
12/29/2021 5:45:00 PM 5.52 41.936 0.111 7.55 0.58 12.13
12/29/2021 6:00:00 PM 5.5 41.9 0.112 7.51 0.47 12.05
12/29/2021 6:15:00 PM 5.45 41.81 0.112 7.55 0.44 12.14
12/29/2021 6:30:00 PM 5.51 41.918 0.112 7.47 0.51 12.06
12/29/2021 6:45:00 PM 5.53 41.954 0.112 7.48 0.55 11.99
12/29/2021 7:00:00 PM 5.48 41.864 0.112 7.37 0.46 11.99
12/29/2021 7:15:00 PM 5.4 41.72 0.112 7.51 0.49 12.15
12/29/2021 7:30:00 PM 5.38 41.684 0.112 7.53 0.46 12.13
12/29/2021 7:45:00 PM 5.48 41.864 0.113 7.46 0.44 11.92
12/29/2021 8:00:00 PM 5.37 41.666 0.112 7.52 0.45 12.14
12/29/2021 8:15:00 PM 5.4 41.72 0.112 7.5 0.45 12.11
12/29/2021 8:30:00 PM 5.41 41.738 0.113 7.48 0.43 12.09
12/29/2021 8:45:00 PM 5.38 41.684 0.113 7.48 0.42 12.17
12/29/2021 9:00:00 PM 5.43 41.774 0.113 7.44 0.43 12.11
12/29/2021 9:15:00 PM 5.54 41.972 0.113 7.4 0.39 11.89
12/29/2021 9:30:00 PM 5.36 41.648 0.113 7.51 0.39 12.23
12/29/2021 9:45:00 PM 5.4 41.72 0.113 7.4 0.43 12.11
12/29/2021 10:00:00 PM 5.36 41.648 0.113 7.41 0.41 12.04
12/29/2021 10:15:00 PM 5.38 41.684 0.113 7.44 0.41 12.09
12/29/2021 10:30:00 PM 5.4 41.72 0.113 7.39 0.4 11.95
12/29/2021 10:45:00 PM 5.34 41.612 0.113 7.48 0.41 12.11
12/29/2021 11:00:00 PM 5.34 41.612 0.113 7.47 0.49 12.19
12/29/2021 11:15:00 PM 5.35 41.63 0.114 7.49 0.49 12.12
12/29/2021 11:30:00 PM 5.37 41.666 0.113 7.42 0.38 12.15
12/29/2021 11:45:00 PM 5.3 41.54 0.113 7.45 0.39 12.14
12/30/2021 12:00:00 AM 5.34 41.612 0.113 7.45 0.41 12.04
12/30/2021 12:15:00 AM 5.3 41.54 0.113 7.44 0.4 12.08
12/30/2021 12:30:00 AM 5.34 41.612 0.113 7.45 0.41 12.13
12/30/2021 12:45:00 AM 5.34 41.612 0.113 7.45 0.39 12.11
12/30/2021 1:00:00 AM 5.29 41.522 0.113 7.43 0.4 11.98
12/30/2021 1:15:00 AM 5.34 41.612 0.113 7.43 0.4 12.1
12/30/2021 1:30:00 AM 5.28 41.504 0.113 7.48 0.4 12.12
12/30/2021 1:45:00 AM 5.26 41.468 0.113 7.5 0.38 12.18
12/30/2021 2:00:00 AM 5.27 41.486 0.113 7.49 0.37 12.14
12/30/2021 2:15:00 AM 5.24 41.432 0.113 7.47 0.4 12.2
12/30/2021 2:30:00 AM 5.27 41.486 0.113 7.47 0.42 12.15
12/30/2021 2:45:00 AM 5.35 41.63 0.113 7.44 0.41 12.15
12/30/2021 3:00:00 AM 5.27 41.486 0.113 7.43 0.36 12.11
12/30/2021 3:15:00 AM 5.31 41.558 0.113 7.4 0.39 12.06
12/30/2021 3:30:00 AM 5.25 41.45 0.113 7.46 0.39 12.14
12/30/2021 3:45:00 AM 5.2 41.36 0.113 7.5 0.4 12.19
12/30/2021 4:00:00 AM 5.26 41.468 0.113 7.43 0.37 12.08
12/30/2021 4:15:00 AM 5.19 41.342 0.113 7.5 0.35 12.21
12/30/2021 4:30:00 AM 5.24 41.432 0.113 7.44 0.42 12.12
12/30/2021 4:45:00 AM 5.33 41.594 0.113 7.43 0.39 11.95
12/30/2021 5:00:00 AM 5.17 41.306 0.112 7.5 0.37 12.23
12/30/2021 5:15:00 AM 5.22 41.396 0.113 7.49 0.38 12.14
12/30/2021 5:30:00 AM 5.21 41.378 0.113 7.47 0.47 12.18
12/30/2021 5:45:00 AM 5.29 41.522 0.113 7.4 0.52 11.89
12/30/2021 6:00:00 AM 5.2 41.36 0.113 7.51 0.52 12.21
12/30/2021 6:15:00 AM 5.21 41.378 0.112 7.52 0.55 12.22
12/30/2021 6:30:00 AM 5.19 41.342 0.112 7.47 0.51 12.17
12/30/2021 6:45:00 AM 5.21 41.378 0.113 7.51 0.45 12.31
12/30/2021 7:00:00 AM 5.24 41.432 0.112 7.5 0.56 12.17
12/30/2021 7:15:00 AM 5.27 41.486 0.112 7.4 0.46 11.84
12/30/2021 7:30:00 AM 5.23 41.414 0.112 7.46 0.4 12.12
12/30/2021 7:45:00 AM 5.23 41.414 0.112 7.44 0.44 12.15
12/30/2021 8:00:00 AM 5.23 41.414 0.112 7.37 0.53 12.15
12/30/2021 8:15:00 AM 5.23 41.414 0.112 7.51 0.46 12.24
12/30/2021 8:30:00 AM 5.25 41.45 0.112 7.48 0.43 12.22
12/30/2021 8:45:00 AM 5.22 41.396 0.111 7.49 0.4 12.26
12/30/2021 9:00:00 AM 5.26 41.468 0.111 7.51 0.41 12.31
12/30/2021 9:15:00 AM 5.27 41.486 0.112 7.52 0.37 12.39
12/30/2021 9:30:00 AM 5.26 41.468 0.112 7.5 0.48 12.36
12/30/2021 9:45:00 AM 5.24 41.432 0.112 7.53 0.47 12.47
12/30/2021 10:00:00 AM 5.31 41.558 0.112 7.57 0.47 12.5
12/30/2021 10:15:00 AM 5.34 41.612 0.112 7.54 0.44 12.51
12/30/2021 10:30:00 AM 5.38 41.684 0.112 7.59 0.51 12.63
12/30/2021 10:45:00 AM 5.38 41.684 0.111 7.56 0.42 12.7
12/30/2021 11:00:00 AM 5.53 41.954 0.111 7.48 0.45 12.57
12/30/2021 11:15:00 AM 5.58 42.044 0.111 7.5 0.45 12.58
12/30/2021 11:30:00 AM 5.55 41.99 0.111 7.62 0.46 12.72
12/30/2021 11:45:00 AM 5.59 42.062 0.111 7.6 0.49 12.75
12/30/2021 12:00:00 PM 5.6 42.08 0.11 7.64 0.53 12.78
12/30/2021 12:15:00 PM 5.58 42.044 0.11 7.68 0.5 12.75
12/30/2021 12:30:00 PM 5.76 42.368 0.11 7.58 0.52 12.42
12/30/2021 12:45:00 PM 5.73 42.314 0.11 7.59 0.54 12.53
12/30/2021 1:00:00 PM 5.86 42.548 0.11 7.55 0.84 12.48
12/30/2021 1:15:00 PM 5.8 42.44 0.11 7.64 0.46 12.69
12/30/2021 1:30:00 PM 5.83 42.494 0.11 7.7 0.48 12.8
12/30/2021 1:45:00 PM 5.9 42.62 0.11 7.61 0.48 12.75
12/30/2021 2:00:00 PM 6.03 42.854 0.11 7.56 0.44 12.31
12/30/2021 2:15:00 PM 5.94 42.692 0.11 7.71 0.45 12.66
12/30/2021 2:30:00 PM 6.04 42.872 0.11 7.67 0.48 12.57
12/30/2021 2:45:00 PM 5.98 42.764 0.11 7.64 0.54 12.51
12/30/2021 3:00:00 PM 6 42.8 0.11 7.67 0.55 12.5
12/30/2021 3:15:00 PM 6.05 42.89 0.111 7.61 0.46 12.35
12/30/2021 3:30:00 PM 6.11 42.998 0.111 7.55 0.51 12.14
12/30/2021 3:45:00 PM 6.06 42.908 0.111 7.6 0.53 12.22
12/30/2021 4:00:00 PM 6.06 42.908 0.111 7.56 0.51 12.15
12/30/2021 4:15:00 PM 6.08 42.944 0.112 7.54 0.49 12.1
12/30/2021 4:30:00 PM 6.07 42.926 0.112 7.49 0.48 11.97
12/30/2021 4:45:00 PM 6.02 42.836 0.112 7.55 0.47 12.02
12/30/2021 5:00:00 PM 6.03 42.854 0.112 7.52 0.52 11.97
12/30/2021 5:15:00 PM 5.98 42.764 0.112 7.52 0.49 11.99
12/30/2021 5:30:00 PM 6.03 42.854 0.112 7.45 0.45 11.88
12/30/2021 5:45:00 PM 5.97 42.746 0.112 7.51 0.45 11.92
12/30/2021 6:00:00 PM 5.96 42.728 0.113 7.5 0.41 11.92
12/30/2021 6:15:00 PM 6 42.8 0.113 7.42 0.53 11.86
12/30/2021 6:30:00 PM 5.97 42.746 0.113 7.41 0.45 11.85
12/30/2021 6:45:00 PM 5.89 42.602 0.113 7.5 0.46 11.97
12/30/2021 7:00:00 PM 5.89 42.602 0.113 7.47 0.43 11.91
12/30/2021 7:15:00 PM 5.87 42.566 0.113 7.45 0.49 11.83
12/30/2021 7:30:00 PM 5.83 42.494 0.113 7.43 0.48 11.98
12/30/2021 7:45:00 PM 5.78 42.404 0.113 7.52 0.47 11.99
12/30/2021 8:00:00 PM 5.78 42.404 0.113 7.5 0.41 11.98
12/30/2021 8:15:00 PM 5.94 42.692 0.113 7.4 0.45 11.71
12/30/2021 8:30:00 PM 5.77 42.386 0.113 7.43 0.46 11.96
12/30/2021 8:45:00 PM 5.7 42.26 0.113 7.5 0.4 12.01
12/30/2021 9:00:00 PM 5.71 42.278 0.113 7.46 0.45 11.94
12/30/2021 9:15:00 PM 5.71 42.278 0.113 7.45 0.43 11.95
12/30/2021 9:30:00 PM 5.73 42.314 0.113 7.44 0.41 11.97
12/30/2021 9:45:00 PM 5.64 42.152 0.113 7.48 0.39 12.02
12/30/2021 10:00:00 PM 5.64 42.152 0.113 7.43 0.5 11.98
12/30/2021 10:15:00 PM 5.74 42.332 0.112 7.42 0.47 11.98
12/30/2021 10:30:00 PM 5.66 42.188 0.113 7.44 0.46 11.96
12/30/2021 10:45:00 PM 5.64 42.152 0.113 7.42 0.45 11.95
12/30/2021 11:00:00 PM 5.6 42.08 0.113 7.48 0.43 12.03
12/30/2021 11:15:00 PM 5.6 42.08 0.113 7.43 0.45 12.02
12/30/2021 11:30:00 PM 5.57 42.026 0.113 7.47 0.43 12.07
12/30/2021 11:45:00 PM 5.55 41.99 0.113 7.49 0.45 12.05
12/31/2021 12:00:00 AM 5.52 41.936 0.113 7.48 0.46 12.06
12/31/2021 12:15:00 AM 5.52 41.936 0.112 7.45 0.41 11.95
12/31/2021 12:30:00 AM 5.54 41.972 0.113 7.46 0.43 12.04
12/31/2021 12:45:00 AM 5.54 41.972 0.113 7.43 0.39 11.94
12/31/2021 1:00:00 AM 5.54 41.972 0.113 7.4 0.42 11.98
12/31/2021 1:15:00 AM 5.5 41.9 0.112 7.45 0.43 12.03
12/31/2021 1:30:00 AM 5.48 41.864 0.113 7.45 0.49 12.09
12/31/2021 1:45:00 AM 5.48 41.864 0.113 7.5 0.52 12.09
12/31/2021 2:00:00 AM 5.45 41.81 0.113 7.47 0.54 12.06
12/31/2021 2:15:00 AM 5.47 41.846 0.113 7.44 0.58 12.08
12/31/2021 2:30:00 AM 5.44 41.792 0.113 7.46 0.45 12.07
12/31/2021 2:45:00 AM 5.44 41.792 0.113 7.47 0.46 12.11
12/31/2021 3:00:00 AM 5.45 41.81 0.113 7.47 0.36 12.09
12/31/2021 3:15:00 AM 5.45 41.81 0.113 7.46 0.41 12.07
12/31/2021 3:30:00 AM 5.45 41.81 0.113 7.44 0.4 12.02
12/31/2021 3:45:00 AM 5.42 41.756 0.112 7.47 0.42 12.1
12/31/2021 4:00:00 AM 5.41 41.738 0.112 7.48 0.49 12.1
12/31/2021 4:15:00 AM 5.36 41.648 0.112 7.48 0.46 12.16
12/31/2021 4:30:00 AM 5.5 41.9 0.113 7.38 0.42 11.95
12/31/2021 4:45:00 AM 5.47 41.846 0.113 7.38 0.43 11.99
12/31/2021 5:00:00 AM 5.42 41.756 0.113 7.45 0.4 12.07
12/31/2021 5:15:00 AM 5.46 41.828 0.113 7.41 0.41 11.99
12/31/2021 5:30:00 AM 5.42 41.756 0.113 7.38 0.44 12.07
12/31/2021 5:45:00 AM 5.41 41.738 0.113 7.43 0.42 12.08
12/31/2021 6:00:00 AM 5.37 41.666 0.113 7.47 0.43 12.1
12/31/2021 6:15:00 AM 5.41 41.738 0.113 7.43 0.43 12.03
12/31/2021 6:30:00 AM 5.44 41.792 0.113 7.41 0.37 12.02
12/31/2021 6:45:00 AM 5.4 41.72 0.113 7.44 0.35 12.06
12/31/2021 7:00:00 AM 5.4 41.72 0.112 7.4 0.62 12.05
12/31/2021 7:15:00 AM 5.33 41.594 0.112 7.45 0.55 12.09
12/31/2021 7:30:00 AM 5.39 41.702 0.112 7.42 0.48 12.03
12/31/2021 7:45:00 AM 5.53 41.954 0.113 7.35 0.47 11.89
12/31/2021 8:00:00 AM 5.35 41.63 0.112 7.46 0.48 12.17
12/31/2021 8:15:00 AM 5.37 41.666 0.112 7.42 0.52 12.04
12/31/2021 8:30:00 AM 5.36 41.648 0.112 7.49 0.47 12.31
12/31/2021 8:45:00 AM 5.33 41.594 0.112 7.51 0.45 12.3
12/31/2021 9:00:00 AM 5.45 41.81 0.112 7.5 0.49 12.48
12/31/2021 9:15:00 AM 5.49 41.882 0.112 7.36 0.46 12.54
12/31/2021 9:30:00 AM 5.52 41.936 0.112 7.53 0.48 12.56
12/31/2021 9:45:00 AM 5.52 41.936 0.111 7.58 0.51 12.73
12/31/2021 10:00:00 AM 5.53 41.954 0.111 7.64 0.43 12.8
12/31/2021 10:15:00 AM 5.6 42.08 0.111 7.61 0.43 12.8
12/31/2021 10:30:00 AM 5.63 42.134 0.111 7.64 0.51 12.76
12/31/2021 10:45:00 AM 5.73 42.314 0.111 7.58 0.51 12.78
12/31/2021 11:00:00 AM 5.94 42.692 0.111 7.44 0.56 12.68
12/31/2021 11:15:00 AM 5.95 42.71 0.11 7.63 0.65 12.87
12/31/2021 11:30:00 AM 6.01 42.818 0.11 7.64 0.49 12.86
12/31/2021 11:45:00 AM 6.1 42.98 0.11 7.62 0.44 12.74
12/31/2021 12:00:00 PM 6.14 43.052 0.11 7.67 0.49 12.78
12/31/2021 12:15:00 PM 6.23 43.214 0.11 7.62 0.49 12.48
12/31/2021 12:30:00 PM 6.44 43.592 0.11 7.54 0.48 12.56
12/31/2021 12:45:00 PM 6.35 43.43 0.11 7.74 0.5 12.76
12/31/2021 1:00:00 PM 6.52 43.736 0.109 7.61 0.78 12.63
12/31/2021 1:15:00 PM 6.59 43.862 0.109 7.8 0.45 12.73
12/31/2021 1:30:00 PM 6.67 44.006 0.109 7.81 0.51 12.69
12/31/2021 1:45:00 PM 6.75 44.15 0.109 7.83 0.52 12.67
12/31/2021 2:00:00 PM 6.86 44.348 0.109 7.61 0.52 12.52
12/31/2021 2:15:00 PM 6.89 44.402 0.109 7.75 0.49 12.53
12/31/2021 2:30:00 PM 6.93 44.474 0.109 7.75 0.55 12.51
12/31/2021 2:45:00 PM 6.99 44.582 0.109 7.64 0.51 12.39
12/31/2021 3:00:00 PM 6.99 44.582 0.109 7.77 0.46 12.41
12/31/2021 3:15:00 PM 6.99 44.582 0.109 7.67 0.56 12.33
12/31/2021 3:30:00 PM 6.99 44.582 0.11 7.72 0.51 12.28
12/31/2021 3:45:00 PM 6.99 44.582 0.11 7.69 0.48 12.11
12/31/2021 4:00:00 PM 6.95 44.51 0.11 7.63 0.53 12.05
12/31/2021 4:15:00 PM 6.91 44.438 0.11 7.65 0.64 12.01
12/31/2021 4:30:00 PM 6.92 44.456 0.11 7.51 0.51 11.79
12/31/2021 4:45:00 PM 6.85 44.33 0.11 7.55 0.62 11.77
12/31/2021 5:00:00 PM 6.91 44.438 0.111 7.49 0.83 11.3
12/31/2021 5:15:00 PM 6.8 44.24 0.111 7.49 0.53 11.69
12/31/2021 5:30:00 PM 6.73 44.114 0.111 7.5 0.74 11.73
12/31/2021 5:45:00 PM 6.71 44.078 0.112 7.52 0.54 11.75
12/31/2021 6:00:00 PM 6.67 44.006 0.111 7.46 0.54 11.69
12/31/2021 6:15:00 PM 6.61 43.898 0.112 7.49 0.43 11.69
12/31/2021 6:30:00 PM 6.68 44.024 0.112 7.41 0.54 11.5
12/31/2021 6:45:00 PM 6.53 43.754 0.112 7.5 0.51 11.7
12/31/2021 7:00:00 PM 6.49 43.682 0.112 7.47 0.56 11.76
12/31/2021 7:15:00 PM 6.48 43.664 0.113 7.43 0.6 11.6
12/31/2021 7:30:00 PM 6.44 43.592 0.113 7.47 0.59 11.73
12/31/2021 7:45:00 PM 6.4 43.52 0.113 7.48 0.59 11.73
12/31/2021 8:00:00 PM 6.37 43.466 0.113 7.49 0.54 11.74
12/31/2021 8:15:00 PM 6.42 43.556 0.113 7.33 0.51 11.53
12/31/2021 8:30:00 PM 6.33 43.394 0.113 7.47 0.54 11.82
12/31/2021 8:45:00 PM 6.33 43.394 0.113 7.51 0.55 11.85
12/31/2021 9:00:00 PM 6.33 43.394 0.113 7.45 0.48 11.75
12/31/2021 9:15:00 PM 6.38 43.484 0.114 7.45 0.49 11.7
12/31/2021 9:30:00 PM 6.35 43.43 0.113 7.39 0.49 11.66
12/31/2021 9:45:00 PM 6.33 43.394 0.113 7.49 0.48 11.82
12/31/2021 10:00:00 PM 6.36 43.448 0.113 7.43 0.45 11.63
12/31/2021 10:15:00 PM 6.33 43.394 0.113 7.5 0.47 11.82
12/31/2021 10:30:00 PM 6.4 43.52 0.114 7.3 0.43 11.71
12/31/2021 10:45:00 PM 6.33 43.394 0.113 7.51 0.48 11.83
12/31/2021 11:00:00 PM 6.34 43.412 0.113 7.48 0.49 11.79
12/31/2021 11:15:00 PM 6.41 43.538 0.113 7.38 0.46 11.64
12/31/2021 11:30:00 PM 6.42 43.556 0.113 7.34 0.42 11.69
12/31/2021 11:45:00 PM 6.46 43.628 0.114 7.43 0.44 11.71
1/1/2022 12:00:00 AM 6.4 43.52 0.113 7.42 0.42 11.66
1/1/2022 12:15:00 AM 6.4 43.52 0.113 7.43 0.44 11.62
1/1/2022 12:30:00 AM 6.5 43.7 0.113 7.39 0.45 11.66
1/1/2022 12:45:00 AM 6.39 43.502 0.113 7.45 0.42 11.75
1/1/2022 1:00:00 AM 6.36 43.448 0.113 7.52 0.36 11.82
1/1/2022 1:15:00 AM 6.43 43.574 0.113 7.45 0.44 11.71
1/1/2022 1:30:00 AM 6.37 43.466 0.113 7.5 0.37 11.74
1/1/2022 1:45:00 AM 6.47 43.646 0.114 7.36 0.42 11.59
1/1/2022 2:00:00 AM 6.54 43.772 0.114 7.4 0.39 11.67
1/1/2022 2:15:00 AM 6.49 43.682 0.113 7.42 0.39 11.49
1/1/2022 2:30:00 AM 6.41 43.538 0.113 7.5 0.4 11.77
1/1/2022 2:45:00 AM 6.44 43.592 0.113 7.47 0.42 11.7
1/1/2022 3:00:00 AM 6.46 43.628 0.113 7.45 0.44 11.64
1/1/2022 3:15:00 AM 6.51 43.718 0.113 7.45 0.42 11.59
1/1/2022 3:30:00 AM 6.52 43.736 0.113 7.38 0.48 11.48
1/1/2022 3:45:00 AM 6.44 43.592 0.113 7.51 0.44 11.72
1/1/2022 4:00:00 AM 6.44 43.592 0.113 7.47 0.41 11.73
1/1/2022 4:15:00 AM 6.53 43.754 0.113 7.37 0.4 11.57
1/1/2022 4:30:00 AM 6.5 43.7 0.113 7.44 0.41 11.66
1/1/2022 4:45:00 AM 6.47 43.646 0.113 7.45 0.42 11.67
1/1/2022 5:00:00 AM 6.55 43.79 0.114 7.43 0.44 11.53
1/1/2022 5:15:00 AM 6.53 43.754 0.113 7.42 0.43 11.57
1/1/2022 5:30:00 AM 6.46 43.628 0.113 7.46 0.45 11.71
1/1/2022 5:45:00 AM 6.47 43.646 0.113 7.48 0.37 11.74
1/1/2022 6:00:00 AM 6.44 43.592 0.113 7.5 0.42 11.73
1/1/2022 6:15:00 AM 6.53 43.754 0.113 7.37 0.36 11.34
1/1/2022 6:30:00 AM 6.49 43.682 0.113 7.44 0.49 11.68
1/1/2022 6:45:00 AM 6.49 43.682 0.113 7.44 0.72 11.66
1/1/2022 7:00:00 AM 6.52 43.736 0.113 7.38 0.5 11.35
1/1/2022 7:15:00 AM 6.49 43.682 0.113 7.44 0.39 11.59
1/1/2022 7:30:00 AM 6.48 43.664 0.113 7.45 0.43 11.63
1/1/2022 7:45:00 AM 6.41 43.538 0.113 7.47 0.37 11.75
1/1/2022 8:00:00 AM 6.47 43.646 0.113 7.47 0.37 11.72
1/1/2022 8:15:00 AM 6.45 43.61 0.113 7.47 0.42 11.81
1/1/2022 8:30:00 AM 6.49 43.682 0.113 7.45 0.34 11.73
1/1/2022 8:45:00 AM 6.49 43.682 0.113 7.48 0.38 11.86
1/1/2022 9:00:00 AM 6.5 43.7 0.113 7.5 0.4 11.9
1/1/2022 9:15:00 AM 6.56 43.808 0.112 7.48 0.37 11.91
1/1/2022 9:30:00 AM 6.57 43.826 0.112 7.53 0.4 11.97
1/1/2022 9:45:00 AM 6.58 43.844 0.112 7.49 0.36 12
1/1/2022 10:00:00 AM 6.68 44.024 0.112 7.52 0.46 11.79
1/1/2022 10:15:00 AM 6.64 43.952 0.112 7.57 0.36 12.16
1/1/2022 10:30:00 AM 6.98 44.564 0.113 7.43 0.45 12.19
1/1/2022 10:45:00 AM 6.79 44.222 0.112 7.59 0.35 12.24
1/1/2022 11:00:00 AM 6.84 44.312 0.112 7.34 0.37 12.15
1/1/2022 11:15:00 AM 6.86 44.348 0.112 7.55 0.48 11.97
1/1/2022 11:30:00 AM 6.91 44.438 0.111 7.46 0.4 12.2
1/1/2022 11:45:00 AM 6.92 44.456 0.111 7.68 0.47 12.25
1/1/2022 12:00:00 PM 7.1 44.78 0.112 7.43 0.45 12.1
1/1/2022 12:15:00 PM 7.19 44.942 0.112 7.44 0.49 11.7
1/1/2022 12:30:00 PM 7.06 44.708 0.111 7.65 0.43 12.24
1/1/2022 12:45:00 PM 7.17 44.906 0.111 7.34 0.37 12.17
1/1/2022 1:00:00 PM 7.23 45.014 0.111 7.52 0.4 12.04
1/1/2022 1:15:00 PM 7.2 44.96 0.111 7.7 0.43 12.24
1/1/2022 1:30:00 PM 7.28 45.104 0.111 7.63 0.43 12.09
1/1/2022 1:45:00 PM 7.34 45.212 0.111 7.53 0.7 11.97
1/1/2022 2:00:00 PM 7.42 45.356 0.111 7.61 0.37 12.1
1/1/2022 2:15:00 PM 7.4 45.32 0.11 7.67 0.48 12.12
1/1/2022 2:30:00 PM 7.41 45.338 0.11 7.71 0.41 12.1
1/1/2022 2:45:00 PM 7.44 45.392 0.11 7.51 0.42 12.05
1/1/2022 3:00:00 PM 7.44 45.392 0.111 7.67 0.42 12
1/1/2022 3:15:00 PM 7.43 45.374 0.111 7.63 0.39 11.85
1/1/2022 3:30:00 PM 7.45 45.41 0.111 7.57 0.36 11.74
1/1/2022 3:45:00 PM 7.43 45.374 0.111 7.53 0.37 11.68
1/1/2022 4:00:00 PM 7.43 45.374 0.111 7.63 0.43 11.71
1/1/2022 4:15:00 PM 7.44 45.392 0.112 7.57 0.4 11.5
1/1/2022 4:30:00 PM 7.53 45.554 0.113 7.51 0.41 11.48
1/1/2022 4:45:00 PM 7.38 45.284 0.112 7.57 0.49 11.56
1/1/2022 5:00:00 PM 7.37 45.266 0.112 7.55 0.43 11.5
1/1/2022 5:15:00 PM 7.36 45.248 0.112 7.46 0.5 11.43
1/1/2022 5:30:00 PM 7.31 45.158 0.113 7.55 0.46 11.46
1/1/2022 5:45:00 PM 7.31 45.158 0.113 7.49 0.5 11.41
1/1/2022 6:00:00 PM 7.31 45.158 0.113 7.39 0.44 11.23
1/1/2022 6:15:00 PM 7.24 45.032 0.113 7.52 0.44 11.46
1/1/2022 6:30:00 PM 7.24 45.032 0.113 7.4 0.41 11.38
1/1/2022 6:45:00 PM 7.19 44.942 0.113 7.52 0.41 11.51
1/1/2022 7:00:00 PM 7.25 45.05 0.114 7.42 0.41 11.36
1/1/2022 7:15:00 PM 7.18 44.924 0.114 7.45 0.46 11.39
1/1/2022 7:30:00 PM 7.12 44.816 0.113 7.52 0.36 11.55
1/1/2022 7:45:00 PM 7.08 44.744 0.113 7.52 0.49 11.52
1/1/2022 8:00:00 PM 7.12 44.816 0.113 7.46 0.39 11.47
1/1/2022 8:15:00 PM 7.06 44.708 0.113 7.48 0.46 11.51
1/1/2022 8:30:00 PM 7.1 44.78 0.113 7.46 0.49 11.46
1/1/2022 8:45:00 PM 7.06 44.708 0.113 7.47 0.44 11.47
1/1/2022 9:00:00 PM 7.09 44.762 0.113 7.46 0.48 11.47
1/1/2022 9:15:00 PM 7.06 44.708 0.113 7.42 0.52 11.41
1/1/2022 9:30:00 PM 7.08 44.744 0.113 7.39 0.54 11.33
1/1/2022 9:45:00 PM 7.11 44.798 0.114 7.34 0.51 11.38
1/1/2022 10:00:00 PM 7.04 44.672 0.114 7.43 0.57 11.46
1/1/2022 10:15:00 PM 7.05 44.69 0.114 7.45 0.63 11.46
1/1/2022 10:30:00 PM 7.11 44.798 0.114 7.42 0.52 11.33
1/1/2022 10:45:00 PM 7.05 44.69 0.113 7.46 0.49 11.44
1/1/2022 11:00:00 PM 7.08 44.744 0.113 7.45 0.5 11.43
1/1/2022 11:15:00 PM 7.08 44.744 0.113 7.42 0.5 11.27
1/1/2022 11:30:00 PM 7.11 44.798 0.113 7.36 0.56 11.19
1/1/2022 11:45:00 PM 7.03 44.654 0.113 7.48 0.53 11.46
1/2/2022 12:00:00 AM 7.06 44.708 0.113 7.47 0.56 11.45
1/2/2022 12:15:00 AM 7.08 44.744 0.113 7.42 0.59 11.38
1/2/2022 12:30:00 AM 7.1 44.78 0.114 7.46 0.56 11.36
1/2/2022 12:45:00 AM 7.05 44.69 0.113 7.46 0.62 11.51
1/2/2022 1:00:00 AM 7.09 44.762 0.113 7.46 0.81 11.45
1/2/2022 1:15:00 AM 7.1 44.78 0.113 7.43 0.78 11.42
1/2/2022 1:30:00 AM 7.08 44.744 0.113 7.34 0.81 11.26
1/2/2022 1:45:00 AM 7.08 44.744 0.113 7.33 0.76 11.14
1/2/2022 2:00:00 AM 6.96 44.528 0.113 7.46 0.66 11.5
1/2/2022 2:15:00 AM 6.95 44.51 0.113 7.46 0.75 11.39
1/2/2022 2:30:00 AM 6.92 44.456 0.113 7.47 0.67 11.39
1/2/2022 2:45:00 AM 6.87 44.366 0.113 7.42 0.75 11.47
1/2/2022 3:00:00 AM 6.79 44.222 0.114 7.44 0.91 11.56
1/2/2022 3:15:00 AM 6.78 44.204 0.114 7.47 0.85 11.47
1/2/2022 3:30:00 AM 6.74 44.132 0.115 7.45 0.98 11.54
1/2/2022 3:45:00 AM 6.7 44.06 0.115 7.49 1.18 11.56
1/2/2022 4:00:00 AM 6.81 44.258 0.115 7.42 1.5 11.37
1/2/2022 4:15:00 AM 6.73 44.114 0.115 7.44 1.29 11.51
1/2/2022 4:30:00 AM 6.59 43.862 0.114 7.44 1.5 11.62
1/2/2022 4:45:00 AM 6.67 44.006 0.114 7.42 1.59 11.32
1/2/2022 5:00:00 AM 6.58 43.844 0.114 7.42 1.7 11.53
1/2/2022 5:15:00 AM 6.6 43.88 0.114 7.33 1.34 11.38
1/2/2022 5:30:00 AM 6.53 43.754 0.114 7.45 1.37 11.59
1/2/2022 5:45:00 AM 6.49 43.682 0.113 7.45 1.2 11.56
1/2/2022 6:00:00 AM 6.52 43.736 0.113 7.45 1.22 11.45
1/2/2022 6:15:00 AM 6.42 43.556 0.113 7.43 1.28 11.64
1/2/2022 6:30:00 AM 6.37 43.466 0.113 7.46 1.07 11.63
1/2/2022 6:45:00 AM 6.34 43.412 0.113 7.47 1.07 11.68
1/2/2022 7:00:00 AM 6.25 43.25 0.112 7.47 1.11 11.7
1/2/2022 7:15:00 AM 6.26 43.268 0.113 7.45 1.07 11.68
1/2/2022 7:30:00 AM 6.21 43.178 0.112 7.46 1.12 11.71
1/2/2022 7:45:00 AM 6.19 43.142 0.113 7.42 1.06 11.69
1/2/2022 8:00:00 AM 6.16 43.088 0.112 7.39 0.98 11.73
1/2/2022 8:15:00 AM 6.26 43.268 0.113 7.39 1.06 11.41
1/2/2022 8:30:00 AM 6.13 43.034 0.112 7.41 1.2 11.6
1/2/2022 8:45:00 AM 6.05 42.89 0.112 7.44 1.07 11.76
1/2/2022 9:00:00 AM 6.05 42.89 0.113 7.49 1.06 11.88
1/2/2022 9:15:00 AM 5.99 42.782 0.112 7.47 1.09 11.99
1/2/2022 9:30:00 AM 5.99 42.782 0.112 7.52 1.04 12.02
1/2/2022 9:45:00 AM 5.92 42.656 0.112 7.53 1.14 12.13
1/2/2022 10:00:00 AM 6.01 42.818 0.112 7.41 1.13 12.1
1/2/2022 10:15:00 AM 5.94 42.692 0.111 7.61 1.21 12.26
1/2/2022 10:30:00 AM 6.1 42.98 0.111 7.58 1.23 12.33
1/2/2022 10:45:00 AM 6.02 42.836 0.112 7.52 1.05 12.35
1/2/2022 11:00:00 AM 5.88 42.584 0.111 7.62 1.22 12.44
1/2/2022 11:15:00 AM 5.87 42.566 0.111 7.61 1.13 12.45
1/2/2022 11:30:00 AM 5.97 42.746 0.111 7.58 1.08 12.17
1/2/2022 11:45:00 AM 5.78 42.404 0.11 7.5 1.13 12.34
1/2/2022 12:00:00 PM 5.83 42.494 0.11 7.55 1.15 12.4
1/2/2022 12:15:00 PM 5.77 42.386 0.11 7.63 1.38 12.51
1/2/2022 12:30:00 PM 5.81 42.458 0.11 7.57 1.22 12.38
1/2/2022 12:45:00 PM 5.72 42.296 0.11 7.57 1.22 12.41
1/2/2022 1:00:00 PM 5.76 42.368 0.111 7.42 1.13 12.2
1/2/2022 1:15:00 PM 5.66 42.188 0.11 7.62 1.53 12.43
1/2/2022 1:30:00 PM 5.74 42.332 0.111 7.48 1.24 12.32
1/2/2022 1:45:00 PM 5.61 42.098 0.11 7.59 1.18 12.41
1/2/2022 2:00:00 PM 5.64 42.152 0.111 7.54 1.16 12.36
1/2/2022 2:15:00 PM 5.54 41.972 0.11 7.55 1.18 12.39
1/2/2022 2:30:00 PM 5.49 41.882 0.11 7.62 1.15 12.47
1/2/2022 2:45:00 PM 5.45 41.81 0.11 7.62 1.28 12.48
1/2/2022 3:00:00 PM 5.42 41.756 0.11 7.55 1.18 12.41
1/2/2022 3:15:00 PM 5.54 41.972 0.11 7.48 1 12
1/2/2022 3:30:00 PM 5.32 41.576 0.111 7.58 1.17 12.39
1/2/2022 3:45:00 PM 5.34 41.612 0.11 7.52 1.04 12.25
1/2/2022 4:00:00 PM 5.28 41.504 0.11 7.51 1.06 12.18
1/2/2022 4:15:00 PM 5.23 41.414 0.111 7.47 1.03 12.28
1/2/2022 4:30:00 PM 5.1 41.18 0.111 7.53 1.09 12.33
1/2/2022 4:45:00 PM 5.07 41.126 0.111 7.38 1.02 12.22
1/2/2022 5:00:00 PM 5.01 41.018 0.111 7.49 1.06 12.04
1/2/2022 5:15:00 PM 4.89 40.802 0.111 7.51 1.13 12.31
1/2/2022 5:30:00 PM 4.87 40.766 0.111 7.43 1 12.36
1/2/2022 5:45:00 PM 4.76 40.568 0.111 7.54 1.51 12.44
1/2/2022 6:00:00 PM 4.8 40.64 0.111 7.34 1.11 12.31
1/2/2022 6:15:00 PM 4.79 40.622 0.112 7.45 0.98 12.11
1/2/2022 6:30:00 PM 4.68 40.424 0.111 7.44 1.1 12.3
1/2/2022 6:45:00 PM 4.58 40.244 0.111 7.51 1.06 12.44
1/2/2022 7:00:00 PM 4.6 40.28 0.111 7.47 1.06 12.39
1/2/2022 7:15:00 PM 4.61 40.298 0.111 7.46 1.09 12.34
1/2/2022 7:30:00 PM 4.44 39.992 0.111 7.52 1.05 12.55
1/2/2022 7:45:00 PM 4.43 39.974 0.111 7.48 0.97 12.45
1/2/2022 8:00:00 PM 4.5 40.1 0.111 7.47 0.96 12.43
1/2/2022 8:15:00 PM 4.38 39.884 0.111 7.46 0.93 12.52
1/2/2022 8:30:00 PM 4.39 39.902 0.112 7.49 1.01 12.51
1/2/2022 8:45:00 PM 4.29 39.722 0.111 7.47 1.05 12.54
1/2/2022 9:00:00 PM 4.37 39.866 0.111 7.4 0.94 12.36
1/2/2022 9:15:00 PM 4.34 39.812 0.112 7.45 0.95 12.53
1/2/2022 9:30:00 PM 4.23 39.614 0.111 7.49 0.9 12.59
1/2/2022 9:45:00 PM 4.27 39.686 0.111 7.36 0.92 12.34
1/2/2022 10:00:00 PM 4.16 39.488 0.111 7.47 1.03 12.59
1/2/2022 10:15:00 PM 4.15 39.47 0.111 7.43 0.91 12.57
1/2/2022 10:30:00 PM 4.15 39.47 0.112 7.47 0.87 12.47
1/2/2022 10:45:00 PM 4.12 39.416 0.112 7.45 0.9 12.63
1/2/2022 11:00:00 PM 4.18 39.524 0.112 7.46 0.88 12.59
1/2/2022 11:15:00 PM 4.03 39.254 0.112 7.47 0.96 12.7
1/2/2022 11:30:00 PM 4.03 39.254 0.112 7.47 0.81 12.67
1/2/2022 11:45:00 PM 4.05 39.29 0.112 7.43 0.81 12.47
1/3/2022 12:00:00 AM 3.95 39.11 0.112 7.48 0.85 12.69
1/3/2022 12:15:00 AM 3.95 39.11 0.112 7.44 0.84 12.73
1/3/2022 12:30:00 AM 3.86 38.948 0.112 7.47 0.83 12.7
1/3/2022 12:45:00 AM 3.81 38.858 0.112 7.46 0.81 12.72
1/3/2022 1:00:00 AM 3.89 39.002 0.112 7.42 0.71 12.7
1/3/2022 1:15:00 AM 3.75 38.75 0.113 7.49 0.98 12.99
1/3/2022 1:30:00 AM 3.66 38.588 0.112 7.46 0.82 12.8
1/3/2022 1:45:00 AM 3.72 38.696 0.112 7.42 0.75 12.74
1/3/2022 2:00:00 AM 3.64 38.552 0.112 7.43 0.64 12.74
1/3/2022 2:15:00 AM 3.65 38.57 0.112 7.43 0.68 12.76
1/3/2022 2:30:00 AM 3.65 38.57 0.112 7.42 0.73 12.86
1/3/2022 2:45:00 AM 3.58 38.444 0.112 7.46 0.73 12.74
1/3/2022 3:00:00 AM 3.43 38.174 0.112 7.49 0.71 12.92
1/3/2022 3:15:00 AM 3.38 38.084 0.112 7.45 0.75 12.99
1/3/2022 3:30:00 AM 3.46 38.228 0.112 7.39 0.69 12.82
1/3/2022 3:45:00 AM 3.35 38.03 0.112 7.45 0.65 12.89
1/3/2022 4:00:00 AM 3.26 37.868 0.112 7.42 0.76 12.91
1/3/2022 4:15:00 AM 3.32 37.976 0.112 7.37 0.6 12.98
1/3/2022 4:30:00 AM 3.2 37.76 0.112 7.46 0.71 13
1/3/2022 4:45:00 AM 3.33 37.994 0.112 7.45 0.65 12.84
1/3/2022 5:00:00 AM 3.16 37.688 0.112 7.44 0.69 13
1/3/2022 5:15:00 AM 3.22 37.796 0.112 7.41 0.69 12.85
1/3/2022 5:30:00 AM 3.14 37.652 0.112 7.44 0.67 12.87
1/3/2022 5:45:00 AM 3.17 37.706 0.113 7.45 0.62 12.95
1/3/2022 6:00:00 AM 3.03 37.454 0.112 7.42 0.61 13.02
1/3/2022 6:15:00 AM 3.01 37.418 0.112 7.42 0.66 12.99
1/3/2022 6:30:00 AM 2.98 37.364 0.113 7.46 0.83 13.15
1/3/2022 6:45:00 AM 3.01 37.418 0.112 7.45 0.68 12.95
1/3/2022 7:00:00 AM 2.98 37.364 0.112 7.4 0.63 13
1/3/2022 7:15:00 AM 2.91 37.238 0.112 7.42 0.68 13
1/3/2022 7:30:00 AM 2.98 37.364 0.112 7.4 0.64 12.86
1/3/2022 7:45:00 AM 2.89 37.202 0.112 7.43 0.61 13.06
1/3/2022 8:00:00 AM 2.8 37.04 0.112 7.44 0.65 13.1
1/3/2022 8:15:00 AM 2.8 37.04 0.112 7.38 0.64 13.2
1/3/2022 8:30:00 AM 2.77 36.986 0.112 7.39 0.65 13.08
1/3/2022 8:45:00 AM 2.71 36.878 0.112 7.46 1.44 13.28
1/3/2022 9:00:00 AM 2.64 36.752 0.112 7.45 0.69 13.35
1/3/2022 9:15:00 AM 2.73 36.914 0.112 7.4 0.71 13.39
1/3/2022 9:30:00 AM 2.64 36.752 0.112 7.49 0.67 13.49
1/3/2022 9:45:00 AM 2.66 36.788 0.112 7.48 0.63 13.53
1/3/2022 10:00:00 AM 2.65 36.77 0.112 7.51 0.66 13.49
1/3/2022 10:15:00 AM 2.79 37.022 0.112 7.51 0.64 13.54
1/3/2022 10:30:00 AM 2.59 36.662 0.111 7.53 0.68 13.73
1/3/2022 10:45:00 AM 2.73 36.914 0.112 7.5 0.62 13.62
1/3/2022 11:00:00 AM 2.6 36.68 0.111 7.57 0.64 13.67
1/3/2022 11:15:00 AM 2.72 36.896 0.111 7.55 0.69 13.59
1/3/2022 11:30:00 AM 2.62 36.716 0.111 7.54 0.6 13.81
1/3/2022 11:45:00 AM 2.64 36.752 0.112 7.55 0.62 13.75
1/3/2022 12:00:00 PM 2.58 36.644 0.111 7.6 0.64 13.81
1/3/2022 12:15:00 PM 2.77 36.986 0.111 7.56 0.62 13.85
1/3/2022 12:30:00 PM 2.73 36.914 0.111 7.48 0.59 13.79
1/3/2022 12:45:00 PM 2.63 36.734 0.111 7.69 0.62 13.96
1/3/2022 1:00:00 PM 2.7 36.86 0.11 7.6 0.96 13.92
1/3/2022 1:15:00 PM 2.71 36.878 0.11 7.63 0.61 13.81
1/3/2022 1:30:00 PM 2.69 36.842 0.11 7.62 0.75 13.84
1/3/2022 1:45:00 PM 2.82 37.076 0.11 7.61 0.62 13.73
1/3/2022 2:00:00 PM 2.72 36.896 0.11 7.64 0.7 13.83
1/3/2022 2:15:00 PM 2.79 37.022 0.11 7.55 0.75 13.83
1/3/2022 2:30:00 PM 2.7 36.86 0.11 7.68 0.69 13.93
1/3/2022 2:45:00 PM 2.71 36.878 0.11 7.64 0.79 13.87
1/3/2022 3:00:00 PM 2.6 36.68 0.11 7.66 0.71 13.92
1/3/2022 3:15:00 PM 2.59 36.662 0.11 7.69 0.69 13.83
1/3/2022 3:30:00 PM 2.65 36.77 0.11 7.6 0.67 13.82
1/3/2022 3:45:00 PM 2.59 36.662 0.11 7.66 0.62 13.84
1/3/2022 4:00:00 PM 2.59 36.662 0.11 7.61 0.64 13.7
1/3/2022 4:15:00 PM 2.6 36.68 0.111 7.51 0.71 13.72
1/3/2022 4:30:00 PM 2.65 36.77 0.11 7.52 0.67 13.35
1/3/2022 4:45:00 PM 2.57 36.626 0.111 7.53 0.61 13.18
1/3/2022 5:00:00 PM 2.34 36.212 0.111 7.54 0.65 13.46
1/3/2022 5:15:00 PM 2.23 36.014 0.111 7.55 0.63 13.45
1/3/2022 5:30:00 PM 2.21 35.978 0.112 7.53 0.7 13.46
1/3/2022 5:45:00 PM 2.2 35.96 0.112 7.49 0.69 13.36
1/3/2022 6:00:00 PM 2.02 35.636 0.112 7.53 0.66 13.52
1/3/2022 6:15:00 PM 1.96 35.528 0.112 7.49 0.72 13.46
1/3/2022 6:30:00 PM 1.86 35.348 0.112 7.5 0.6 13.56
1/3/2022 6:45:00 PM 1.76 35.168 0.113 7.53 0.65 13.59
1/3/2022 7:00:00 PM 1.7 35.06 0.113 7.51 0.72 13.64
1/3/2022 7:15:00 PM 1.63 34.934 0.113 7.5 0.67 13.56
1/3/2022 7:30:00 PM 1.59 34.862 0.113 7.43 0.62 13.58
1/3/2022 7:45:00 PM 1.5 34.7 0.113 7.5 0.72 13.72
1/3/2022 8:00:00 PM 1.45 34.61 0.113 7.5 0.67 13.69
1/3/2022 8:15:00 PM 1.55 34.79 0.113 7.43 0.6 13.63
1/3/2022 8:30:00 PM 1.44 34.592 0.113 7.46 0.69 13.65
1/3/2022 8:45:00 PM 1.5 34.7 0.113 7.44 0.7 13.57
1/3/2022 9:00:00 PM 1.35 34.43 0.113 7.45 0.63 13.74
1/3/2022 9:15:00 PM 1.49 34.682 0.114 7.42 0.68 13.67
1/3/2022 9:30:00 PM 1.35 34.43 0.113 7.45 0.67 13.7
1/3/2022 9:45:00 PM 1.45 34.61 0.113 7.4 0.68 13.37
1/3/2022 10:00:00 PM 1.27 34.286 0.113 7.46 0.59 13.78
1/3/2022 10:15:00 PM 1.24 34.232 0.114 7.49 0.62 13.79
1/3/2022 10:30:00 PM 1.3 34.34 0.115 7.43 0.58 13.88
1/3/2022 10:45:00 PM 1.17 34.106 0.114 7.46 0.63 13.88
1/3/2022 11:00:00 PM 1.16 34.088 0.114 7.44 0.61 13.84
1/3/2022 11:15:00 PM 1.21 34.178 0.113 7.44 0.61 13.68
1/3/2022 11:30:00 PM 1.12 34.016 0.114 7.45 0.59 13.91
1/3/2022 11:45:00 PM 1.07 33.926 0.114 7.38 0.61 13.83
1/4/2022 12:00:00 AM 1.23 34.214 0.114 7.46 0.53 13.42
1/4/2022 12:15:00 AM 1.17 34.106 0.114 7.43 0.58 13.68
1/4/2022 12:30:00 AM 0.89 33.602 0.114 7.48 0.52 13.97
1/4/2022 12:45:00 AM 0.87 33.566 0.114 7.46 0.59 13.97
1/4/2022 1:00:00 AM 1.11 33.998 0.114 7.43 0.64 13.71
1/4/2022 1:15:00 AM 0.87 33.566 0.114 7.39 0.59 13.95
1/4/2022 1:30:00 AM 0.87 33.566 0.114 7.46 0.54 13.98
1/4/2022 1:45:00 AM 0.83 33.494 0.114 7.47 0.56 13.97
1/4/2022 2:00:00 AM 0.86 33.548 0.114 7.43 0.56 13.92
1/4/2022 2:15:00 AM 0.77 33.386 0.114 7.46 0.58 14.08
1/4/2022 2:30:00 AM 0.94 33.692 0.115 7.45 0.51 14
1/4/2022 2:45:00 AM 0.77 33.386 0.114 7.44 0.57 13.98
1/4/2022 3:00:00 AM 0.66 33.188 0.114 7.46 0.58 14.03
1/4/2022 3:15:00 AM 0.78 33.404 0.114 7.46 0.56 14.08
1/4/2022 3:30:00 AM 0.69 33.242 0.114 7.4 0.54 14.06
1/4/2022 3:45:00 AM 0.58 33.044 0.114 7.48 0.58 14.12
1/4/2022 4:00:00 AM 0.64 33.152 0.114 7.46 0.52 14.08
1/4/2022 4:15:00 AM 0.61 33.098 0.114 7.45 0.52 14
1/4/2022 4:30:00 AM 0.52 32.936 0.114 7.43 0.6 14.08
1/4/2022 4:45:00 AM 0.69 33.242 0.115 7.41 0.55 14.17
1/4/2022 5:00:00 AM 0.61 33.098 0.114 7.45 0.53 14.06
1/4/2022 5:15:00 AM 0.64 33.152 0.114 7.29 0.66 14.04
1/4/2022 5:30:00 AM 0.82 33.476 0.114 7.45 0.57 13.95
1/4/2022 5:45:00 AM 1.1 33.98 0.114 7.31 0.46 13.68
1/4/2022 6:00:00 AM 0.53 32.954 0.114 7.46 0.48 14.1
1/4/2022 6:15:00 AM 0.71 33.278 0.115 7.46 0.55 13.94
1/4/2022 6:30:00 AM 0.69 33.242 0.115 7.43 0.54 14
1/4/2022 6:45:00 AM 0.51 32.918 0.116 7.45 0.53 14.18
1/4/2022 7:00:00 AM 0.61 33.098 0.114 7.42 0.61 13.96
1/4/2022 7:15:00 AM 0.51 32.918 0.115 7.44 0.48 14
1/4/2022 7:30:00 AM 0.62 33.116 0.115 7.37 0.57 14.1
1/4/2022 7:45:00 AM 0.62 33.116 0.115 7.43 0.51 14.07
1/4/2022 8:00:00 AM 0.42 32.756 0.115 7.49 0.56 14.34
1/4/2022 8:15:00 AM 0.49 32.882 0.115 7.44 0.52 14.32
1/4/2022 8:30:00 AM 0.46 32.828 0.115 7.48 0.52 14.3
1/4/2022 8:45:00 AM 0.55 32.99 0.115 7.46 0.57 14.35
1/4/2022 9:00:00 AM 0.73 33.314 0.115 7.41 0.53 14.32
1/4/2022 9:15:00 AM 0.51 32.918 0.114 7.51 0.55 14.47